Provisional Data: Trout Run near Shawville, PA


Please select a monitoring station.
Please select start date.
Please select start date.

Toggle Unit: C/F Toggle Unit: C/F
Sample Time Temperature (C) Temperature (F) Specific Conductivity (mS/cm) pH   Turbidity (NTU+) DO (mg/L)
12/4/2020 12:00:00 AM 2.22 35.996 0.06 6.3 1.61 13.2
12/4/2020 12:15:00 AM 2.2 35.96 0.06 6.3 1.9 13.21
12/4/2020 12:30:00 AM 2.16 35.888 0.06 6.3 1.93 13.21
12/4/2020 12:45:00 AM 2.13 35.834 0.06 6.3 1.85 13.21
12/4/2020 1:00:00 AM 2.1 35.78 0.059 6.3 1.81 13.26
12/4/2020 1:15:00 AM 2.09 35.762 0.06 6.3 1.72 13.28
12/4/2020 1:30:00 AM -100000 -179968 -100000 -100000 -100000 -100000
12/4/2020 1:45:00 AM -100000 -179968 -100000 -100000 -100000 -100000
12/4/2020 2:00:00 AM -100000 -179968 -100000 -100000 -100000 -100000
12/4/2020 2:15:00 AM 2.01 35.618 0.06 6.3 1.98 13.28
12/4/2020 2:30:00 AM 1.98 35.564 0.059 6.29 2.73 13.3
12/4/2020 2:45:00 AM 1.98 35.564 0.06 6.3 1.5 13.33
12/4/2020 3:00:00 AM -100000 -179968 -100000 -100000 -100000 -100000
12/4/2020 3:15:00 AM -100000 -179968 -100000 -100000 -100000 -100000
12/4/2020 3:30:00 AM -100000 -179968 -100000 -100000 -100000 -100000
12/4/2020 3:45:00 AM 1.95 35.51 0.06 6.3 1.93 13.32
12/4/2020 4:00:00 AM -100000 -179968 -100000 -100000 -100000 -100000
12/4/2020 4:15:00 AM -100000 -179968 -100000 -100000 -100000 -100000
12/4/2020 4:30:00 AM -100000 -179968 -100000 -100000 -100000 -100000
12/4/2020 4:45:00 AM -100000 -179968 -100000 -100000 -100000 -100000
12/4/2020 5:00:00 AM 1.92 35.456 0.06 6.3 2.71 13.34
12/4/2020 5:15:00 AM -100000 -179968 -100000 -100000 -100000 -100000
12/4/2020 5:30:00 AM 1.92 35.456 0.06 6.31 12.31 13.3
12/4/2020 5:45:00 AM 1.92 35.456 0.059 6.31 1.29 13.29
12/4/2020 6:00:00 AM -100000 -179968 -100000 -100000 -100000 -100000
12/4/2020 6:15:00 AM 1.88 35.384 0.059 6.3 1.62 13.3
12/4/2020 6:30:00 AM -100000 -179968 -100000 -100000 -100000 -100000
12/4/2020 6:45:00 AM 1.84 35.312 0.06 6.3 1.21 13.31
12/4/2020 7:00:00 AM 1.83 35.294 0.06 6.3 2.92 13.35
12/4/2020 7:15:00 AM 1.8 35.24 0.059 6.3 1.17 13.38
12/4/2020 7:30:00 AM 1.8 35.24 0.059 6.3 1.28 13.32
12/4/2020 7:45:00 AM 1.78 35.204 0.059 6.3 2.54 13.36
12/4/2020 8:00:00 AM 1.76 35.168 0.059 6.3 1.67 13.41
12/4/2020 8:15:00 AM -100000 -179968 -100000 -100000 -100000 -100000
12/4/2020 8:30:00 AM 1.74 35.132 0.059 6.31 2.23 13.41
12/4/2020 8:45:00 AM 1.74 35.132 0.059 6.32 1.18 13.43
12/4/2020 9:00:00 AM 1.75 35.15 0.059 6.32 16.9 13.44
12/4/2020 9:15:00 AM 1.75 35.15 0.059 6.32 1.05 13.43
12/4/2020 9:30:00 AM 1.74 35.132 0.059 6.32 132.65 13.47
12/4/2020 9:45:00 AM 1.75 35.15 0.059 6.32 5.2 13.46
12/4/2020 10:00:00 AM -100000 -179968 -100000 -100000 -100000 -100000
12/4/2020 10:15:00 AM 1.79 35.222 0.059 6.32 1.3 13.42
12/4/2020 10:30:00 AM 1.81 35.258 0.059 6.32 1.78 13.47
12/4/2020 10:45:00 AM 1.84 35.312 0.059 6.33 1.34 13.46
12/4/2020 11:00:00 AM 1.87 35.366 0.057 6.32 2.99 13.45
12/4/2020 11:15:00 AM 1.91 35.438 0.059 6.33 1.75 13.44
12/4/2020 11:30:00 AM 1.95 35.51 0.059 6.33 1.81 13.42
12/4/2020 11:45:00 AM 2.07 35.726 0.059 6.34 1.97 13.41
12/4/2020 12:00:00 PM 2.18 35.924 0.059 6.35 1.07 13.38
12/4/2020 12:15:00 PM 2.29 36.122 0.059 6.34 1.16 13.34
12/4/2020 12:30:00 PM 2.36 36.248 0.059 6.34 3.38 13.32
12/4/2020 12:45:00 PM 2.42 36.356 0.059 6.35 1.5 13.29
12/4/2020 1:00:00 PM 2.51 36.518 0.059 6.34 1.87 13.25
12/4/2020 1:15:00 PM 2.6 36.68 0.059 6.35 2 13.22
12/4/2020 1:30:00 PM 2.67 36.806 0.059 6.34 2.5 13.19
12/4/2020 1:45:00 PM 2.75 36.95 0.059 6.34 2.79 13.15
12/4/2020 2:00:00 PM 2.8 37.04 0.059 6.34 2.72 13.12
12/4/2020 2:15:00 PM 2.84 37.112 0.059 6.34 1.81 13.08
12/4/2020 2:30:00 PM 2.89 37.202 0.059 6.33 1.46 13.05
12/4/2020 2:45:00 PM 2.92 37.256 0.059 6.33 2.21 13.03
12/4/2020 3:00:00 PM 2.96 37.328 0.059 6.33 2.29 13
12/4/2020 3:15:00 PM 2.99 37.382 0.059 6.32 1.63 12.98
12/4/2020 3:30:00 PM 3.04 37.472 0.059 6.32 1.67 12.96
12/4/2020 3:45:00 PM 3.07 37.526 0.059 6.32 2.23 12.93
12/4/2020 4:00:00 PM 3.12 37.616 0.059 6.32 1.85 12.9
12/4/2020 4:15:00 PM 3.17 37.706 0.059 6.32 1.06 12.88
12/4/2020 4:30:00 PM 3.22 37.796 0.059 6.32 0.99 12.84
12/4/2020 4:45:00 PM 3.24 37.832 0.059 6.32 1.36 12.82
12/4/2020 5:00:00 PM 3.27 37.886 0.059 6.32 1.59 12.8
12/4/2020 5:15:00 PM 3.3 37.94 0.059 6.31 1.17 12.78
12/4/2020 5:30:00 PM 3.32 37.976 0.059 6.31 1.3 12.77
12/4/2020 5:45:00 PM 3.33 37.994 0.059 6.31 1.36 12.76
12/4/2020 6:00:00 PM 3.35 38.03 0.059 6.31 1.38 12.75
12/4/2020 6:15:00 PM 3.37 38.066 0.06 6.32 1.48 12.73
12/4/2020 6:30:00 PM 3.38 38.084 0.059 6.31 1.56 12.72
12/4/2020 6:45:00 PM 3.39 38.102 0.059 6.31 1.53 12.72
12/4/2020 7:00:00 PM 3.41 38.138 0.059 6.31 1.67 12.73
12/4/2020 7:15:00 PM 3.42 38.156 0.059 6.31 1.58 12.72
12/4/2020 7:30:00 PM 3.42 38.156 0.059 6.31 1.47 12.71
12/4/2020 7:45:00 PM 3.43 38.174 0.059 6.31 1.43 12.71
12/4/2020 8:00:00 PM 3.43 38.174 0.059 6.31 1.47 12.73
12/4/2020 8:15:00 PM 3.43 38.174 0.059 6.31 1.41 12.71
12/4/2020 8:30:00 PM 3.44 38.192 0.059 6.31 1.68 12.71
12/4/2020 8:45:00 PM 3.44 38.192 0.059 6.31 1.48 12.72
12/4/2020 9:00:00 PM 3.44 38.192 0.059 6.31 1.41 12.72
12/4/2020 9:15:00 PM 3.44 38.192 0.059 6.31 1.4 12.72
12/4/2020 9:30:00 PM 3.43 38.174 0.059 6.3 1.62 12.72
12/4/2020 9:45:00 PM 3.42 38.156 0.059 6.3 1.52 12.72
12/4/2020 10:00:00 PM 3.4 38.12 0.059 6.3 1.81 12.71
12/4/2020 10:15:00 PM 3.39 38.102 0.059 6.3 1.5 12.72
12/4/2020 10:30:00 PM -100000 -179968 -100000 -100000 -100000 -100000
12/4/2020 10:45:00 PM 3.36 38.048 0.059 6.3 1.63 12.73
12/4/2020 11:00:00 PM 3.34 38.012 0.059 6.31 1.47 12.74
12/4/2020 11:15:00 PM 3.34 38.012 0.059 6.31 1.53 12.73
12/4/2020 11:30:00 PM 3.31 37.958 0.059 6.31 1.4 12.74
12/4/2020 11:45:00 PM 3.29 37.922 0.059 6.3 1.28 12.75
12/5/2020 12:00:00 AM 3.27 37.886 0.059 6.3 1.42 12.76
12/5/2020 12:15:00 AM 3.25 37.85 0.059 6.3 1.35 12.77
12/5/2020 12:30:00 AM 3.24 37.832 0.059 6.31 1.41 12.76
12/5/2020 12:45:00 AM 3.21 37.778 0.059 6.31 1.43 12.77
12/5/2020 1:00:00 AM 3.18 37.724 0.059 6.31 1.52 12.78
12/5/2020 1:15:00 AM 3.15 37.67 0.059 6.3 1.65 12.79
12/5/2020 1:30:00 AM 3.13 37.634 0.059 6.3 1.35 12.8
12/5/2020 1:45:00 AM 3.1 37.58 0.058 6.3 1.52 12.82
12/5/2020 2:00:00 AM 3.09 37.562 0.059 6.3 1.57 12.81
12/5/2020 2:15:00 AM 3.07 37.526 0.059 6.3 1.53 12.8
12/5/2020 2:30:00 AM 3.02 37.436 0.059 6.3 70.33 12.81
12/5/2020 2:45:00 AM 3 37.4 0.059 6.31 1.04 12.84
12/5/2020 3:00:00 AM 2.98 37.364 0.059 6.31 1.06 12.84
12/5/2020 3:15:00 AM 2.95 37.31 0.058 6.3 1.04 12.86
12/5/2020 3:30:00 AM 2.94 37.292 0.058 6.3 1.04 12.87
12/5/2020 3:45:00 AM 2.92 37.256 0.058 6.3 1.09 12.89
12/5/2020 4:00:00 AM 2.91 37.238 0.058 6.3 1.01 12.89
12/5/2020 4:15:00 AM 2.9 37.22 0.058 6.3 1.05 12.89
12/5/2020 4:30:00 AM 2.9 37.22 0.058 6.3 1.06 12.9
12/5/2020 4:45:00 AM 2.9 37.22 0.058 6.3 1.13 12.9
12/5/2020 5:00:00 AM 2.89 37.202 0.058 6.3 1.02 12.9
12/5/2020 5:15:00 AM 2.88 37.184 0.058 6.3 1.01 12.91
12/5/2020 5:30:00 AM 2.89 37.202 0.058 6.3 1.02 12.9
12/5/2020 5:45:00 AM -100000 -179968 -100000 -100000 -100000 -100000
12/5/2020 6:00:00 AM 2.88 37.184 0.057 6.3 1.04 12.91
12/5/2020 6:15:00 AM 2.89 37.202 0.058 6.3 1.06 12.91
12/5/2020 6:30:00 AM 2.9 37.22 0.058 6.3 1.05 12.9
12/5/2020 6:45:00 AM 2.91 37.238 0.058 6.3 1.01 12.91
12/5/2020 7:00:00 AM 2.92 37.256 0.058 6.31 1.03 12.9
12/5/2020 7:15:00 AM -100000 -179968 -100000 -100000 -100000 -100000
12/5/2020 7:30:00 AM 2.93 37.274 0.058 6.31 1.02 12.9
12/5/2020 7:45:00 AM -100000 -179968 -100000 -100000 -100000 -100000
12/5/2020 8:00:00 AM -100000 -179968 -100000 -100000 -100000 -100000
12/5/2020 8:15:00 AM 2.96 37.328 0.058 6.31 2.23 12.88
12/5/2020 8:30:00 AM 2.99 37.382 0.057 6.32 1.07 12.9
12/5/2020 8:45:00 AM 3 37.4 0.057 6.32 1.56 12.91
12/5/2020 9:00:00 AM 3.03 37.454 0.057 6.33 1.34 12.93
12/5/2020 9:15:00 AM 3.06 37.508 0.057 6.33 1.83 12.93
12/5/2020 9:30:00 AM 3.08 37.544 0.057 6.33 1.33 12.94
12/5/2020 9:45:00 AM 3.1 37.58 0.057 6.33 1.18 12.94
12/5/2020 10:00:00 AM 3.12 37.616 0.057 6.33 1.6 12.93
12/5/2020 10:15:00 AM 3.14 37.652 0.057 6.33 1.45 12.92
12/5/2020 10:30:00 AM -100000 -179968 -100000 -100000 -100000 -100000
12/5/2020 10:45:00 AM 3.18 37.724 0.057 6.34 1.2 12.91
12/5/2020 11:00:00 AM 3.2 37.76 0.057 6.34 1.18 12.9
12/5/2020 11:15:00 AM 3.22 37.796 0.057 6.34 1.27 12.89
12/5/2020 11:30:00 AM 3.25 37.85 0.057 6.33 1.31 12.89
12/5/2020 11:45:00 AM 3.28 37.904 0.057 6.34 1.12 12.9
12/5/2020 12:00:00 PM 3.3 37.94 0.056 6.34 1.02 12.89
12/5/2020 12:15:00 PM 3.34 38.012 0.056 6.34 1 12.87
12/5/2020 12:30:00 PM 3.38 38.084 0.056 6.34 1.12 12.83
12/5/2020 12:45:00 PM 3.44 38.192 0.056 6.34 1.05 12.87
12/5/2020 1:00:00 PM 3.48 38.264 0.056 6.35 0.99 12.85
12/5/2020 1:15:00 PM 3.5 38.3 0.056 6.34 0.99 12.83
12/5/2020 1:30:00 PM 3.51 38.318 0.056 6.34 0.97 12.81
12/5/2020 1:45:00 PM 3.53 38.354 0.056 6.34 1.12 12.81
12/5/2020 2:00:00 PM 3.54 38.372 0.056 6.33 1.03 12.78
12/5/2020 2:15:00 PM 3.56 38.408 0.056 6.33 1.04 12.78
12/5/2020 2:30:00 PM 3.57 38.426 0.056 6.33 1.03 12.77
12/5/2020 2:45:00 PM 3.58 38.444 0.056 6.33 1.34 12.76
12/5/2020 3:00:00 PM 3.59 38.462 0.056 6.33 1.03 12.74
12/5/2020 3:15:00 PM 3.59 38.462 0.056 6.32 1 12.72
12/5/2020 3:30:00 PM 3.6 38.48 0.056 6.33 1.02 12.73
12/5/2020 3:45:00 PM 3.61 38.498 0.056 6.33 1 12.73
12/5/2020 4:00:00 PM 3.6 38.48 0.056 6.32 1 12.71
12/5/2020 4:15:00 PM 3.59 38.462 0.056 6.32 1.05 12.72
12/5/2020 4:30:00 PM 3.59 38.462 0.056 6.31 1.03 12.68
12/5/2020 4:45:00 PM 3.57 38.426 0.056 6.31 1.03 12.69
12/5/2020 5:00:00 PM 3.56 38.408 0.056 6.31 1.07 12.69
12/5/2020 5:15:00 PM 3.55 38.39 0.056 6.31 1.07 12.69
12/5/2020 5:30:00 PM 3.54 38.372 0.056 6.31 1.02 12.69
12/5/2020 5:45:00 PM 3.53 38.354 0.056 6.31 1.05 12.69
12/5/2020 6:00:00 PM 3.51 38.318 0.056 6.3 1.03 12.7
12/5/2020 6:15:00 PM 3.51 38.318 0.056 6.3 1.05 12.7
12/5/2020 6:30:00 PM 3.49 38.282 0.056 6.3 1.09 12.69
12/5/2020 6:45:00 PM -100000 -179968 -100000 -100000 -100000 -100000
12/5/2020 7:00:00 PM 3.46 38.228 0.056 6.31 1.03 12.72
12/5/2020 7:15:00 PM 3.44 38.192 0.056 6.3 1.01 12.73
12/5/2020 7:30:00 PM 3.42 38.156 0.056 6.31 1.07 12.73
12/5/2020 7:45:00 PM 3.4 38.12 0.055 6.3 1.05 12.75
12/5/2020 8:00:00 PM 3.38 38.084 0.056 6.3 1.04 12.74
12/5/2020 8:15:00 PM -100000 -179968 -100000 -100000 -100000 -100000
12/5/2020 8:30:00 PM 3.35 38.03 0.055 6.3 1.07 12.77
12/5/2020 8:45:00 PM 3.34 38.012 0.055 6.3 1.13 12.78
12/5/2020 9:00:00 PM 3.32 37.976 0.055 6.31 1.16 12.77
12/5/2020 9:15:00 PM 3.29 37.922 0.055 6.3 1.05 12.78
12/5/2020 9:30:00 PM 3.27 37.886 0.056 6.3 1.05 12.79
12/5/2020 9:45:00 PM 3.26 37.868 0.055 6.3 1.1 12.8
12/5/2020 10:00:00 PM 3.24 37.832 0.056 6.31 1.06 12.8
12/5/2020 10:15:00 PM -100000 -179968 -100000 -100000 -100000 -100000
12/5/2020 10:30:00 PM 3.2 37.76 0.055 6.31 1.01 12.81
12/5/2020 10:45:00 PM 3.18 37.724 0.056 6.31 1.04 12.82
12/5/2020 11:00:00 PM 3.15 37.67 0.055 6.3 1.15 12.84
12/5/2020 11:15:00 PM 3.13 37.634 0.055 6.3 1.05 12.85
12/5/2020 11:30:00 PM 3.12 37.616 0.055 6.31 1.06 12.85
12/5/2020 11:45:00 PM 3.09 37.562 0.055 6.31 1.03 12.87
12/6/2020 12:00:00 AM -100000 -179968 -100000 -100000 -100000 -100000
12/6/2020 12:15:00 AM 3.05 37.49 0.055 6.3 1.06 12.89
12/6/2020 12:30:00 AM 3.03 37.454 0.055 6.3 1.05 12.9
12/6/2020 12:45:00 AM 3.01 37.418 0.055 6.31 1.06 12.9
12/6/2020 1:00:00 AM 2.99 37.382 0.055 6.31 1.05 12.91
12/6/2020 1:15:00 AM 2.98 37.364 0.055 6.31 1 12.91
12/6/2020 1:30:00 AM 2.96 37.328 0.055 6.31 1.04 12.91
12/6/2020 1:45:00 AM 2.93 37.274 0.055 6.3 1.02 12.94
12/6/2020 2:00:00 AM 2.92 37.256 0.055 6.31 1.06 12.93
12/6/2020 2:15:00 AM 2.91 37.238 0.055 6.32 1.04 12.92
12/6/2020 2:30:00 AM 2.88 37.184 0.055 6.31 1.11 12.95
12/6/2020 2:45:00 AM 2.87 37.166 0.055 6.31 1.07 12.94
12/6/2020 3:00:00 AM 2.83 37.094 0.055 6.31 1.04 12.98
12/6/2020 3:15:00 AM 2.81 37.058 0.055 6.31 1.06 12.99
12/6/2020 3:30:00 AM 2.79 37.022 0.055 6.31 1.02 12.99
12/6/2020 3:45:00 AM 2.77 36.986 0.055 6.31 1.06 12.99
12/6/2020 4:00:00 AM -100000 -179968 -100000 -100000 -100000 -100000
12/6/2020 4:15:00 AM 2.74 36.932 0.055 6.31 1.08 13.01
12/6/2020 4:30:00 AM 2.73 36.914 0.055 6.31 1.28 13.01
12/6/2020 4:45:00 AM 2.7 36.86 0.054 6.31 1.07 13.03
12/6/2020 5:00:00 AM 2.68 36.824 0.054 6.3 1.09 13.04
12/6/2020 5:15:00 AM 2.67 36.806 0.054 6.31 1.05 13.04
12/6/2020 5:30:00 AM 2.65 36.77 0.054 6.31 1.03 13.05
12/6/2020 5:45:00 AM 2.62 36.716 0.054 6.31 1.04 13.05
12/6/2020 6:00:00 AM 2.59 36.662 0.055 6.31 1.06 13.06
12/6/2020 6:15:00 AM 2.58 36.644 0.055 6.3 1.08 13.06
12/6/2020 6:30:00 AM 2.55 36.59 0.054 6.3 1.02 13.08
12/6/2020 6:45:00 AM 2.53 36.554 0.054 6.3 1.37 13.09
12/6/2020 7:00:00 AM 2.53 36.554 0.054 6.3 1.12 13.08
12/6/2020 7:15:00 AM 2.51 36.518 0.054 6.3 1.03 13.09
12/6/2020 7:30:00 AM 2.49 36.482 0.054 6.3 1.1 13.08
12/6/2020 7:45:00 AM 2.48 36.464 0.054 6.3 1.28 13.07
12/6/2020 8:00:00 AM -100000 -179968 -100000 -100000 -100000 -100000
12/6/2020 8:15:00 AM 2.45 36.41 0.054 6.31 1.08 13.09
12/6/2020 8:30:00 AM 2.43 36.374 0.054 6.31 1.03 13.13
12/6/2020 8:45:00 AM 2.43 36.374 0.054 6.31 1.04 13.14
12/6/2020 9:00:00 AM 2.42 36.356 0.054 6.32 1.03 13.18
12/6/2020 9:15:00 AM -100000 -179968 -100000 -100000 -100000 -100000
12/6/2020 9:30:00 AM 2.42 36.356 0.054 6.32 1.06 13.2
12/6/2020 9:45:00 AM 2.43 36.374 0.054 6.33 1.08 13.2
12/6/2020 10:00:00 AM 2.43 36.374 0.054 6.33 1.03 13.2
12/6/2020 10:15:00 AM 2.45 36.41 0.054 6.33 1.03 13.24
12/6/2020 10:30:00 AM 2.46 36.428 0.054 6.33 1.08 13.23
12/6/2020 10:45:00 AM 2.47 36.446 0.054 6.33 1.04 13.23
12/6/2020 11:00:00 AM 2.49 36.482 0.054 6.33 1.09 13.23
12/6/2020 11:15:00 AM 2.51 36.518 0.054 6.33 1.24 13.22
12/6/2020 11:30:00 AM 2.53 36.554 0.054 6.33 1.09 13.21
12/6/2020 11:45:00 AM 2.55 36.59 0.054 6.32 1.05 13.19
12/6/2020 12:00:00 PM 2.57 36.626 0.054 6.33 1.05 13.13
12/6/2020 12:15:00 PM 2.59 36.662 0.054 6.34 1.04 13.16
12/6/2020 12:30:00 PM 2.6 36.68 0.054 6.34 1.02 13.17
12/6/2020 12:45:00 PM 2.62 36.716 0.054 6.34 1.04 13.16
12/6/2020 1:00:00 PM 2.64 36.752 0.054 6.34 1.06 13.15
12/6/2020 1:15:00 PM 2.64 36.752 0.054 6.33 0.99 13.14
12/6/2020 1:30:00 PM 2.65 36.77 0.054 6.33 1.06 13.14
12/6/2020 1:45:00 PM 2.65 36.77 0.054 6.33 1.05 13.12
12/6/2020 2:00:00 PM 2.67 36.806 0.054 6.33 1.05 13.11
12/6/2020 2:15:00 PM 2.67 36.806 0.054 6.32 1.09 13.12
12/6/2020 2:30:00 PM 2.68 36.824 0.054 6.32 1.07 13.1
12/6/2020 2:45:00 PM 2.69 36.842 0.054 6.32 1.01 13.09
12/6/2020 3:00:00 PM 2.7 36.86 0.054 6.32 1.03 13.11
12/6/2020 3:15:00 PM 2.71 36.878 0.054 6.32 1.03 13.07
12/6/2020 3:30:00 PM 2.71 36.878 0.054 6.33 1.04 13.07
12/6/2020 3:45:00 PM 2.72 36.896 0.054 6.33 1.02 13.06
12/6/2020 4:00:00 PM 2.71 36.878 0.054 6.32 1.03 13.07
12/6/2020 4:15:00 PM 2.69 36.842 0.054 6.32 1.01 13.07
12/6/2020 4:30:00 PM 2.68 36.824 0.054 6.31 1.04 13.02
12/6/2020 4:45:00 PM 2.66 36.788 0.054 6.3 1.03 13.03
12/6/2020 5:00:00 PM 2.64 36.752 0.054 6.3 1.07 13
12/6/2020 5:15:00 PM 2.62 36.716 0.054 6.3 1.04 12.99
12/6/2020 5:30:00 PM 2.6 36.68 0.054 6.3 1.01 13.02
12/6/2020 5:45:00 PM 2.59 36.662 0.054 6.3 0.97 13.02
12/6/2020 6:00:00 PM -100000 -179968 -100000 -100000 -100000 -100000
12/6/2020 6:15:00 PM 2.56 36.608 0.054 6.3 1.04 13.02
12/6/2020 6:30:00 PM 2.53 36.554 0.054 6.3 1.04 13.05
12/6/2020 6:45:00 PM 2.52 36.536 0.054 6.3 1.1 13.03
12/6/2020 7:00:00 PM 2.51 36.518 0.054 6.3 1.07 13.01
12/6/2020 7:15:00 PM 2.49 36.482 0.054 6.3 1.06 13.05
12/6/2020 7:30:00 PM 2.47 36.446 0.054 6.29 1.02 13.05
12/6/2020 7:45:00 PM 2.45 36.41 0.055 6.3 0.99 13.05
12/6/2020 8:00:00 PM -100000 -179968 -100000 -100000 -100000 -100000
12/6/2020 8:15:00 PM 2.4 36.32 0.054 6.3 1.06 13.08
12/6/2020 8:30:00 PM -100000 -179968 -100000 -100000 -100000 -100000
12/6/2020 8:45:00 PM 2.36 36.248 0.054 6.3 1.16 13.1
12/6/2020 9:00:00 PM 2.34 36.212 0.055 6.3 1.06 13.11
12/6/2020 9:15:00 PM -100000 -179968 -100000 -100000 -100000 -100000
12/6/2020 9:30:00 PM 2.28 36.104 0.054 6.3 1.13 13.14
12/6/2020 9:45:00 PM -100000 -179968 -100000 -100000 -100000 -100000
12/6/2020 10:00:00 PM -100000 -179968 -100000 -100000 -100000 -100000
12/6/2020 10:15:00 PM -100000 -179968 -100000 -100000 -100000 -100000
12/6/2020 10:30:00 PM -100000 -179968 -100000 -100000 -100000 -100000
12/6/2020 10:45:00 PM -100000 -179968 -100000 -100000 -100000 -100000
12/6/2020 11:00:00 PM 2.13 35.834 0.054 6.31 1.09 13.21
12/6/2020 11:15:00 PM 2.1 35.78 0.054 6.31 2.18 13.22
12/6/2020 11:30:00 PM -100000 -179968 -100000 -100000 -100000 -100000
12/6/2020 11:45:00 PM 2.06 35.708 0.054 6.31 1.26 13.24
12/7/2020 12:00:00 AM -100000 -179968 -100000 -100000 -100000 -100000
12/7/2020 12:15:00 AM -100000 -179968 -100000 -100000 -100000 -100000
12/7/2020 12:30:00 AM 2 35.6 0.054 6.31 1.05 13.26
12/7/2020 12:45:00 AM -100000 -179968 -100000 -100000 -100000 -100000
12/7/2020 1:00:00 AM 1.95 35.51 0.054 6.31 1.06 13.29
12/7/2020 1:15:00 AM -100000 -179968 -100000 -100000 -100000 -100000
12/7/2020 1:30:00 AM 1.91 35.438 0.055 6.32 1.04 13.3
12/7/2020 1:45:00 AM 1.89 35.402 0.054 6.31 1.03 13.32
12/7/2020 2:00:00 AM -100000 -179968 -100000 -100000 -100000 -100000
12/7/2020 2:15:00 AM -100000 -179968 -100000 -100000 -100000 -100000
12/7/2020 2:30:00 AM 1.83 35.294 0.054 6.31 1.04 13.34
12/7/2020 2:45:00 AM 1.81 35.258 0.054 6.31 1.06 13.34
12/7/2020 3:00:00 AM 1.79 35.222 0.054 6.31 1.02 13.34
12/7/2020 3:15:00 AM 1.77 35.186 0.054 6.31 0.99 13.37
12/7/2020 3:30:00 AM 1.77 35.186 0.054 6.31 1.04 13.36
12/7/2020 3:45:00 AM 1.76 35.168 0.054 6.31 1.06 13.35
12/7/2020 4:00:00 AM 1.74 35.132 0.054 6.31 1.04 13.36
12/7/2020 4:15:00 AM 1.74 35.132 0.054 6.31 1.03 13.36
12/7/2020 4:30:00 AM -100000 -179968 -100000 -100000 -100000 -100000
12/7/2020 4:45:00 AM 1.71 35.078 0.054 6.31 1 13.37
12/7/2020 5:00:00 AM -100000 -179968 -100000 -100000 -100000 -100000
12/7/2020 5:15:00 AM 1.67 35.006 0.054 6.31 1.03 13.38
12/7/2020 5:30:00 AM 1.65 34.97 0.054 6.31 1.06 13.38
12/7/2020 5:45:00 AM 1.63 34.934 0.054 6.31 1.03 13.4
12/7/2020 6:00:00 AM 1.62 34.916 0.054 6.31 1.1 13.39
12/7/2020 6:15:00 AM -100000 -179968 -100000 -100000 -100000 -100000
12/7/2020 6:30:00 AM 1.59 34.862 0.055 6.32 1.09 13.39
12/7/2020 6:45:00 AM 1.58 34.844 0.054 6.31 1.21 13.39
12/7/2020 7:00:00 AM 1.57 34.826 0.055 6.31 1.13 13.4
12/7/2020 7:15:00 AM 1.56 34.808 0.054 6.31 1.45 13.41
12/7/2020 7:30:00 AM 1.54 34.772 0.054 6.3 1.38 13.4
12/7/2020 7:45:00 AM -100000 -179968 -100000 -100000 -100000 -100000
12/7/2020 8:00:00 AM -100000 -179968 -100000 -100000 -100000 -100000
12/7/2020 8:15:00 AM 1.52 34.736 0.055 6.32 1.07 13.43
12/7/2020 8:30:00 AM -100000 -179968 -100000 -100000 -100000 -100000
12/7/2020 8:45:00 AM 1.51 34.718 0.054 6.32 1.08 13.45
12/7/2020 9:00:00 AM 1.51 34.718 0.054 6.32 1.04 13.48
12/7/2020 9:15:00 AM 1.51 34.718 0.054 6.33 1.03 13.49
12/7/2020 9:30:00 AM -100000 -179968 -100000 -100000 -100000 -100000
12/7/2020 9:45:00 AM 1.51 34.718 0.054 6.33 1.4 13.51
12/7/2020 10:00:00 AM 1.52 34.736 0.054 6.33 1.07 13.53
12/7/2020 10:15:00 AM 1.53 34.754 0.054 6.33 1.02 13.54
12/7/2020 10:30:00 AM 1.54 34.772 0.054 6.33 1 13.52
12/7/2020 10:45:00 AM 1.56 34.808 0.054 6.34 1.06 13.51
12/7/2020 11:00:00 AM 1.59 34.862 0.054 6.35 1.02 13.53
12/7/2020 11:15:00 AM 1.64 34.952 0.054 6.34 1.07 13.53
12/7/2020 11:30:00 AM 1.67 35.006 0.054 6.34 0.99 13.48
12/7/2020 11:45:00 AM 1.72 35.096 0.054 6.35 1.06 13.51
12/7/2020 12:00:00 PM 1.76 35.168 0.054 6.34 1.03 13.5
12/7/2020 12:15:00 PM 1.78 35.204 0.054 6.35 1.04 13.48
12/7/2020 12:30:00 PM 1.83 35.294 0.054 6.34 1 13.45
12/7/2020 12:45:00 PM 1.85 35.33 0.054 6.34 1.04 13.44
12/7/2020 1:00:00 PM 1.87 35.366 0.054 6.33 0.99 13.42
12/7/2020 1:15:00 PM 1.89 35.402 0.054 6.33 1.09 13.41
12/7/2020 1:30:00 PM 1.92 35.456 0.054 6.33 1.03 13.39
12/7/2020 1:45:00 PM 1.93 35.474 0.054 6.34 1.09 13.37
12/7/2020 2:00:00 PM 1.94 35.492 0.054 6.33 1.03 13.35
12/7/2020 2:15:00 PM 1.94 35.492 0.054 6.33 1.03 13.33
12/7/2020 2:30:00 PM 1.95 35.51 0.054 6.33 0.98 13.32
12/7/2020 2:45:00 PM 1.95 35.51 0.054 6.33 1.01 13.3
12/7/2020 3:00:00 PM 1.95 35.51 0.054 6.33 1.03 13.28
12/7/2020 3:15:00 PM 1.93 35.474 0.054 6.32 1.09 13.31
12/7/2020 3:30:00 PM 1.93 35.474 0.054 6.32 1.04 13.3
12/7/2020 3:45:00 PM 1.93 35.474 0.054 6.32 1 13.29
12/7/2020 4:00:00 PM -100000 -179968 -100000 -100000 -100000 -100000
12/7/2020 4:15:00 PM 1.91 35.438 0.054 6.32 1.01 13.29
12/7/2020 4:30:00 PM 1.92 35.456 0.054 6.32 1.02 13.27
12/7/2020 4:45:00 PM 1.92 35.456 0.054 6.31 1.01 13.27
12/7/2020 5:00:00 PM 1.93 35.474 0.054 6.31 1.07 13.25
12/7/2020 5:15:00 PM 1.93 35.474 0.054 6.31 1.04 13.24
12/7/2020 5:30:00 PM 1.92 35.456 0.054 6.3 1.04 13.23
12/7/2020 5:45:00 PM 1.91 35.438 0.054 6.31 1.02 13.24
12/7/2020 6:00:00 PM 1.89 35.402 0.054 6.31 0.98 13.25
12/7/2020 6:15:00 PM 1.88 35.384 0.054 6.3 1.01 13.26
12/7/2020 6:30:00 PM 1.85 35.33 0.054 6.3 1.02 13.27
12/7/2020 6:45:00 PM 1.84 35.312 0.054 6.3 1.02 13.26
12/7/2020 7:00:00 PM 1.82 35.276 0.054 6.3 1.06 13.27
12/7/2020 7:15:00 PM 1.76 35.168 0.054 6.3 1.04 13.31
12/7/2020 7:30:00 PM 1.75 35.15 0.054 6.31 1.18 13.31
12/7/2020 7:45:00 PM 1.72 35.096 0.054 6.29 1.15 13.31
12/7/2020 8:00:00 PM 1.69 35.042 0.055 6.3 1.05 13.32
12/7/2020 8:15:00 PM -100000 -179968 -100000 -100000 -100000 -100000
12/7/2020 8:30:00 PM -100000 -179968 -100000 -100000 -100000 -100000
12/7/2020 8:45:00 PM 1.58 34.844 0.055 6.3 1.03 13.37
12/7/2020 9:00:00 PM 1.53 34.754 0.055 6.3 1.07 13.4
12/7/2020 9:15:00 PM -100000 -179968 -100000 -100000 -100000 -100000
12/7/2020 9:30:00 PM -100000 -179968 -100000 -100000 -100000 -100000
12/7/2020 9:45:00 PM 1.38 34.484 0.055 6.3 1.05 13.45
12/7/2020 10:00:00 PM -100000 -179968 -100000 -100000 -100000 -100000
12/7/2020 10:15:00 PM -100000 -179968 -100000 -100000 -100000 -100000
12/7/2020 10:30:00 PM 1.23 34.214 0.054 6.3 1.01 13.52
12/7/2020 10:45:00 PM -100000 -179968 -100000 -100000 -100000 -100000
12/7/2020 11:00:00 PM -100000 -179968 -100000 -100000 -100000 -100000
12/7/2020 11:15:00 PM 1.09 33.962 0.054 6.3 1.05 13.57
12/7/2020 11:30:00 PM -100000 -179968 -100000 -100000 -100000 -100000
12/7/2020 11:45:00 PM -100000 -179968 -100000 -100000 -100000 -100000
12/8/2020 12:00:00 AM -100000 -179968 -100000 -100000 -100000 -100000
12/8/2020 12:15:00 AM -100000 -179968 -100000 -100000 -100000 -100000
12/8/2020 12:30:00 AM 0.91 33.638 0.055 6.31 1.05 13.63
12/8/2020 12:45:00 AM -100000 -179968 -100000 -100000 -100000 -100000
12/8/2020 1:00:00 AM -100000 -179968 -100000 -100000 -100000 -100000
12/8/2020 1:15:00 AM 0.85 33.53 0.054 6.31 1.03 13.68
12/8/2020 1:30:00 AM 0.85 33.53 0.052 6.29 2.38 13.67
12/8/2020 1:45:00 AM -100000 -179968 -100000 -100000 -100000 -100000
12/8/2020 2:00:00 AM -100000 -179968 -100000 -100000 -100000 -100000
12/8/2020 2:15:00 AM -100000 -179968 -100000 -100000 -100000 -100000
12/8/2020 2:30:00 AM -100000 -179968 -100000 -100000 -100000 -100000
12/8/2020 2:45:00 AM 0.83 33.494 0.055 6.32 1.07 13.69
12/8/2020 3:00:00 AM -100000 -179968 -100000 -100000 -100000 -100000
12/8/2020 3:15:00 AM 0.81 33.458 0.054 6.31 1.03 13.66
12/8/2020 3:30:00 AM 0.78 33.404 0.054 6.31 1.02 13.72
12/8/2020 3:45:00 AM -100000 -179968 -100000 -100000 -100000 -100000
12/8/2020 4:00:00 AM -100000 -179968 -100000 -100000 -100000 -100000
12/8/2020 4:15:00 AM -100000 -179968 -100000 -100000 -100000 -100000
12/8/2020 4:30:00 AM -100000 -179968 -100000 -100000 -100000 -100000
12/8/2020 4:45:00 AM -100000 -179968 -100000 -100000 -100000 -100000
12/8/2020 5:00:00 AM -100000 -179968 -100000 -100000 -100000 -100000
12/8/2020 5:15:00 AM 0.65 33.17 0.054 6.31 1.01 13.77
12/8/2020 5:30:00 AM -100000 -179968 -100000 -100000 -100000 -100000
12/8/2020 5:45:00 AM -100000 -179968 -100000 -100000 -100000 -100000
12/8/2020 6:00:00 AM -100000 -179968 -100000 -100000 -100000 -100000
12/8/2020 6:15:00 AM -100000 -179968 -100000 -100000 -100000 -100000
12/8/2020 6:30:00 AM -100000 -179968 -100000 -100000 -100000 -100000
12/8/2020 6:45:00 AM -100000 -179968 -100000 -100000 -100000 -100000
12/8/2020 7:00:00 AM -100000 -179968 -100000 -100000 -100000 -100000
12/8/2020 7:15:00 AM -100000 -179968 -100000 -100000 -100000 -100000
12/8/2020 7:30:00 AM -100000 -179968 -100000 -100000 -100000 -100000
12/8/2020 7:45:00 AM -100000 -179968 -100000 -100000 -100000 -100000
12/8/2020 8:00:00 AM 0.37 32.666 0.055 6.32 1.05 13.89
12/8/2020 8:15:00 AM 0.34 32.612 0.055 6.31 1.07 13.91
12/8/2020 8:30:00 AM -100000 -179968 -100000 -100000 -100000 -100000
12/8/2020 8:45:00 AM -100000 -179968 -100000 -100000 -100000 -100000
12/8/2020 9:00:00 AM -100000 -179968 -100000 -100000 -100000 -100000
12/8/2020 9:15:00 AM 0.28 32.504 0.055 6.32 1.06 14
12/8/2020 9:30:00 AM 0.28 32.504 0.055 6.33 1.09 14.01
12/8/2020 9:45:00 AM 0.27 32.486 0.055 6.33 1.08 14
12/8/2020 10:00:00 AM 0.27 32.486 0.055 6.31 5.15 14
12/8/2020 10:15:00 AM 0.28 32.504 0.054 6.33 1.03 14.04
12/8/2020 10:30:00 AM 0.28 32.504 0.054 6.33 1 14.04
12/8/2020 10:45:00 AM 0.29 32.522 0.054 6.33 1.03 14.04
12/8/2020 11:00:00 AM 0.31 32.558 0.054 6.33 1.04 14.04
12/8/2020 11:15:00 AM 0.32 32.576 0.054 6.33 1.03 14.05
12/8/2020 11:30:00 AM 0.34 32.612 0.054 6.33 1.09 14.04
12/8/2020 11:45:00 AM 0.37 32.666 0.054 6.33 1.02 14.02
12/8/2020 12:00:00 PM 0.41 32.738 0.054 6.33 0.99 14
12/8/2020 12:15:00 PM -100000 -179968 -100000 -100000 -100000 -100000
12/8/2020 12:30:00 PM 0.5 32.9 0.051 6.32 2.47 13.96
12/8/2020 12:45:00 PM 0.54 32.972 0.054 6.34 1.01 13.95
12/8/2020 1:00:00 PM 0.59 33.062 0.054 6.34 1.02 13.93
12/8/2020 1:15:00 PM 0.66 33.188 0.054 6.34 1.04 13.9
12/8/2020 1:30:00 PM 0.73 33.314 0.054 6.33 1.01 13.88
12/8/2020 1:45:00 PM 0.78 33.404 0.054 6.33 1 13.85
12/8/2020 2:00:00 PM 0.85 33.53 0.054 6.33 1.05 13.81
12/8/2020 2:15:00 PM 0.91 33.638 0.054 6.34 1.01 13.78
12/8/2020 2:30:00 PM -100000 -179968 -100000 -100000 -100000 -100000
12/8/2020 2:45:00 PM -100000 -179968 -100000 -100000 -100000 -100000
12/8/2020 3:00:00 PM 1.08 33.944 0.054 6.34 1.06 13.69
12/8/2020 3:15:00 PM 1.11 33.998 0.054 6.33 0.99 13.67
12/8/2020 3:30:00 PM 1.12 34.016 0.054 6.33 1.02 13.66
12/8/2020 3:45:00 PM 1.13 34.034 0.054 6.33 1.02 13.64
12/8/2020 4:00:00 PM 1.15 34.07 0.054 6.33 1.01 13.63
12/8/2020 4:15:00 PM 1.17 34.106 0.054 6.33 1.04 13.62
12/8/2020 4:30:00 PM 1.19 34.142 0.054 6.33 1 13.62
12/8/2020 4:45:00 PM 1.22 34.196 0.054 6.33 1.01 13.6
12/8/2020 5:00:00 PM 1.24 34.232 0.054 6.33 0.98 13.58
12/8/2020 5:15:00 PM 1.26 34.268 0.055 6.33 1.05 13.56
12/8/2020 5:30:00 PM -100000 -179968 -100000 -100000 -100000 -100000
12/8/2020 5:45:00 PM 1.29 34.322 0.055 6.32 1.04 13.54
12/8/2020 6:00:00 PM 1.31 34.358 0.055 6.33 1.02 13.52
12/8/2020 6:15:00 PM 1.32 34.376 0.055 6.33 1.02 13.53
12/8/2020 6:30:00 PM 1.33 34.394 0.055 6.33 1.04 13.51
12/8/2020 6:45:00 PM 1.34 34.412 0.055 6.33 1 13.5
12/8/2020 7:00:00 PM 1.35 34.43 0.055 6.32 1.04 13.52
12/8/2020 7:15:00 PM 1.35 34.43 0.055 6.33 1.05 13.5
12/8/2020 7:30:00 PM 1.36 34.448 0.055 6.33 1 13.5
12/8/2020 7:45:00 PM 1.36 34.448 0.055 6.32 1.03 13.5
12/8/2020 8:00:00 PM 1.36 34.448 0.055 6.32 1.04 13.5
12/8/2020 8:15:00 PM 1.36 34.448 0.055 6.33 1.05 13.49
12/8/2020 8:30:00 PM 1.36 34.448 0.055 6.32 1.01 13.5
12/8/2020 8:45:00 PM 1.36 34.448 0.055 6.32 1.03 13.5
12/8/2020 9:00:00 PM 1.35 34.43 0.056 6.32 1.01 13.49
12/8/2020 9:15:00 PM 1.35 34.43 0.055 6.33 1.04 13.5
12/8/2020 9:30:00 PM 1.34 34.412 0.055 6.32 1.04 13.51
12/8/2020 9:45:00 PM 1.33 34.394 0.055 6.32 1.04 13.52
12/8/2020 10:00:00 PM 1.32 34.376 0.055 6.31 1.21 13.54
12/8/2020 10:15:00 PM 1.3 34.34 0.055 6.31 1.03 13.53
12/8/2020 10:30:00 PM -100000 -179968 -100000 -100000 -100000 -100000
12/8/2020 10:45:00 PM 1.27 34.286 0.055 6.32 1.04 13.55
12/8/2020 11:00:00 PM 1.26 34.268 0.055 6.32 1.03 13.54
12/8/2020 11:15:00 PM 1.25 34.25 0.055 6.31 1.02 13.56
12/8/2020 11:30:00 PM -100000 -179968 -100000 -100000 -100000 -100000
12/8/2020 11:45:00 PM -100000 -179968 -100000 -100000 -100000 -100000
12/9/2020 12:00:00 AM 1.24 34.232 0.055 6.32 1.05 13.56
12/9/2020 12:15:00 AM 1.23 34.214 0.055 6.32 1 13.56
12/9/2020 12:30:00 AM 1.22 34.196 0.055 6.33 1 13.56
12/9/2020 12:45:00 AM 1.21 34.178 0.055 6.32 1.04 13.56
12/9/2020 1:00:00 AM -100000 -179968 -100000 -100000 -100000 -100000
12/9/2020 1:15:00 AM 1.21 34.178 0.055 6.33 1.04 13.55
12/9/2020 1:30:00 AM -100000 -179968 -100000 -100000 -100000 -100000
12/9/2020 1:45:00 AM 1.19 34.142 0.055 6.32 1.01 13.57
12/9/2020 2:00:00 AM -100000 -179968 -100000 -100000 -100000 -100000
12/9/2020 2:15:00 AM 1.18 34.124 0.055 6.32 1 13.57
12/9/2020 2:30:00 AM -100000 -179968 -100000 -100000 -100000 -100000
12/9/2020 2:45:00 AM 1.17 34.106 0.055 6.32 1.04 13.56
12/9/2020 3:00:00 AM 1.16 34.088 0.055 6.31 1 13.56
12/9/2020 3:15:00 AM 1.14 34.052 0.055 6.31 0.98 13.57
12/9/2020 3:30:00 AM 1.13 34.034 0.055 6.32 0.99 13.57
12/9/2020 3:45:00 AM 1.13 34.034 0.055 6.32 1.03 13.56
12/9/2020 4:00:00 AM -100000 -179968 -100000 -100000 -100000 -100000
12/9/2020 4:15:00 AM -100000 -179968 -100000 -100000 -100000 -100000
12/9/2020 4:30:00 AM 1.1 33.98 0.055 6.32 1.02 13.58
12/9/2020 4:45:00 AM 1.09 33.962 0.055 6.32 1.06 13.57
12/9/2020 5:00:00 AM 1.1 33.98 0.055 6.32 1.03 13.56
12/9/2020 5:15:00 AM 1.09 33.962 0.056 6.33 0.99 13.55
12/9/2020 5:30:00 AM 1.08 33.944 0.055 6.32 1 13.58
12/9/2020 5:45:00 AM 1.08 33.944 0.055 6.32 1.03 13.58
12/9/2020 6:00:00 AM 1.08 33.944 0.055 6.32 1.02 13.58
12/9/2020 6:15:00 AM -100000 -179968 -100000 -100000 -100000 -100000
12/9/2020 6:30:00 AM 1.07 33.926 0.055 6.32 1.02 13.57
12/9/2020 6:45:00 AM 1.06 33.908 0.055 6.32 1.06 13.58
12/9/2020 7:00:00 AM -100000 -179968 -100000 -100000 -100000 -100000
12/9/2020 7:15:00 AM -100000 -179968 -100000 -100000 -100000 -100000
12/9/2020 7:30:00 AM 1.05 33.89 0.055 6.31 1.01 13.59
12/9/2020 7:45:00 AM 1.04 33.872 0.055 6.32 0.99 13.57
12/9/2020 8:00:00 AM 1.04 33.872 0.055 6.32 1.01 13.57
12/9/2020 8:15:00 AM -100000 -179968 -100000 -100000 -100000 -100000
12/9/2020 8:30:00 AM 1.04 33.872 0.055 6.32 1.07 13.59
12/9/2020 8:45:00 AM 1.04 33.872 0.055 6.32 1.04 13.58
12/9/2020 9:00:00 AM 1.04 33.872 0.055 6.32 1 13.58
12/9/2020 9:15:00 AM 1.05 33.89 0.055 6.32 1.03 13.59
12/9/2020 9:30:00 AM 1.05 33.89 0.055 6.32 1.02 13.62
12/9/2020 9:45:00 AM 1.06 33.908 0.055 6.32 1.01 13.64
12/9/2020 10:00:00 AM 1.08 33.944 0.055 6.33 1.03 13.62
12/9/2020 10:15:00 AM 1.1 33.98 0.055 6.33 1.03 13.63
12/9/2020 10:30:00 AM 1.12 34.016 0.055 6.34 1.02 13.61
12/9/2020 10:45:00 AM 1.13 34.034 0.055 6.34 1.02 13.6
12/9/2020 11:00:00 AM 1.15 34.07 0.055 6.33 1.01 13.61
12/9/2020 11:15:00 AM 1.17 34.106 0.055 6.34 1.01 13.59
12/9/2020 11:30:00 AM 1.18 34.124 0.056 6.35 1.03 13.59
12/9/2020 11:45:00 AM 1.21 34.178 0.055 6.35 1.02 13.59
12/9/2020 12:00:00 PM -100000 -179968 -100000 -100000 -100000 -100000
12/9/2020 12:15:00 PM -100000 -179968 -100000 -100000 -100000 -100000
12/9/2020 12:30:00 PM 1.27 34.286 0.055 6.34 1.03 13.58
12/9/2020 12:45:00 PM 1.29 34.322 0.055 6.34 1 13.54
12/9/2020 1:00:00 PM 1.32 34.376 0.055 6.34 0.99 13.55
12/9/2020 1:15:00 PM 1.33 34.394 0.055 6.34 1.03 13.54
12/9/2020 1:30:00 PM 1.36 34.448 0.055 6.35 1.04 13.53
12/9/2020 1:45:00 PM 1.38 34.484 0.055 6.35 1.02 13.52
12/9/2020 2:00:00 PM 1.41 34.538 0.055 6.35 1.04 13.52
12/9/2020 2:15:00 PM -100000 -179968 -100000 -100000 -100000 -100000
12/9/2020 2:30:00 PM 1.46 34.628 0.055 6.34 1.05 13.48
12/9/2020 2:45:00 PM 1.48 34.664 0.055 6.34 1.04 13.47
12/9/2020 3:00:00 PM 1.5 34.7 0.055 6.34 0.98 13.46
12/9/2020 3:15:00 PM 1.52 34.736 0.055 6.34 1.01 13.46
12/9/2020 3:30:00 PM 1.54 34.772 0.055 6.33 1 13.45
12/9/2020 3:45:00 PM 1.55 34.79 0.055 6.35 1.03 13.43
12/9/2020 4:00:00 PM 1.57 34.826 0.055 6.34 1.02 13.41
12/9/2020 4:15:00 PM 1.59 34.862 0.055 6.33 1.11 13.38
12/9/2020 4:30:00 PM 1.6 34.88 0.055 6.33 1 13.39
12/9/2020 4:45:00 PM 1.62 34.916 0.055 6.33 1.01 13.37
12/9/2020 5:00:00 PM 1.63 34.934 0.055 6.33 1.02 13.37
12/9/2020 5:15:00 PM 1.64 34.952 0.055 6.32 1.06 13.35
12/9/2020 5:30:00 PM 1.66 34.988 0.055 6.32 1.04 13.36
12/9/2020 5:45:00 PM 1.67 35.006 0.055 6.31 1.01 13.36
12/9/2020 6:00:00 PM 1.68 35.024 0.055 6.32 1.03 13.34
12/9/2020 6:15:00 PM 1.69 35.042 0.055 6.32 1 13.32
12/9/2020 6:30:00 PM 1.71 35.078 0.055 6.32 0.99 13.34
12/9/2020 6:45:00 PM 1.72 35.096 0.055 6.32 1.02 13.32
12/9/2020 7:00:00 PM 1.74 35.132 0.055 6.32 1.05 13.32
12/9/2020 7:15:00 PM -100000 -179968 -100000 -100000 -100000 -100000
12/9/2020 7:30:00 PM 1.76 35.168 0.055 6.32 1.02 13.31
12/9/2020 7:45:00 PM 1.77 35.186 0.055 6.32 0.99 13.31
12/9/2020 8:00:00 PM -100000 -179968 -100000 -100000 -100000 -100000
12/9/2020 8:15:00 PM 1.81 35.258 0.055 6.32 1.01 13.3
12/9/2020 8:30:00 PM 1.82 35.276 0.055 6.32 1.09 13.29
12/9/2020 8:45:00 PM 1.83 35.294 0.056 6.33 1.04 13.27
12/9/2020 9:00:00 PM 1.85 35.33 0.055 6.33 1.02 13.28
12/9/2020 9:15:00 PM 1.86 35.348 0.055 6.32 1.08 13.29
12/9/2020 9:30:00 PM 1.87 35.366 0.055 6.32 1.07 13.29
12/9/2020 9:45:00 PM 1.88 35.384 0.055 6.32 1.12 13.28
12/9/2020 10:00:00 PM 1.9 35.42 0.055 6.33 1.09 13.27
12/9/2020 10:15:00 PM -100000 -179968 -100000 -100000 -100000 -100000
12/9/2020 10:30:00 PM 1.92 35.456 0.055 6.32 1.02 13.28
12/9/2020 10:45:00 PM -100000 -179968 -100000 -100000 -100000 -100000
12/9/2020 11:00:00 PM 1.94 35.492 0.055 6.32 1.03 13.27
12/9/2020 11:15:00 PM 1.96 35.528 0.055 6.32 1.04 13.27
12/9/2020 11:30:00 PM 1.97 35.546 0.055 6.33 1.03 13.26
12/9/2020 11:45:00 PM -100000 -179968 -100000 -100000 -100000 -100000
12/10/2020 12:00:00 AM 1.99 35.582 0.055 6.32 0.99 13.25
12/10/2020 12:15:00 AM -100000 -179968 -100000 -100000 -100000 -100000
12/10/2020 12:30:00 AM 2.02 35.636 0.055 6.33 1.02 13.23
12/10/2020 12:45:00 AM 2.03 35.654 0.055 6.33 0.98 13.24
12/10/2020 1:00:00 AM 2.05 35.69 0.055 6.33 0.98 13.24
12/10/2020 1:15:00 AM 2.06 35.708 0.055 6.32 1.02 13.24
12/10/2020 1:30:00 AM 2.07 35.726 0.055 6.33 0.99 13.22
12/10/2020 1:45:00 AM 2.08 35.744 0.055 6.33 0.99 13.23
12/10/2020 2:00:00 AM 2.09 35.762 0.055 6.33 1.04 13.22
12/10/2020 2:15:00 AM 2.1 35.78 0.055 6.33 1.05 13.23
12/10/2020 2:30:00 AM 2.12 35.816 0.055 6.32 1.04 13.23
12/10/2020 2:45:00 AM 2.13 35.834 0.055 6.33 1.01 13.23
12/10/2020 3:00:00 AM 2.14 35.852 0.055 6.33 1.02 13.22
12/10/2020 3:15:00 AM 2.15 35.87 0.055 6.33 1 13.21
12/10/2020 3:30:00 AM 2.16 35.888 0.055 6.33 0.99 13.21
12/10/2020 3:45:00 AM -100000 -179968 -100000 -100000 -100000 -100000
12/10/2020 4:00:00 AM -100000 -179968 -100000 -100000 -100000 -100000
12/10/2020 4:15:00 AM -100000 -179968 -100000 -100000 -100000 -100000
12/10/2020 4:30:00 AM 2.2 35.96 0.055 6.33 1.04 13.2
12/10/2020 4:45:00 AM 2.21 35.978 0.055 6.33 1 13.19
12/10/2020 5:00:00 AM 2.22 35.996 0.055 6.34 1.05 13.19
12/10/2020 5:15:00 AM 2.23 36.014 0.055 6.33 1.02 13.2
12/10/2020 5:30:00 AM 2.24 36.032 0.055 6.33 1 13.19
12/10/2020 5:45:00 AM 2.25 36.05 0.055 6.33 1.04 13.2
12/10/2020 6:00:00 AM 2.26 36.068 0.055 6.33 0.97 13.19
12/10/2020 6:15:00 AM 2.26 36.068 0.055 6.33 0.99 13.19
12/10/2020 6:30:00 AM 2.27 36.086 0.055 6.32 1 13.19
12/10/2020 6:45:00 AM -100000 -179968 -100000 -100000 -100000 -100000
12/10/2020 7:00:00 AM 2.29 36.122 0.054 6.32 1.03 13.21
12/10/2020 7:15:00 AM 2.3 36.14 0.055 6.32 1.02 13.19
12/10/2020 7:30:00 AM 2.3 36.14 0.055 6.31 0.98 13.19
12/10/2020 7:45:00 AM 2.31 36.158 0.055 6.31 1.01 13.17
12/10/2020 8:00:00 AM -100000 -179968 -100000 -100000 -100000 -100000
12/10/2020 8:15:00 AM 2.33 36.194 0.055 6.32 1.02 13.2
12/10/2020 8:30:00 AM 2.34 36.212 0.055 6.32 1.01 13.2
12/10/2020 8:45:00 AM 2.35 36.23 0.055 6.33 0.99 13.2
12/10/2020 9:00:00 AM 2.37 36.266 0.055 6.33 1.02 13.22
12/10/2020 9:15:00 AM 2.39 36.302 0.055 6.33 1.01 13.19
12/10/2020 9:30:00 AM -100000 -179968 -100000 -100000 -100000 -100000
12/10/2020 9:45:00 AM 2.43 36.374 0.055 6.34 1.03 13.24
12/10/2020 10:00:00 AM 2.46 36.428 0.055 6.34 1.01 13.25
12/10/2020 10:15:00 AM 2.49 36.482 0.055 6.34 1 13.25
12/10/2020 10:30:00 AM 2.53 36.554 0.055 6.35 1.27 13.25
12/10/2020 10:45:00 AM 2.57 36.626 0.054 6.34 1 13.25
12/10/2020 11:00:00 AM -100000 -179968 -100000 -100000 -100000 -100000
12/10/2020 11:15:00 AM 2.67 36.806 0.054 6.35 1 13.25
12/10/2020 11:30:00 AM 2.72 36.896 0.054 6.35 0.95 13.24
12/10/2020 11:45:00 AM 2.77 36.986 0.054 6.36 1 13.22
12/10/2020 12:00:00 PM 2.81 37.058 0.054 6.36 1.01 13.2
12/10/2020 12:15:00 PM 2.84 37.112 0.055 6.36 0.96 13.18
12/10/2020 12:30:00 PM 2.88 37.184 0.054 6.36 1.02 13.17
12/10/2020 12:45:00 PM 2.91 37.238 0.055 6.36 1.01 13.13
12/10/2020 1:00:00 PM 2.93 37.274 0.054 6.36 0.98 13.12
12/10/2020 1:15:00 PM 2.95 37.31 0.055 6.35 1.01 13.08
12/10/2020 1:30:00 PM 2.96 37.328 0.055 6.36 1.04 13.06
12/10/2020 1:45:00 PM 2.98 37.364 0.055 6.35 1.02 13.06
12/10/2020 2:00:00 PM 3 37.4 0.055 6.35 1 13.04
12/10/2020 2:15:00 PM 3.03 37.454 0.054 6.35 1.01 13.02
12/10/2020 2:30:00 PM 3.06 37.508 0.054 6.34 0.96 13.01
12/10/2020 2:45:00 PM 3.09 37.562 0.054 6.34 0.99 12.98
12/10/2020 3:00:00 PM 3.13 37.634 0.054 6.34 0.99 12.96
12/10/2020 3:15:00 PM 3.18 37.724 0.054 6.34 0.99 12.94
12/10/2020 3:30:00 PM 3.19 37.742 0.054 6.33 1.01 12.92
12/10/2020 3:45:00 PM 3.22 37.796 0.054 6.33 0.95 12.87
12/10/2020 4:00:00 PM 3.23 37.814 0.055 6.34 1 12.88
12/10/2020 4:15:00 PM 3.27 37.886 0.054 6.33 1 12.87
12/10/2020 4:30:00 PM 3.28 37.904 0.054 6.33 1 12.85
12/10/2020 4:45:00 PM 3.29 37.922 0.055 6.33 0.99 12.84
12/10/2020 5:00:00 PM -100000 -179968 -100000 -100000 -100000 -100000
12/10/2020 5:15:00 PM 3.27 37.886 0.055 6.32 1.12 12.81
12/10/2020 5:30:00 PM 3.24 37.832 0.055 6.31 1.25 12.82
12/10/2020 5:45:00 PM 3.21 37.778 0.055 6.31 1 12.82
12/10/2020 6:00:00 PM 3.17 37.706 0.054 6.3 0.98 12.84
12/10/2020 6:15:00 PM 3.14 37.652 0.055 6.31 0.99 12.83
12/10/2020 6:30:00 PM 3.1 37.58 0.055 6.32 1.05 12.84
12/10/2020 6:45:00 PM 3.04 37.472 0.055 6.3 1.02 12.88
12/10/2020 7:00:00 PM 2.98 37.364 0.055 6.29 1.02 12.88
12/10/2020 7:15:00 PM 2.93 37.274 0.055 6.3 1.02 12.93
12/10/2020 7:30:00 PM 2.89 37.202 0.055 6.29 0.99 12.94
12/10/2020 7:45:00 PM 2.86 37.148 0.055 6.3 1.02 12.93
12/10/2020 8:00:00 PM -100000 -179968 -100000 -100000 -100000 -100000
12/10/2020 8:15:00 PM -100000 -179968 -100000 -100000 -100000 -100000
12/10/2020 8:30:00 PM 2.7 36.86 0.055 6.29 1 13
12/10/2020 8:45:00 PM -100000 -179968 -100000 -100000 -100000 -100000
12/10/2020 9:00:00 PM 2.59 36.662 0.055 6.29 1 13.04
12/10/2020 9:15:00 PM -100000 -179968 -100000 -100000 -100000 -100000
12/10/2020 9:30:00 PM 2.49 36.482 0.055 6.29 1.03 13.09
12/10/2020 9:45:00 PM 2.44 36.392 0.055 6.29 1.02 13.11
12/10/2020 10:00:00 PM -100000 -179968 -100000 -100000 -100000 -100000
12/10/2020 10:15:00 PM -100000 -179968 -100000 -100000 -100000 -100000
12/10/2020 10:30:00 PM 2.28 36.104 0.055 6.29 0.99 13.18
12/10/2020 10:45:00 PM -100000 -179968 -100000 -100000 -100000 -100000
12/10/2020 11:00:00 PM -100000 -179968 -100000 -100000 -100000 -100000
12/10/2020 11:15:00 PM 2.13 35.834 0.055 6.29 1.05 13.23
12/10/2020 11:30:00 PM -100000 -179968 -100000 -100000 -100000 -100000
12/10/2020 11:45:00 PM 2.03 35.654 0.055 6.29 0.99 13.27
12/11/2020 12:00:00 AM 1.96 35.528 0.054 6.29 1.04 13.3
12/11/2020 12:15:00 AM -100000 -179968 -100000 -100000 -100000 -100000
12/11/2020 12:30:00 AM -100000 -179968 -100000 -100000 -100000 -100000
12/11/2020 12:45:00 AM -100000 -179968 -100000 -100000 -100000 -100000
12/11/2020 1:00:00 AM 1.76 35.168 0.054 6.29 1.01 13.38
12/11/2020 1:15:00 AM -100000 -179968 -100000 -100000 -100000 -100000
12/11/2020 1:30:00 AM -100000 -179968 -100000 -100000 -100000 -100000
12/11/2020 1:45:00 AM -100000 -179968 -100000 -100000 -100000 -100000
12/11/2020 2:00:00 AM -100000 -179968 -100000 -100000 -100000 -100000
12/11/2020 2:15:00 AM -100000 -179968 -100000 -100000 -100000 -100000
12/11/2020 2:30:00 AM 1.51 34.718 0.055 6.3 1.01 13.48
12/11/2020 2:45:00 AM -100000 -179968 -100000 -100000 -100000 -100000
12/11/2020 3:00:00 AM -100000 -179968 -100000 -100000 -100000 -100000
12/11/2020 3:15:00 AM -100000 -179968 -100000 -100000 -100000 -100000
12/11/2020 3:30:00 AM -100000 -179968 -100000 -100000 -100000 -100000
12/11/2020 3:45:00 AM -100000 -179968 -100000 -100000 -100000 -100000
12/11/2020 4:00:00 AM -100000 -179968 -100000 -100000 -100000 -100000
12/11/2020 4:15:00 AM -100000 -179968 -100000 -100000 -100000 -100000
12/11/2020 4:30:00 AM -100000 -179968 -100000 -100000 -100000 -100000
12/11/2020 4:45:00 AM -100000 -179968 -100000 -100000 -100000 -100000
12/11/2020 5:00:00 AM 1.1 33.98 0.055 6.3 1.03 13.66
12/11/2020 5:15:00 AM -100000 -179968 -100000 -100000 -100000 -100000
12/11/2020 5:30:00 AM -100000 -179968 -100000 -100000 -100000 -100000
12/11/2020 5:45:00 AM -100000 -179968 -100000 -100000 -100000 -100000
12/11/2020 6:00:00 AM -100000 -179968 -100000 -100000 -100000 -100000
12/11/2020 6:15:00 AM -100000 -179968 -100000 -100000 -100000 -100000
12/11/2020 6:30:00 AM -100000 -179968 -100000 -100000 -100000 -100000
12/11/2020 6:45:00 AM -100000 -179968 -100000 -100000 -100000 -100000
12/11/2020 7:00:00 AM -100000 -179968 -100000 -100000 -100000 -100000
12/11/2020 7:15:00 AM -100000 -179968 -100000 -100000 -100000 -100000
12/11/2020 7:30:00 AM -100000 -179968 -100000 -100000 -100000 -100000
12/11/2020 7:45:00 AM -100000 -179968 -100000 -100000 -100000 -100000
12/11/2020 8:00:00 AM -100000 -179968 -100000 -100000 -100000 -100000
12/11/2020 8:15:00 AM -100000 -179968 -100000 -100000 -100000 -100000
12/11/2020 8:30:00 AM 0.67 33.206 0.055 6.31 1.02 13.83
12/11/2020 8:45:00 AM 0.66 33.188 0.055 6.31 1.05 13.88
12/11/2020 9:00:00 AM -100000 -179968 -100000 -100000 -100000 -100000
12/11/2020 9:15:00 AM 0.66 33.188 0.055 6.32 1.04 13.95
12/11/2020 9:30:00 AM -100000 -179968 -100000 -100000 -100000 -100000
12/11/2020 9:45:00 AM 0.71 33.278 0.055 6.33 1.01 13.96
12/11/2020 10:00:00 AM 0.74 33.332 0.055 6.33 1.03 13.96
12/11/2020 10:15:00 AM 0.78 33.404 0.055 6.34 1.04 13.96
12/11/2020 10:30:00 AM 0.83 33.494 0.055 6.34 1.01 13.94
12/11/2020 10:45:00 AM 0.88 33.584 0.054 6.34 1 13.94
12/11/2020 11:00:00 AM 0.93 33.674 0.054 6.34 1.05 13.92
12/11/2020 11:15:00 AM 0.97 33.746 0.054 6.34 1.02 13.9
12/11/2020 11:30:00 AM 1.01 33.818 0.054 6.34 1 13.89
12/11/2020 11:45:00 AM -100000 -179968 -100000 -100000 -100000 -100000
12/11/2020 12:00:00 PM 1.12 34.016 0.054 6.34 1.02 13.82
12/11/2020 12:15:00 PM 1.19 34.142 0.054 6.34 1.01 13.81
12/11/2020 12:30:00 PM 1.25 34.25 0.054 6.35 1.1 13.78
12/11/2020 12:45:00 PM 1.35 34.43 0.054 6.35 0.99 13.75
12/11/2020 1:00:00 PM 1.47 34.646 0.054 6.35 1 13.71
12/11/2020 1:15:00 PM 1.55 34.79 0.054 6.35 1 13.68
12/11/2020 1:30:00 PM 1.63 34.934 0.054 6.36 0.98 13.63
12/11/2020 1:45:00 PM 1.71 35.078 0.055 6.36 1 13.58
12/11/2020 2:00:00 PM 1.83 35.294 0.054 6.35 0.99 13.54
12/11/2020 2:15:00 PM 1.89 35.402 0.054 6.35 1.01 13.54
12/11/2020 2:30:00 PM 1.98 35.564 0.054 6.35 0.97 13.47
12/11/2020 2:45:00 PM 2.06 35.708 0.054 6.34 1.01 13.43
12/11/2020 3:00:00 PM 2.13 35.834 0.054 6.34 1 13.37
12/11/2020 3:15:00 PM 2.19 35.942 0.054 6.34 0.99 13.33
12/11/2020 3:30:00 PM 2.23 36.014 0.054 6.33 0.99 13.29
12/11/2020 3:45:00 PM 2.28 36.104 0.054 6.33 0.97 13.28
12/11/2020 4:00:00 PM 2.32 36.176 0.054 6.33 0.96 13.25
12/11/2020 4:15:00 PM 2.37 36.266 0.054 6.33 1.01 13.22
12/11/2020 4:30:00 PM 2.42 36.356 0.054 6.33 0.98 13.21
12/11/2020 4:45:00 PM 2.45 36.41 0.054 6.32 0.97 13.16
12/11/2020 5:00:00 PM 2.49 36.482 0.055 6.33 0.98 13.15
12/11/2020 5:15:00 PM 2.51 36.518 0.055 6.33 1 13.12
12/11/2020 5:30:00 PM 2.53 36.554 0.055 6.33 1.03 13.09
12/11/2020 5:45:00 PM 2.55 36.59 0.053 6.3 2.29 13.09
12/11/2020 6:00:00 PM 2.56 36.608 0.055 6.32 1.01 13.02
12/11/2020 6:15:00 PM 2.56 36.608 0.055 6.32 0.99 13.03
12/11/2020 6:30:00 PM 2.56 36.608 0.055 6.32 1.02 13.05
12/11/2020 6:45:00 PM 2.56 36.608 0.055 6.32 1.01 13.05
12/11/2020 7:00:00 PM 2.56 36.608 0.055 6.31 1.1 13.04
12/11/2020 7:15:00 PM 2.57 36.626 0.055 6.32 1.01 13.04
12/11/2020 7:30:00 PM 2.58 36.644 0.055 6.31 1 13.04
12/11/2020 7:45:00 PM 2.59 36.662 0.055 6.32 1 13.05
12/11/2020 8:00:00 PM 2.59 36.662 0.055 6.31 1.06 13.04
12/11/2020 8:15:00 PM 2.59 36.662 0.055 6.31 1.01 13.04
12/11/2020 8:30:00 PM 2.58 36.644 0.055 6.31 1.01 13.05
12/11/2020 8:45:00 PM 2.56 36.608 0.055 6.31 1.05 13.05
12/11/2020 9:00:00 PM 2.54 36.572 0.055 6.31 0.99 13.06
12/11/2020 9:15:00 PM 2.52 36.536 0.055 6.31 0.99 13.06
12/11/2020 9:30:00 PM 2.5 36.5 0.055 6.31 0.99 13.06
12/11/2020 9:45:00 PM 2.47 36.446 0.056 6.32 1 13.07
12/11/2020 10:00:00 PM 2.44 36.392 0.056 6.31 1 13.09
12/11/2020 10:15:00 PM 2.4 36.32 0.055 6.31 0.98 13.1
12/11/2020 10:30:00 PM -100000 -179968 -100000 -100000 -100000 -100000
12/11/2020 10:45:00 PM -100000 -179968 -100000 -100000 -100000 -100000
12/11/2020 11:00:00 PM 2.31 36.158 0.056 6.31 1.05 13.12
12/11/2020 11:15:00 PM -100000 -179968 -100000 -100000 -100000 -100000
12/11/2020 11:30:00 PM 2.23 36.014 0.055 6.31 0.99 13.16
12/11/2020 11:45:00 PM -100000 -179968 -100000 -100000 -100000 -100000
12/12/2020 12:00:00 AM 2.16 35.888 0.055 6.3 1.02 13.21
12/12/2020 12:15:00 AM -100000 -179968 -100000 -100000 -100000 -100000
12/12/2020 12:30:00 AM 2.1 35.78 0.055 6.31 1 13.23
12/12/2020 12:45:00 AM 2.06 35.708 0.055 6.31 1.03 13.23
12/12/2020 1:00:00 AM 2.03 35.654 0.055 6.31 1 13.25
12/12/2020 1:15:00 AM 2 35.6 0.055 6.31 1 13.27
12/12/2020 1:30:00 AM 1.97 35.546 0.055 6.31 0.97 13.28
12/12/2020 1:45:00 AM 1.96 35.528 0.055 6.31 1.07 13.3
12/12/2020 2:00:00 AM 1.92 35.456 0.055 6.31 1.05 13.32
12/12/2020 2:15:00 AM -100000 -179968 -100000 -100000 -100000 -100000
12/12/2020 2:30:00 AM 1.88 35.384 0.055 6.31 1.51 13.33
12/12/2020 2:45:00 AM 1.87 35.366 0.055 6.32 1.03 13.33
12/12/2020 3:00:00 AM 1.84 35.312 0.055 6.31 1.01 13.34
12/12/2020 3:15:00 AM 1.82 35.276 0.055 6.31 1 13.34
12/12/2020 3:30:00 AM -100000 -179968 -100000 -100000 -100000 -100000
12/12/2020 3:45:00 AM -100000 -179968 -100000 -100000 -100000 -100000
12/12/2020 4:00:00 AM -100000 -179968 -100000 -100000 -100000 -100000
12/12/2020 4:15:00 AM -100000 -179968 -100000 -100000 -100000 -100000
12/12/2020 4:30:00 AM 1.68 35.024 0.055 6.31 1.01 13.42
12/12/2020 4:45:00 AM 1.67 35.006 0.055 6.31 0.98 13.42
12/12/2020 5:00:00 AM 1.66 34.988 0.055 6.31 1.05 13.42
12/12/2020 5:15:00 AM 1.66 34.988 0.055 6.31 1.03 13.42
12/12/2020 5:30:00 AM 1.65 34.97 0.055 6.31 1 13.43
12/12/2020 5:45:00 AM -100000 -179968 -100000 -100000 -100000 -100000
12/12/2020 6:00:00 AM -100000 -179968 -100000 -100000 -100000 -100000
12/12/2020 6:15:00 AM 1.62 34.916 0.055 6.32 0.99 13.44
12/12/2020 6:30:00 AM 1.62 34.916 0.055 6.32 1 13.44
12/12/2020 6:45:00 AM -100000 -179968 -100000 -100000 -100000 -100000
12/12/2020 7:00:00 AM -100000 -179968 -100000 -100000 -100000 -100000
12/12/2020 7:15:00 AM -100000 -179968 -100000 -100000 -100000 -100000
12/12/2020 7:30:00 AM -100000 -179968 -100000 -100000 -100000 -100000
12/12/2020 7:45:00 AM -100000 -179968 -100000 -100000 -100000 -100000
12/12/2020 8:00:00 AM -100000 -179968 -100000 -100000 -100000 -100000
12/12/2020 8:15:00 AM 1.6 34.88 0.055 6.31 1.03 13.47
12/12/2020 8:30:00 AM -100000 -179968 -100000 -100000 -100000 -100000
12/12/2020 8:45:00 AM 1.62 34.916 0.055 6.32 0.99 13.48
12/12/2020 9:00:00 AM 1.64 34.952 0.054 6.33 1.03 13.49
12/12/2020 9:15:00 AM 1.66 34.988 0.054 6.33 1.05 13.5
12/12/2020 9:30:00 AM 1.69 35.042 0.054 6.33 1.06 13.52
12/12/2020 9:45:00 AM 1.71 35.078 0.054 6.33 1.06 13.5
12/12/2020 10:00:00 AM 1.75 35.15 0.054 6.34 1.06 13.51
12/12/2020 10:15:00 AM 1.79 35.222 0.055 6.35 1.02 13.48
12/12/2020 10:30:00 AM 1.84 35.312 0.055 6.34 1.04 13.46
12/12/2020 10:45:00 AM 1.89 35.402 0.055 6.35 1 13.47
12/12/2020 11:00:00 AM 1.96 35.528 0.054 6.35 1.03 13.43
12/12/2020 11:15:00 AM 2.03 35.654 0.054 6.35 1 13.43
12/12/2020 11:30:00 AM 2.14 35.852 0.054 6.36 1.04 13.41
12/12/2020 11:45:00 AM 2.22 35.996 0.054 6.36 1.03 13.37
12/12/2020 12:00:00 PM 2.28 36.104 0.054 6.36 1.03 13.34
12/12/2020 12:15:00 PM 2.33 36.194 0.054 6.36 0.98 13.3
12/12/2020 12:30:00 PM 2.39 36.302 0.054 6.36 0.99 13.27
12/12/2020 12:45:00 PM 2.44 36.392 0.054 6.36 0.99 13.21
12/12/2020 1:00:00 PM 2.56 36.608 0.054 6.36 1 13.19
12/12/2020 1:15:00 PM 2.63 36.734 0.054 6.37 1 13.14
12/12/2020 1:30:00 PM 2.72 36.896 0.054 6.37 1 13.1
12/12/2020 1:45:00 PM 2.8 37.04 0.054 6.36 1 13.06
12/12/2020 2:00:00 PM 2.92 37.256 0.054 6.37 0.98 13.01
12/12/2020 2:15:00 PM 3 37.4 0.054 6.37 0.96 12.97
12/12/2020 2:30:00 PM 3.11 37.598 0.054 6.36 1.01 12.93
12/12/2020 2:45:00 PM 3.16 37.688 0.054 6.36 0.98 12.88
12/12/2020 3:00:00 PM 3.25 37.85 0.054 6.36 1.01 12.86
12/12/2020 3:15:00 PM 3.32 37.976 0.054 6.36 0.97 12.84
12/12/2020 3:30:00 PM 3.38 38.084 0.054 6.36 1 12.81
12/12/2020 3:45:00 PM 3.44 38.192 0.054 6.35 1.02 12.76
12/12/2020 4:00:00 PM 3.52 38.336 0.055 6.35 0.99 12.71
12/12/2020 4:15:00 PM 3.61 38.498 0.054 6.34 1 12.69
12/12/2020 4:30:00 PM 3.64 38.552 0.054 6.35 1 12.65
12/12/2020 4:45:00 PM 3.68 38.624 0.054 6.34 1 12.63
12/12/2020 5:00:00 PM 3.71 38.678 0.054 6.33 0.99 12.59
12/12/2020 5:15:00 PM 3.72 38.696 0.054 6.32 1.04 12.59
12/12/2020 5:30:00 PM 3.74 38.732 0.054 6.32 1.06 12.57
12/12/2020 5:45:00 PM 3.76 38.768 0.054 6.31 1.11 12.56
12/12/2020 6:00:00 PM 3.78 38.804 0.054 6.31 1.03 12.52
12/12/2020 6:15:00 PM 3.79 38.822 0.054 6.32 1.03 12.53
12/12/2020 6:30:00 PM 3.83 38.894 0.054 6.31 1.19 12.53
12/12/2020 6:45:00 PM 3.85 38.93 0.054 6.31 1 12.52
12/12/2020 7:00:00 PM 3.88 38.984 0.054 6.31 1.01 12.49
12/12/2020 7:15:00 PM 3.91 39.038 0.054 6.31 1 12.48
12/12/2020 7:30:00 PM 3.94 39.092 0.054 6.31 0.98 12.47
12/12/2020 7:45:00 PM 3.97 39.146 0.054 6.31 0.99 12.46
12/12/2020 8:00:00 PM 4 39.2 0.054 6.31 0.98 12.46
12/12/2020 8:15:00 PM 4.03 39.254 0.054 6.3 0.98 12.45
12/12/2020 8:30:00 PM 4.05 39.29 0.055 6.3 0.99 12.43
12/12/2020 8:45:00 PM 4.07 39.326 0.055 6.3 0.99 12.41
12/12/2020 9:00:00 PM 4.09 39.362 0.055 6.31 1.02 12.42
12/12/2020 9:15:00 PM 4.11 39.398 0.055 6.3 0.98 12.42
12/12/2020 9:30:00 PM 4.12 39.416 0.055 6.3 1.07 12.43
12/12/2020 9:45:00 PM 4.13 39.434 0.055 6.3 1.47 12.41
12/12/2020 10:00:00 PM 4.14 39.452 0.056 6.31 1.02 12.4
12/12/2020 10:15:00 PM 4.15 39.47 0.055 6.3 1 12.41
12/12/2020 10:30:00 PM 4.16 39.488 0.056 6.3 1.1 12.39
12/12/2020 10:45:00 PM 4.17 39.506 0.056 6.3 1.01 12.39
12/12/2020 11:00:00 PM 4.18 39.524 0.056 6.3 0.98 12.35
12/12/2020 11:15:00 PM 4.19 39.542 0.056 6.29 1.17 12.39
12/12/2020 11:30:00 PM 4.2 39.56 0.056 6.29 1 12.41
12/12/2020 11:45:00 PM -100000 -179968 -100000 -100000 -100000 -100000
12/13/2020 12:00:00 AM 4.21 39.578 0.056 6.29 0.99 12.39
12/13/2020 12:15:00 AM 4.21 39.578 0.056 6.29 1.02 12.39
12/13/2020 12:30:00 AM 4.22 39.596 0.056 6.28 0.98 12.38
12/13/2020 12:45:00 AM 4.23 39.614 0.056 6.3 0.99 12.37
12/13/2020 1:00:00 AM 4.23 39.614 0.056 6.3 0.99 12.36
12/13/2020 1:15:00 AM -100000 -179968 -100000 -100000 -100000 -100000
12/13/2020 1:30:00 AM 4.24 39.632 0.056 6.29 1.04 12.33
12/13/2020 1:45:00 AM 4.24 39.632 0.056 6.29 1.02 12.33
12/13/2020 2:00:00 AM -100000 -179968 -100000 -100000 -100000 -100000
12/13/2020 2:15:00 AM 4.25 39.65 0.056 6.29 0.96 12.36
12/13/2020 2:30:00 AM 4.25 39.65 0.056 6.29 1.03 12.34
12/13/2020 2:45:00 AM 4.25 39.65 0.055 6.29 1 12.38
12/13/2020 3:00:00 AM 4.25 39.65 0.056 6.3 1.1 12.36
12/13/2020 3:15:00 AM 4.26 39.668 0.056 6.3 1.07 12.37
12/13/2020 3:30:00 AM 4.25 39.65 0.056 6.3 1.03 12.37
12/13/2020 3:45:00 AM 4.24 39.632 0.056 6.31 0.99 12.36
12/13/2020 4:00:00 AM 4.23 39.614 0.055 6.3 1.3 12.39
12/13/2020 4:15:00 AM 4.23 39.614 0.056 6.3 0.96 12.39
12/13/2020 4:30:00 AM 4.22 39.596 0.055 6.3 1.01 12.4
12/13/2020 4:45:00 AM 4.21 39.578 0.055 6.3 0.98 12.4
12/13/2020 5:00:00 AM 4.19 39.542 0.056 6.31 0.98 12.4
12/13/2020 5:15:00 AM 4.18 39.524 0.055 6.3 1.15 12.41
12/13/2020 5:30:00 AM 4.17 39.506 0.056 6.31 1.05 12.39
12/13/2020 5:45:00 AM 4.17 39.506 0.056 6.32 0.99 12.39
12/13/2020 6:00:00 AM 4.17 39.506 0.056 6.32 0.99 12.4
12/13/2020 6:15:00 AM 4.18 39.524 0.055 6.33 1.02 12.42
12/13/2020 6:30:00 AM 4.19 39.542 0.055 6.33 1.04 12.42
12/13/2020 6:45:00 AM 4.19 39.542 0.055 6.33 1.03 12.44
12/13/2020 7:00:00 AM 4.2 39.56 0.055 6.33 1.05 12.43
12/13/2020 7:15:00 AM -100000 -179968 -100000 -100000 -100000 -100000
12/13/2020 7:30:00 AM 4.21 39.578 0.055 6.34 1.02 12.42
12/13/2020 7:45:00 AM 4.22 39.596 0.055 6.34 2.57 12.44
12/13/2020 8:00:00 AM 4.22 39.596 0.055 6.34 1.44 12.43
12/13/2020 8:15:00 AM 4.22 39.596 0.055 6.34 0.97 12.44
12/13/2020 8:30:00 AM 4.22 39.596 0.055 6.34 1.04 12.44
12/13/2020 8:45:00 AM 4.22 39.596 0.055 6.34 1.05 12.45
12/13/2020 9:00:00 AM 4.22 39.596 0.054 6.34 0.98 12.46
12/13/2020 9:15:00 AM 4.23 39.614 0.054 6.34 0.96 12.47
12/13/2020 9:30:00 AM 4.24 39.632 0.054 6.34 0.99 12.48
12/13/2020 9:45:00 AM 4.24 39.632 0.054 6.34 1.07 12.5
12/13/2020 10:00:00 AM 4.25 39.65 0.054 6.34 0.99 12.5
12/13/2020 10:15:00 AM 4.26 39.668 0.054 6.34 1 12.51
12/13/2020 10:30:00 AM 4.28 39.704 0.054 6.34 1.05 12.51
12/13/2020 10:45:00 AM 4.29 39.722 0.054 6.34 1.16 12.52
12/13/2020 11:00:00 AM 4.3 39.74 0.054 6.34 1.09 12.52
12/13/2020 11:15:00 AM 4.31 39.758 0.054 6.34 1.03 12.52
12/13/2020 11:30:00 AM 4.33 39.794 0.053 6.34 1.08 12.53
12/13/2020 11:45:00 AM 4.35 39.83 0.053 6.35 1.02 12.53
12/13/2020 12:00:00 PM 4.38 39.884 0.053 6.35 1.03 12.54
12/13/2020 12:15:00 PM 4.41 39.938 0.053 6.35 0.98 12.54
12/13/2020 12:30:00 PM 4.44 39.992 0.053 6.36 1.01 12.52
12/13/2020 12:45:00 PM -100000 -179968 -100000 -100000 -100000 -100000
12/13/2020 1:00:00 PM 4.5 40.1 0.053 6.35 1.01 12.52
12/13/2020 1:15:00 PM 4.53 40.154 0.053 6.36 1.02 12.52
12/13/2020 1:30:00 PM 4.56 40.208 0.053 6.36 1 12.51
12/13/2020 1:45:00 PM 4.59 40.262 0.053 6.36 1.01 12.49
12/13/2020 2:00:00 PM 4.61 40.298 0.053 6.36 0.99 12.48
12/13/2020 2:15:00 PM 4.64 40.352 0.053 6.36 1 12.48
12/13/2020 2:30:00 PM 4.65 40.37 0.053 6.35 1 12.47
12/13/2020 2:45:00 PM 4.66 40.388 0.053 6.36 1 12.44
12/13/2020 3:00:00 PM 4.66 40.388 0.053 6.35 0.96 12.42
12/13/2020 3:15:00 PM 4.67 40.406 0.053 6.35 0.97 12.42
12/13/2020 3:30:00 PM 4.67 40.406 0.053 6.35 0.98 12.4
12/13/2020 3:45:00 PM 4.67 40.406 0.053 6.34 0.95 12.4
12/13/2020 4:00:00 PM 4.67 40.406 0.053 6.34 0.99 12.38
12/13/2020 4:15:00 PM 4.67 40.406 0.053 6.34 1.03 12.4
12/13/2020 4:30:00 PM 4.66 40.388 0.053 6.33 0.96 12.39
12/13/2020 4:45:00 PM 4.66 40.388 0.053 6.33 1.05 12.36
12/13/2020 5:00:00 PM 4.65 40.37 0.053 6.32 7.03 12.35
12/13/2020 5:15:00 PM 4.64 40.352 0.053 6.32 1.03 12.35
12/13/2020 5:30:00 PM 4.64 40.352 0.053 6.31 0.98 12.34
12/13/2020 5:45:00 PM 4.63 40.334 0.053 6.31 1.03 12.35
12/13/2020 6:00:00 PM 4.63 40.334 0.053 6.31 0.99 12.33
12/13/2020 6:15:00 PM 4.61 40.298 0.052 6.31 0.99 12.35
12/13/2020 6:30:00 PM 4.61 40.298 0.053 6.31 0.96 12.34
12/13/2020 6:45:00 PM 4.6 40.28 0.052 6.31 1.04 12.36
12/13/2020 7:00:00 PM 4.59 40.262 0.053 6.31 0.97 12.36
12/13/2020 7:15:00 PM 4.58 40.244 0.052 6.3 1.02 12.37
12/13/2020 7:30:00 PM 4.57 40.226 0.053 6.31 0.96 12.35
12/13/2020 7:45:00 PM 4.56 40.208 0.053 6.31 1.12 12.36
12/13/2020 8:00:00 PM 4.54 40.172 0.053 6.3 1.01 12.38
12/13/2020 8:15:00 PM 4.53 40.154 0.053 6.31 1.02 12.37
12/13/2020 8:30:00 PM 4.52 40.136 0.053 6.31 0.96 12.38
12/13/2020 8:45:00 PM 4.51 40.118 0.053 6.31 1.03 12.38
12/13/2020 9:00:00 PM 4.5 40.1 0.053 6.31 0.98 12.38
12/13/2020 9:15:00 PM 4.48 40.064 0.053 6.31 0.99 12.39
12/13/2020 9:30:00 PM 4.46 40.028 0.053 6.31 1.01 12.39
12/13/2020 9:45:00 PM 4.45 40.01 0.053 6.31 1.07 12.39
12/13/2020 10:00:00 PM 4.43 39.974 0.053 6.3 1.06 12.41
12/13/2020 10:15:00 PM 4.41 39.938 0.053 6.31 0.96 12.4
12/13/2020 10:30:00 PM 4.4 39.92 0.053 6.31 1 12.4
12/13/2020 10:45:00 PM 4.37 39.866 0.052 6.31 1.04 12.44
12/13/2020 11:00:00 PM 4.37 39.866 0.053 6.31 0.99 12.43
12/13/2020 11:15:00 PM 4.35 39.83 0.053 6.32 1.01 12.42
12/13/2020 11:30:00 PM 4.34 39.812 0.053 6.32 1.04 12.41
12/13/2020 11:45:00 PM 4.32 39.776 0.053 6.32 1 12.43
12/14/2020 12:00:00 AM 4.3 39.74 0.053 6.31 1.1 12.44
12/14/2020 12:15:00 AM 4.29 39.722 0.053 6.32 1.05 12.44
12/14/2020 12:30:00 AM -100000 -179968 -100000 -100000 -100000 -100000
12/14/2020 12:45:00 AM 4.26 39.668 0.053 6.32 0.99 12.45
12/14/2020 1:00:00 AM 4.24 39.632 0.053 6.32 1 12.45
12/14/2020 1:15:00 AM 4.23 39.614 0.053 6.32 0.99 12.45
12/14/2020 1:30:00 AM 4.21 39.578 0.053 6.32 0.98 12.48
12/14/2020 1:45:00 AM 4.2 39.56 0.053 6.33 1.05 12.45
12/14/2020 2:00:00 AM 4.18 39.524 0.053 6.33 0.98 12.46
12/14/2020 2:15:00 AM 4.16 39.488 0.053 6.32 1.01 12.47
12/14/2020 2:30:00 AM 4.14 39.452 0.053 6.32 1.04 12.47
12/14/2020 2:45:00 AM 4.12 39.416 0.053 6.32 0.99 12.48
12/14/2020 3:00:00 AM 4.11 39.398 0.053 6.32 0.97 12.49
12/14/2020 3:15:00 AM 4.1 39.38 0.053 6.32 1.01 12.49
12/14/2020 3:30:00 AM 4.08 39.344 0.053 6.32 0.97 12.49
12/14/2020 3:45:00 AM 4.07 39.326 0.053 6.32 1.09 12.51
12/14/2020 4:00:00 AM 4.05 39.29 0.053 6.32 1.03 12.49
12/14/2020 4:15:00 AM 4.05 39.29 0.053 6.32 1 12.5
12/14/2020 4:30:00 AM 4.03 39.254 0.053 6.32 0.99 12.5
12/14/2020 4:45:00 AM 4.02 39.236 0.053 6.32 0.98 12.5
12/14/2020 5:00:00 AM 3.99 39.182 0.053 6.32 0.98 12.5
12/14/2020 5:15:00 AM 3.95 39.11 0.053 6.31 1.07 12.54
12/14/2020 5:30:00 AM 3.92 39.056 0.053 6.31 1.01 12.53
12/14/2020 5:45:00 AM -100000 -179968 -100000 -100000 -100000 -100000
12/14/2020 6:00:00 AM 3.86 38.948 0.053 6.32 1.07 12.53
12/14/2020 6:15:00 AM 3.83 38.894 0.053 6.32 1.02 12.54
12/14/2020 6:30:00 AM 3.77 38.786 0.053 6.31 1.08 12.56
12/14/2020 6:45:00 AM 3.7 38.66 0.053 6.31 1.01 12.56
12/14/2020 7:00:00 AM -100000 -179968 -100000 -100000 -100000 -100000
12/14/2020 7:15:00 AM 3.57 38.426 0.053 6.31 1.04 12.61
12/14/2020 7:30:00 AM 3.56 38.408 0.053 6.32 1.06 12.61
12/14/2020 7:45:00 AM 3.54 38.372 0.053 6.32 1.01 12.63
12/14/2020 8:00:00 AM -100000 -179968 -100000 -100000 -100000 -100000
12/14/2020 8:15:00 AM -100000 -179968 -100000 -100000 -100000 -100000
12/14/2020 8:30:00 AM 3.45 38.21 0.053 6.32 1.03 12.67
12/14/2020 8:45:00 AM 3.42 38.156 0.053 6.32 1.02 12.7
12/14/2020 9:00:00 AM 3.39 38.102 0.053 6.32 1 12.7
12/14/2020 9:15:00 AM 3.38 38.084 0.053 6.33 1.01 12.73
12/14/2020 9:30:00 AM 3.38 38.084 0.053 6.34 1.03 12.75
12/14/2020 9:45:00 AM 3.38 38.084 0.053 6.34 1.04 12.77
12/14/2020 10:00:00 AM 3.37 38.066 0.053 6.33 1.05 12.79
12/14/2020 10:15:00 AM -100000 -179968 -100000 -100000 -100000 -100000
12/14/2020 10:30:00 AM 3.38 38.084 0.053 6.35 0.99 12.81
12/14/2020 10:45:00 AM -100000 -179968 -100000 -100000 -100000 -100000
12/14/2020 11:00:00 AM 3.39 38.102 0.054 6.34 1.04 12.78
12/14/2020 11:15:00 AM 3.39 38.102 0.054 6.35 1.01 12.81
12/14/2020 11:30:00 AM 3.4 38.12 0.054 6.35 1.05 12.82
12/14/2020 11:45:00 AM 3.41 38.138 0.054 6.36 0.99 12.81
12/14/2020 12:00:00 PM 3.42 38.156 0.054 6.35 1.06 12.8
12/14/2020 12:15:00 PM 3.46 38.228 0.054 6.36 3.67 12.8
12/14/2020 12:30:00 PM 3.48 38.264 0.054 6.36 0.99 12.84
12/14/2020 12:45:00 PM 3.5 38.3 0.054 6.35 1.98 12.83
12/14/2020 1:00:00 PM 3.51 38.318 0.054 6.36 1.04 12.82
12/14/2020 1:15:00 PM 3.53 38.354 0.054 6.36 0.99 12.82
12/14/2020 1:30:00 PM 3.54 38.372 0.054 6.37 1.01 12.81
12/14/2020 1:45:00 PM 3.56 38.408 0.054 6.36 1.01 12.81
12/14/2020 2:00:00 PM 3.57 38.426 0.054 6.36 1.03 12.78
12/14/2020 2:15:00 PM 3.59 38.462 0.054 6.36 0.99 12.77
12/14/2020 2:30:00 PM 3.6 38.48 0.054 6.36 0.97 12.78
12/14/2020 2:45:00 PM 3.61 38.498 0.054 6.36 1.01 12.78
12/14/2020 3:00:00 PM -100000 -179968 -100000 -100000 -100000 -100000
12/14/2020 3:15:00 PM 3.64 38.552 0.055 6.36 1.01 12.75
12/14/2020 3:30:00 PM 3.64 38.552 0.055 6.36 1.01 12.74
12/14/2020 3:45:00 PM 3.64 38.552 0.055 6.36 0.99 12.71
12/14/2020 4:00:00 PM 3.64 38.552 0.055 6.36 1 12.69
12/14/2020 4:15:00 PM 3.64 38.552 0.055 6.35 1.05 12.69
12/14/2020 4:30:00 PM 3.63 38.534 0.055 6.34 1 12.68
12/14/2020 4:45:00 PM 3.61 38.498 0.055 6.34 0.96 12.65
12/14/2020 5:00:00 PM 3.58 38.444 0.055 6.33 1.05 12.69
12/14/2020 5:15:00 PM 3.57 38.426 0.055 6.33 1.05 12.69
12/14/2020 5:30:00 PM 3.55 38.39 0.056 6.34 1 12.66
12/14/2020 5:45:00 PM 3.52 38.336 0.055 6.33 1.12 12.67
12/14/2020 6:00:00 PM 3.49 38.282 0.055 6.33 1.1 12.68
12/14/2020 6:15:00 PM -100000 -179968 -100000 -100000 -100000 -100000
12/14/2020 6:30:00 PM 3.42 38.156 0.055 6.32 1.01 12.7
12/14/2020 6:45:00 PM 3.39 38.102 0.055 6.32 1.12 12.75
12/14/2020 7:00:00 PM 3.36 38.048 0.056 6.33 1.07 12.73
12/14/2020 7:15:00 PM 3.32 37.976 0.055 6.32 1.01 12.76
12/14/2020 7:30:00 PM 3.28 37.904 0.055 6.32 1.01 12.79
12/14/2020 7:45:00 PM 3.25 37.85 0.055 6.32 1.02 12.79
12/14/2020 8:00:00 PM -100000 -179968 -100000 -100000 -100000 -100000
12/14/2020 8:15:00 PM -100000 -179968 -100000 -100000 -100000 -100000
12/14/2020 8:30:00 PM 3.14 37.652 0.055 6.32 0.97 12.86
12/14/2020 8:45:00 PM 3.11 37.598 0.055 6.32 1.03 12.87
12/14/2020 9:00:00 PM 3.05 37.49 0.055 6.32 1 12.86
12/14/2020 9:15:00 PM 2.99 37.382 0.055 6.32 0.98 12.92
12/14/2020 9:30:00 PM 2.94 37.292 0.055 6.32 1.04 12.95
12/14/2020 9:45:00 PM 2.89 37.202 0.055 6.32 0.99 12.96
12/14/2020 10:00:00 PM 2.83 37.094 0.055 6.32 1.11 13.01
12/14/2020 10:15:00 PM -100000 -179968 -100000 -100000 -100000 -100000
12/14/2020 10:30:00 PM 2.73 36.914 0.055 6.33 1.13 13.04
12/14/2020 10:45:00 PM 2.69 36.842 0.055 6.33 1.07 13.06
12/14/2020 11:00:00 PM 2.64 36.752 0.055 6.33 1.04 13.07
12/14/2020 11:15:00 PM -100000 -179968 -100000 -100000 -100000 -100000
12/14/2020 11:30:00 PM -100000 -179968 -100000 -100000 -100000 -100000
12/14/2020 11:45:00 PM -100000 -179968 -100000 -100000 -100000 -100000
12/15/2020 12:00:00 AM 2.44 36.392 0.055 6.33 1.06 13.15
12/15/2020 12:15:00 AM -100000 -179968 -100000 -100000 -100000 -100000
12/15/2020 12:30:00 AM 2.37 36.266 0.055 6.33 1.01 13.15
12/15/2020 12:45:00 AM -100000 -179968 -100000 -100000 -100000 -100000
12/15/2020 1:00:00 AM -100000 -179968 -100000 -100000 -100000 -100000
12/15/2020 1:15:00 AM -100000 -179968 -100000 -100000 -100000 -100000
12/15/2020 1:30:00 AM -100000 -179968 -100000 -100000 -100000 -100000
12/15/2020 1:45:00 AM -100000 -179968 -100000 -100000 -100000 -100000
12/15/2020 2:00:00 AM 2.14 35.852 0.055 6.33 1.09 13.26
12/15/2020 2:15:00 AM 2.11 35.798 0.056 6.34 1.07 13.27
12/15/2020 2:30:00 AM -100000 -179968 -100000 -100000 -100000 -100000
12/15/2020 2:45:00 AM -100000 -179968 -100000 -100000 -100000 -100000
12/15/2020 3:00:00 AM -100000 -179968 -100000 -100000 -100000 -100000
12/15/2020 3:15:00 AM 1.99 35.582 0.055 6.34 1.04 13.34
12/15/2020 3:30:00 AM -100000 -179968 -100000 -100000 -100000 -100000
12/15/2020 3:45:00 AM -100000 -179968 -100000 -100000 -100000 -100000
12/15/2020 4:00:00 AM -100000 -179968 -100000 -100000 -100000 -100000
12/15/2020 4:15:00 AM 1.88 35.384 0.055 6.33 1.08 13.41
12/15/2020 4:30:00 AM -100000 -179968 -100000 -100000 -100000 -100000
12/15/2020 4:45:00 AM -100000 -179968 -100000 -100000 -100000 -100000
12/15/2020 5:00:00 AM -100000 -179968 -100000 -100000 -100000 -100000
12/15/2020 5:15:00 AM 1.79 35.222 0.055 6.33 1.06 13.45
12/15/2020 5:30:00 AM -100000 -179968 -100000 -100000 -100000 -100000
12/15/2020 5:45:00 AM 1.75 35.15 0.055 6.33 1.04 13.5
12/15/2020 6:00:00 AM 1.7 35.06 0.055 6.33 1.01 13.52
12/15/2020 6:15:00 AM -100000 -179968 -100000 -100000 -100000 -100000
12/15/2020 6:30:00 AM 1.66 34.988 0.055 6.33 1 13.52
12/15/2020 6:45:00 AM -100000 -179968 -100000 -100000 -100000 -100000
12/15/2020 7:00:00 AM -100000 -179968 -100000 -100000 -100000 -100000
12/15/2020 7:15:00 AM -100000 -179968 -100000 -100000 -100000 -100000
12/15/2020 7:30:00 AM -100000 -179968 -100000 -100000 -100000 -100000
12/15/2020 7:45:00 AM -100000 -179968 -100000 -100000 -100000 -100000
12/15/2020 8:00:00 AM -100000 -179968 -100000 -100000 -100000 -100000
12/15/2020 8:15:00 AM -100000 -179968 -100000 -100000 -100000 -100000
12/15/2020 8:30:00 AM -100000 -179968 -100000 -100000 -100000 -100000
12/15/2020 8:45:00 AM 1.31 34.358 0.055 6.34 1.07 13.7
12/15/2020 9:00:00 AM 1.3 34.34 0.055 6.34 1 13.73
12/15/2020 9:15:00 AM 1.3 34.34 0.055 6.34 0.99 13.73
12/15/2020 9:30:00 AM 1.31 34.358 0.055 6.35 1.04 13.75
12/15/2020 9:45:00 AM -100000 -179968 -100000 -100000 -100000 -100000
12/15/2020 10:00:00 AM 1.34 34.412 0.055 6.35 0.99 13.8
12/15/2020 10:15:00 AM -100000 -179968 -100000 -100000 -100000 -100000
12/15/2020 10:30:00 AM -100000 -179968 -100000 -100000 -100000 -100000
12/15/2020 10:45:00 AM 1.38 34.484 0.055 6.36 1.1 13.76
12/15/2020 11:00:00 AM 1.39 34.502 0.055 6.35 1.13 13.77
12/15/2020 11:15:00 AM 1.4 34.52 0.055 6.35 1 13.79
12/15/2020 11:30:00 AM 1.42 34.556 0.055 6.35 1.03 13.79
12/15/2020 11:45:00 AM 1.45 34.61 0.055 6.36 1.03 13.77
12/15/2020 12:00:00 PM 1.49 34.682 0.055 6.36 1.05 13.78
12/15/2020 12:15:00 PM 1.51 34.718 0.055 6.36 1.02 13.78
12/15/2020 12:30:00 PM 1.55 34.79 0.055 6.35 0.99 13.77
12/15/2020 12:45:00 PM 1.59 34.862 0.055 6.37 0.99 13.75
12/15/2020 1:00:00 PM 1.62 34.916 0.055 6.37 0.99 13.73
12/15/2020 1:15:00 PM 1.65 34.97 0.055 6.36 1.02 13.71
12/15/2020 1:30:00 PM 1.69 35.042 0.055 6.36 0.97 13.69
12/15/2020 1:45:00 PM 1.71 35.078 0.055 6.36 1.01 13.68
12/15/2020 2:00:00 PM 1.75 35.15 0.055 6.36 1 13.66
12/15/2020 2:15:00 PM 1.76 35.168 0.055 6.35 1 13.65
12/15/2020 2:30:00 PM 1.78 35.204 0.055 6.35 1.03 13.62
12/15/2020 2:45:00 PM 1.81 35.258 0.055 6.36 0.98 13.61
12/15/2020 3:00:00 PM 1.84 35.312 0.055 6.35 1.01 13.59
12/15/2020 3:15:00 PM 1.84 35.312 0.055 6.36 1.05 13.48
12/15/2020 3:30:00 PM 1.87 35.366 0.055 6.35 1.03 13.55
12/15/2020 3:45:00 PM 1.88 35.384 0.055 6.34 1.05 13.51
12/15/2020 4:00:00 PM 1.89 35.402 0.055 6.35 1 13.53
12/15/2020 4:15:00 PM -100000 -179968 -100000 -100000 -100000 -100000
12/15/2020 4:30:00 PM 1.89 35.402 0.055 6.34 1 13.5
12/15/2020 4:45:00 PM 1.9 35.42 0.055 6.34 1.02 13.49
12/15/2020 5:00:00 PM 1.89 35.402 0.055 6.34 1.05 13.46
12/15/2020 5:15:00 PM 1.87 35.366 0.055 6.34 1.01 13.46
12/15/2020 5:30:00 PM 1.86 35.348 0.055 6.34 1.03 13.46
12/15/2020 5:45:00 PM 1.83 35.294 0.055 6.33 1.25 13.45
12/15/2020 6:00:00 PM 1.8 35.24 0.055 6.32 0.99 13.4
12/15/2020 6:15:00 PM 1.77 35.186 0.055 6.32 1.03 13.45
12/15/2020 6:30:00 PM 1.74 35.132 0.055 6.31 1 13.47
12/15/2020 6:45:00 PM -100000 -179968 -100000 -100000 -100000 -100000
12/15/2020 7:00:00 PM -100000 -179968 -100000 -100000 -100000 -100000
12/15/2020 7:15:00 PM 1.67 35.006 0.056 6.32 1 13.41
12/15/2020 7:30:00 PM -100000 -179968 -100000 -100000 -100000 -100000
12/15/2020 7:45:00 PM -100000 -179968 -100000 -100000 -100000 -100000
12/15/2020 8:00:00 PM -100000 -179968 -100000 -100000 -100000 -100000
12/15/2020 8:15:00 PM 1.56 34.808 0.056 6.32 1.01 13.52
12/15/2020 8:30:00 PM -100000 -179968 -100000 -100000 -100000 -100000
12/15/2020 8:45:00 PM -100000 -179968 -100000 -100000 -100000 -100000
12/15/2020 9:00:00 PM -100000 -179968 -100000 -100000 -100000 -100000
12/15/2020 9:15:00 PM -100000 -179968 -100000 -100000 -100000 -100000
12/15/2020 9:30:00 PM 1.36 34.448 0.056 6.32 1.06 13.6
12/15/2020 9:45:00 PM -100000 -179968 -100000 -100000 -100000 -100000
12/15/2020 10:00:00 PM -100000 -179968 -100000 -100000 -100000 -100000
12/15/2020 10:15:00 PM -100000 -179968 -100000 -100000 -100000 -100000
12/15/2020 10:30:00 PM -100000 -179968 -100000 -100000 -100000 -100000
12/15/2020 10:45:00 PM -100000 -179968 -100000 -100000 -100000 -100000
12/15/2020 11:00:00 PM -100000 -179968 -100000 -100000 -100000 -100000
12/15/2020 11:15:00 PM 1.12 34.016 0.056 6.33 1.03 13.71
12/15/2020 11:30:00 PM -100000 -179968 -100000 -100000 -100000 -100000
12/15/2020 11:45:00 PM -100000 -179968 -100000 -100000 -100000 -100000
12/16/2020 12:00:00 AM -100000 -179968 -100000 -100000 -100000 -100000
12/16/2020 12:15:00 AM -100000 -179968 -100000 -100000 -100000 -100000
12/16/2020 12:30:00 AM -100000 -179968 -100000 -100000 -100000 -100000
12/16/2020 12:45:00 AM -100000 -179968 -100000 -100000 -100000 -100000
12/16/2020 1:00:00 AM -100000 -179968 -100000 -100000 -100000 -100000
12/16/2020 1:15:00 AM -100000 -179968 -100000 -100000 -100000 -100000
12/16/2020 1:30:00 AM -100000 -179968 -100000 -100000 -100000 -100000
12/16/2020 1:45:00 AM -100000 -179968 -100000 -100000 -100000 -100000
12/16/2020 2:00:00 AM 0.61 33.098 0.056 6.34 0.99 13.95
12/16/2020 2:15:00 AM 0.59 33.062 0.056 6.34 0.97 13.96
12/16/2020 2:30:00 AM -100000 -179968 -100000 -100000 -100000 -100000
12/16/2020 2:45:00 AM -100000 -179968 -100000 -100000 -100000 -100000
12/16/2020 3:00:00 AM 0.5 32.9 0.056 6.34 1.03 14.02
12/16/2020 3:15:00 AM -100000 -179968 -100000 -100000 -100000 -100000
12/16/2020 3:30:00 AM -100000 -179968 -100000 -100000 -100000 -100000
12/16/2020 3:45:00 AM -100000 -179968 -100000 -100000 -100000 -100000
12/16/2020 4:00:00 AM -100000 -179968 -100000 -100000 -100000 -100000
12/16/2020 4:15:00 AM 0.34 32.612 0.056 6.33 1.02 14.08
12/16/2020 4:30:00 AM -100000 -179968 -100000 -100000 -100000 -100000
12/16/2020 4:45:00 AM -100000 -179968 -100000 -100000 -100000 -100000
12/16/2020 5:00:00 AM 0.26 32.468 0.056 6.34 1.08 14.08
12/16/2020 5:15:00 AM -100000 -179968 -100000 -100000 -100000 -100000
12/16/2020 5:30:00 AM -100000 -179968 -100000 -100000 -100000 -100000
12/16/2020 5:45:00 AM -100000 -179968 -100000 -100000 -100000 -100000
12/16/2020 6:00:00 AM -100000 -179968 -100000 -100000 -100000 -100000
12/16/2020 6:15:00 AM 0.14 32.252 0.056 6.34 1.08 14.16
12/16/2020 6:30:00 AM -100000 -179968 -100000 -100000 -100000 -100000
12/16/2020 6:45:00 AM -100000 -179968 -100000 -100000 -100000 -100000
12/16/2020 7:00:00 AM -100000 -179968 -100000 -100000 -100000 -100000
12/16/2020 7:15:00 AM -100000 -179968 -100000 -100000 -100000 -100000
12/16/2020 7:30:00 AM -100000 -179968 -100000 -100000 -100000 -100000
12/16/2020 7:45:00 AM -100000 -179968 -100000 -100000 -100000 -100000
12/16/2020 8:00:00 AM -100000 -179968 -100000 -100000 -100000 -100000
12/16/2020 8:15:00 AM -100000 -179968 -100000 -100000 -100000 -100000
12/16/2020 8:30:00 AM -100000 -179968 -100000 -100000 -100000 -100000
12/16/2020 8:45:00 AM -100000 -179968 -100000 -100000 -100000 -100000
12/16/2020 9:00:00 AM -100000 -179968 -100000 -100000 -100000 -100000
12/16/2020 9:15:00 AM -100000 -179968 -100000 -100000 -100000 -100000
12/16/2020 9:30:00 AM -0.02 31.964 0.056 6.34 1.04 14.31
12/16/2020 9:45:00 AM -100000 -179968 -100000 -100000 -100000 -100000
12/16/2020 10:00:00 AM -100000 -179968 -100000 -100000 -100000 -100000
12/16/2020 10:15:00 AM -100000 -179968 -100000 -100000 -100000 -100000
12/16/2020 10:30:00 AM -100000 -179968 -100000 -100000 -100000 -100000
12/16/2020 10:45:00 AM -100000 -179968 -100000 -100000 -100000 -100000
12/16/2020 11:00:00 AM -100000 -179968 -100000 -100000 -100000 -100000
12/16/2020 11:15:00 AM -0.03 31.946 0.056 6.34 1.04 14.34
12/16/2020 11:30:00 AM -100000 -179968 -100000 -100000 -100000 -100000
12/16/2020 11:45:00 AM -100000 -179968 -100000 -100000 -100000 -100000
12/16/2020 12:00:00 PM -100000 -179968 -100000 -100000 -100000 -100000
12/16/2020 12:15:00 PM -0.01 31.982 0.056 6.35 1.09 14.29
12/16/2020 12:30:00 PM -100000 -179968 -100000 -100000 -100000 -100000
12/16/2020 12:45:00 PM -100000 -179968 -100000 -100000 -100000 -100000
12/16/2020 1:00:00 PM -100000 -179968 -100000 -100000 -100000 -100000
12/16/2020 1:15:00 PM -100000 -179968 -100000 -100000 -100000 -100000
12/16/2020 1:30:00 PM -100000 -179968 -100000 -100000 -100000 -100000
12/16/2020 1:45:00 PM -100000 -179968 -100000 -100000 -100000 -100000
12/16/2020 2:00:00 PM -100000 -179968 -100000 -100000 -100000 -100000
12/16/2020 2:15:00 PM -100000 -179968 -100000 -100000 -100000 -100000
12/16/2020 2:30:00 PM -100000 -179968 -100000 -100000 -100000 -100000
12/16/2020 2:45:00 PM -100000 -179968 -100000 -100000 -100000 -100000
12/16/2020 3:00:00 PM -100000 -179968 -100000 -100000 -100000 -100000
12/16/2020 3:15:00 PM -100000 -179968 -100000 -100000 -100000 -100000
12/16/2020 3:30:00 PM -100000 -179968 -100000 -100000 -100000 -100000
12/16/2020 3:45:00 PM -100000 -179968 -100000 -100000 -100000 -100000
12/16/2020 4:00:00 PM -100000 -179968 -100000 -100000 -100000 -100000
12/16/2020 4:15:00 PM -100000 -179968 -100000 -100000 -100000 -100000
12/16/2020 4:30:00 PM -0.04 31.928 0.055 6.3 1.29 14.22
12/16/2020 4:45:00 PM -100000 -179968 -100000 -100000 -100000 -100000
12/16/2020 5:00:00 PM -100000 -179968 -100000 -100000 -100000 -100000
12/16/2020 5:15:00 PM -100000 -179968 -100000 -100000 -100000 -100000
12/16/2020 5:30:00 PM -100000 -179968 -100000 -100000 -100000 -100000
12/16/2020 5:45:00 PM -100000 -179968 -100000 -100000 -100000 -100000
12/16/2020 6:00:00 PM -100000 -179968 -100000 -100000 -100000 -100000
12/16/2020 6:15:00 PM -100000 -179968 -100000 -100000 -100000 -100000
12/16/2020 6:30:00 PM -0.04 31.928 0.054 6.29 1.3 14.18
12/16/2020 6:45:00 PM -100000 -179968 -100000 -100000 -100000 -100000
12/16/2020 7:00:00 PM -100000 -179968 -100000 -100000 -100000 -100000
12/16/2020 7:15:00 PM -100000 -179968 -100000 -100000 -100000 -100000
12/16/2020 7:30:00 PM -0.05 31.91 0.054 6.27 1.27 14.15
12/16/2020 7:45:00 PM -0.05 31.91 0.055 6.27 1.37 14.15
12/16/2020 8:00:00 PM -0.05 31.91 0.055 6.27 1.25 14.14
12/16/2020 8:15:00 PM -100000 -179968 -100000 -100000 -100000 -100000
12/16/2020 8:30:00 PM -100000 -179968 -100000 -100000 -100000 -100000
12/16/2020 8:45:00 PM -0.05 31.91 0.056 6.26 1.29 14.11
12/16/2020 9:00:00 PM -100000 -179968 -100000 -100000 -100000 -100000
12/16/2020 9:15:00 PM -100000 -179968 -100000 -100000 -100000 -100000
12/16/2020 9:30:00 PM -0.03 31.946 0.058 6.27 1.17 14
12/16/2020 9:45:00 PM -100000 -179968 -100000 -100000 -100000 -100000
12/16/2020 10:00:00 PM -0.03 31.946 0.059 6.26 1.31 13.96
12/16/2020 10:15:00 PM -100000 -179968 -100000 -100000 -100000 -100000
12/16/2020 10:30:00 PM -100000 -179968 -100000 -100000 -100000 -100000
12/16/2020 10:45:00 PM -0.04 31.928 0.058 6.25 1.63 13.95
12/16/2020 11:00:00 PM -0.04 31.928 0.058 6.25 1.38 13.92
12/16/2020 11:15:00 PM -100000 -179968 -100000 -100000 -100000 -100000
12/16/2020 11:30:00 PM -100000 -179968 -100000 -100000 -100000 -100000
12/16/2020 11:45:00 PM -100000 -179968 -100000 -100000 -100000 -100000
12/17/2020 12:00:00 AM -100000 -179968 -100000 -100000 -100000 -100000
12/17/2020 12:15:00 AM -100000 -179968 -100000 -100000 -100000 -100000
12/17/2020 12:30:00 AM -100000 -179968 -100000 -100000 -100000 -100000
12/17/2020 12:45:00 AM -0.05 31.91 0.059 6.2 1.43 13.83
12/17/2020 1:00:00 AM -100000 -179968 -100000 -100000 -100000 -100000
12/17/2020 1:15:00 AM -100000 -179968 -100000 -100000 -100000 -100000
12/17/2020 1:30:00 AM -100000 -179968 -100000 -100000 -100000 -100000
12/17/2020 1:45:00 AM -100000 -179968 -100000 -100000 -100000 -100000
12/17/2020 2:00:00 AM -100000 -179968 -100000 -100000 -100000 -100000
12/17/2020 2:15:00 AM -0.05 31.91 0.061 6.18 1.21 13.7
12/17/2020 2:30:00 AM -100000 -179968 -100000 -100000 -100000 -100000
12/17/2020 2:45:00 AM -100000 -179968 -100000 -100000 -100000 -100000
12/17/2020 3:00:00 AM -100000 -179968 -100000 -100000 -100000 -100000
12/17/2020 3:15:00 AM -100000 -179968 -100000 -100000 -100000 -100000
12/17/2020 3:30:00 AM -100000 -179968 -100000 -100000 -100000 -100000
12/17/2020 3:45:00 AM -100000 -179968 -100000 -100000 -100000 -100000
12/17/2020 4:00:00 AM -0.05 31.91 0.062 6.17 1.2 13.6
12/17/2020 4:15:00 AM -0.05 31.91 0.061 6.17 1.34 13.6
12/17/2020 4:30:00 AM -100000 -179968 -100000 -100000 -100000 -100000
12/17/2020 4:45:00 AM -100000 -179968 -100000 -100000 -100000 -100000
12/17/2020 5:00:00 AM -0.04 31.928 0.063 6.19 1.23 13.6
12/17/2020 5:15:00 AM -0.05 31.91 0.063 6.18 1.22 13.62
12/17/2020 5:30:00 AM -100000 -179968 -100000 -100000 -100000 -100000
12/17/2020 5:45:00 AM -100000 -179968 -100000 -100000 -100000 -100000
12/17/2020 6:00:00 AM -0.05 31.91 0.063 6.16 1.27 13.62
12/17/2020 6:15:00 AM -100000 -179968 -100000 -100000 -100000 -100000
12/17/2020 6:30:00 AM -0.05 31.91 0.065 6.17 1.26 13.58
12/17/2020 6:45:00 AM -0.05 31.91 0.066 6.16 1.19 13.58
12/17/2020 7:00:00 AM -100000 -179968 -100000 -100000 -100000 -100000
12/17/2020 7:15:00 AM -0.05 31.91 0.067 6.16 1.23 13.55
12/17/2020 7:30:00 AM -100000 -179968 -100000 -100000 -100000 -100000
12/17/2020 7:45:00 AM -0.05 31.91 0.068 6.15 1.21 13.56
12/17/2020 8:00:00 AM -0.05 31.91 0.069 6.14 1.16 13.59
12/17/2020 8:15:00 AM -0.05 31.91 0.07 6.14 1.22 13.58
12/17/2020 8:30:00 AM -0.05 31.91 0.07 6.14 1.25 13.6
12/17/2020 8:45:00 AM -100000 -179968 -100000 -100000 -100000 -100000
12/17/2020 9:00:00 AM -100000 -179968 -100000 -100000 -100000 -100000
12/17/2020 9:15:00 AM -100000 -179968 -100000 -100000 -100000 -100000
12/17/2020 9:30:00 AM -0.05 31.91 0.074 6.14 1.33 13.62
12/17/2020 9:45:00 AM -0.05 31.91 0.076 6.14 1.34 13.62
12/17/2020 10:00:00 AM -100000 -179968 -100000 -100000 -100000 -100000
12/17/2020 10:15:00 AM -100000 -179968 -100000 -100000 -100000 -100000
12/17/2020 10:30:00 AM -100000 -179968 -100000 -100000 -100000 -100000
12/17/2020 10:45:00 AM -100000 -179968 -100000 -100000 -100000 -100000
12/17/2020 11:00:00 AM -0.05 31.91 0.085 6.15 1.22 13.74
12/17/2020 11:15:00 AM -100000 -179968 -100000 -100000 -100000 -100000
12/17/2020 11:30:00 AM -100000 -179968 -100000 -100000 -100000 -100000
12/17/2020 11:45:00 AM -100000 -179968 -100000 -100000 -100000 -100000
12/17/2020 12:00:00 PM -0.05 31.91 0.094 6.15 1.2 13.76
12/17/2020 12:15:00 PM -100000 -179968 -100000 -100000 -100000 -100000
12/17/2020 12:30:00 PM -100000 -179968 -100000 -100000 -100000 -100000
12/17/2020 12:45:00 PM -100000 -179968 -100000 -100000 -100000 -100000
12/17/2020 1:00:00 PM -100000 -179968 -100000 -100000 -100000 -100000
12/17/2020 1:15:00 PM -100000 -179968 -100000 -100000 -100000 -100000
12/17/2020 1:30:00 PM -100000 -179968 -100000 -100000 -100000 -100000
12/17/2020 1:45:00 PM -100000 -179968 -100000 -100000 -100000 -100000
12/17/2020 2:00:00 PM -0.05 31.91 0.103 6.14 1.27 13.77
12/17/2020 2:15:00 PM -0.05 31.91 0.103 6.11 3.61 13.78
12/17/2020 2:30:00 PM -100000 -179968 -100000 -100000 -100000 -100000
12/17/2020 2:45:00 PM -0.05 31.91 0.103 6.16 1.34 13.86
12/17/2020 3:00:00 PM -100000 -179968 -100000 -100000 -100000 -100000
12/17/2020 3:15:00 PM -100000 -179968 -100000 -100000 -100000 -100000
12/17/2020 3:30:00 PM -100000 -179968 -100000 -100000 -100000 -100000
12/17/2020 3:45:00 PM -100000 -179968 -100000 -100000 -100000 -100000
12/17/2020 4:00:00 PM -100000 -179968 -100000 -100000 -100000 -100000
12/17/2020 4:15:00 PM -100000 -179968 -100000 -100000 -100000 -100000
12/17/2020 4:30:00 PM -0.05 31.91 0.103 6.19 1.34 13.84
12/17/2020 4:45:00 PM -100000 -179968 -100000 -100000 -100000 -100000
12/17/2020 5:00:00 PM -100000 -179968 -100000 -100000 -100000 -100000
12/17/2020 5:15:00 PM -0.06 31.892 0.097 6.18 1.34 13.86
12/17/2020 5:30:00 PM -100000 -179968 -100000 -100000 -100000 -100000
12/17/2020 5:45:00 PM -0.06 31.892 0.092 6.17 1.53 13.87
12/17/2020 6:00:00 PM -100000 -179968 -100000 -100000 -100000 -100000
12/17/2020 6:15:00 PM -100000 -179968 -100000 -100000 -100000 -100000
12/17/2020 6:30:00 PM -100000 -179968 -100000 -100000 -100000 -100000
12/17/2020 6:45:00 PM -0.06 31.892 0.083 6.14 1.49 13.89
12/17/2020 7:00:00 PM -0.06 31.892 0.082 6.14 1.46 13.9
12/17/2020 7:15:00 PM -100000 -179968 -100000 -100000 -100000 -100000
12/17/2020 7:30:00 PM -100000 -179968 -100000 -100000 -100000 -100000
12/17/2020 7:45:00 PM -0.07 31.874 0.077 6.1 1.43 13.91
12/17/2020 8:00:00 PM -100000 -179968 -100000 -100000 -100000 -100000
12/17/2020 8:15:00 PM -100000 -179968 -100000 -100000 -100000 -100000
12/17/2020 8:30:00 PM -100000 -179968 -100000 -100000 -100000 -100000
12/17/2020 8:45:00 PM -100000 -179968 -100000 -100000 -100000 -100000
12/17/2020 9:00:00 PM -100000 -179968 -100000 -100000 -100000 -100000
12/17/2020 9:15:00 PM -100000 -179968 -100000 -100000 -100000 -100000
12/17/2020 9:30:00 PM -0.07 31.874 0.069 6.07 1.55 13.95
12/17/2020 9:45:00 PM -100000 -179968 -100000 -100000 -100000 -100000
12/17/2020 10:00:00 PM -0.07 31.874 0.067 6.16 1.68 14
12/17/2020 10:15:00 PM -100000 -179968 -100000 -100000 -100000 -100000
12/17/2020 10:30:00 PM -100000 -179968 -100000 -100000 -100000 -100000
12/17/2020 10:45:00 PM -0.06 31.892 0.064 6.15 1.5 13.99
12/17/2020 11:00:00 PM -100000 -179968 -100000 -100000 -100000 -100000
12/17/2020 11:15:00 PM -100000 -179968 -100000 -100000 -100000 -100000
12/17/2020 11:30:00 PM -100000 -179968 -100000 -100000 -100000 -100000
12/17/2020 11:45:00 PM -0.06 31.892 0.061 6.15 1.44 13.98
12/18/2020 12:00:00 AM -100000 -179968 -100000 -100000 -100000 -100000
12/18/2020 12:15:00 AM -100000 -179968 -100000 -100000 -100000 -100000
12/18/2020 12:30:00 AM -100000 -179968 -100000 -100000 -100000 -100000
12/18/2020 12:45:00 AM -100000 -179968 -100000 -100000 -100000 -100000
12/18/2020 1:00:00 AM -100000 -179968 -100000 -100000 -100000 -100000
12/18/2020 1:15:00 AM -100000 -179968 -100000 -100000 -100000 -100000
12/18/2020 1:30:00 AM -0.07 31.874 0.056 6.15 1.59 13.99
12/18/2020 1:45:00 AM -100000 -179968 -100000 -100000 -100000 -100000
12/18/2020 2:00:00 AM -100000 -179968 -100000 -100000 -100000 -100000
12/18/2020 2:15:00 AM -100000 -179968 -100000 -100000 -100000 -100000
12/18/2020 2:30:00 AM -100000 -179968 -100000 -100000 -100000 -100000
12/18/2020 2:45:00 AM -100000 -179968 -100000 -100000 -100000 -100000
12/18/2020 3:00:00 AM -0.07 31.874 0.054 6.14 1.46 14
12/18/2020 3:15:00 AM -100000 -179968 -100000 -100000 -100000 -100000
12/18/2020 3:30:00 AM -0.07 31.874 0.054 6.14 1.42 14
12/18/2020 3:45:00 AM -100000 -179968 -100000 -100000 -100000 -100000
12/18/2020 4:00:00 AM -0.07 31.874 0.054 6.14 1.39 14
12/18/2020 4:15:00 AM -100000 -179968 -100000 -100000 -100000 -100000
12/18/2020 4:30:00 AM -100000 -179968 -100000 -100000 -100000 -100000
12/18/2020 4:45:00 AM -0.07 31.874 0.054 6.14 1.36 14.01
12/18/2020 5:00:00 AM -100000 -179968 -100000 -100000 -100000 -100000
12/18/2020 5:15:00 AM -100000 -179968 -100000 -100000 -100000 -100000
12/18/2020 5:30:00 AM -100000 -179968 -100000 -100000 -100000 -100000
12/18/2020 5:45:00 AM -100000 -179968 -100000 -100000 -100000 -100000
12/18/2020 6:00:00 AM -100000 -179968 -100000 -100000 -100000 -100000
12/18/2020 6:15:00 AM -100000 -179968 -100000 -100000 -100000 -100000
12/18/2020 6:30:00 AM -100000 -179968 -100000 -100000 -100000 -100000
12/18/2020 6:45:00 AM -100000 -179968 -100000 -100000 -100000 -100000
12/18/2020 7:00:00 AM -0.07 31.874 0.053 6.14 1.31 14.01
12/18/2020 7:15:00 AM -100000 -179968 -100000 -100000 -100000 -100000
12/18/2020 7:30:00 AM -100000 -179968 -100000 -100000 -100000 -100000
12/18/2020 7:45:00 AM -100000 -179968 -100000 -100000 -100000 -100000
12/18/2020 8:00:00 AM -100000 -179968 -100000 -100000 -100000 -100000
12/18/2020 8:15:00 AM -100000 -179968 -100000 -100000 -100000 -100000
12/18/2020 8:30:00 AM -0.07 31.874 0.053 6.14 1.35 14.03
12/18/2020 8:45:00 AM -0.07 31.874 0.053 6.14 1.29 14.04
12/18/2020 9:00:00 AM -0.07 31.874 0.053 6.14 1.29 14.04
12/18/2020 9:15:00 AM -0.07 31.874 0.053 6.14 1.3 14.05
12/18/2020 9:30:00 AM -100000 -179968 -100000 -100000 -100000 -100000
12/18/2020 9:45:00 AM -100000 -179968 -100000 -100000 -100000 -100000
12/18/2020 10:00:00 AM -100000 -179968 -100000 -100000 -100000 -100000
12/18/2020 10:15:00 AM -100000 -179968 -100000 -100000 -100000 -100000
12/18/2020 10:30:00 AM -100000 -179968 -100000 -100000 -100000 -100000
12/18/2020 10:45:00 AM -100000 -179968 -100000 -100000 -100000 -100000
12/18/2020 11:00:00 AM -100000 -179968 -100000 -100000 -100000 -100000
12/18/2020 11:15:00 AM -0.06 31.892 0.053 6.15 1.3 14.12
12/18/2020 11:30:00 AM -100000 -179968 -100000 -100000 -100000 -100000
12/18/2020 11:45:00 AM -100000 -179968 -100000 -100000 -100000 -100000
12/18/2020 12:00:00 PM -100000 -179968 -100000 -100000 -100000 -100000
12/18/2020 12:15:00 PM -100000 -179968 -100000 -100000 -100000 -100000
12/18/2020 12:30:00 PM -100000 -179968 -100000 -100000 -100000 -100000
12/18/2020 12:45:00 PM -100000 -179968 -100000 -100000 -100000 -100000
12/18/2020 1:00:00 PM -100000 -179968 -100000 -100000 -100000 -100000
12/18/2020 1:15:00 PM -0.06 31.892 0.053 6.16 1.67 14.15
12/18/2020 1:30:00 PM -100000 -179968 -100000 -100000 -100000 -100000
12/18/2020 1:45:00 PM -100000 -179968 -100000 -100000 -100000 -100000
12/18/2020 2:00:00 PM -100000 -179968 -100000 -100000 -100000 -100000
12/18/2020 2:15:00 PM -100000 -179968 -100000 -100000 -100000 -100000
12/18/2020 2:30:00 PM -100000 -179968 -100000 -100000 -100000 -100000
12/18/2020 2:45:00 PM -100000 -179968 -100000 -100000 -100000 -100000
12/18/2020 3:00:00 PM -100000 -179968 -100000 -100000 -100000 -100000
12/18/2020 3:15:00 PM -100000 -179968 -100000 -100000 -100000 -100000
12/18/2020 3:30:00 PM -100000 -179968 -100000 -100000 -100000 -100000
12/18/2020 3:45:00 PM -100000 -179968 -100000 -100000 -100000 -100000
12/18/2020 4:00:00 PM -100000 -179968 -100000 -100000 -100000 -100000
12/18/2020 4:15:00 PM -100000 -179968 -100000 -100000 -100000 -100000
12/18/2020 4:30:00 PM -0.06 31.892 0.053 6.16 1.29 14.16
12/18/2020 4:45:00 PM -100000 -179968 -100000 -100000 -100000 -100000
12/18/2020 5:00:00 PM -100000 -179968 -100000 -100000 -100000 -100000
12/18/2020 5:15:00 PM -0.06 31.892 0.053 6.16 1.24 14.14
12/18/2020 5:30:00 PM -100000 -179968 -100000 -100000 -100000 -100000
12/18/2020 5:45:00 PM -0.07 31.874 0.053 6.15 1.21 14.15
12/18/2020 6:00:00 PM -100000 -179968 -100000 -100000 -100000 -100000
12/18/2020 6:15:00 PM -100000 -179968 -100000 -100000 -100000 -100000
12/18/2020 6:30:00 PM -100000 -179968 -100000 -100000 -100000 -100000
12/18/2020 6:45:00 PM -100000 -179968 -100000 -100000 -100000 -100000
12/18/2020 7:00:00 PM -0.07 31.874 0.053 6.14 1.21 14.15
12/18/2020 7:15:00 PM -100000 -179968 -100000 -100000 -100000 -100000
12/18/2020 7:30:00 PM -0.06 31.892 0.053 6.14 1.23 14.15
12/18/2020 7:45:00 PM -100000 -179968 -100000 -100000 -100000 -100000
12/18/2020 8:00:00 PM -100000 -179968 -100000 -100000 -100000 -100000
12/18/2020 8:15:00 PM -100000 -179968 -100000 -100000 -100000 -100000
12/18/2020 8:30:00 PM -100000 -179968 -100000 -100000 -100000 -100000
12/18/2020 8:45:00 PM -0.07 31.874 0.054 6.13 1.28 14.17
12/18/2020 9:00:00 PM -0.07 31.874 0.054 6.14 1.27 14.16
12/18/2020 9:15:00 PM -100000 -179968 -100000 -100000 -100000 -100000
12/18/2020 9:30:00 PM -100000 -179968 -100000 -100000 -100000 -100000
12/18/2020 9:45:00 PM -0.06 31.892 0.054 6.14 1.24 14.16
12/18/2020 10:00:00 PM -0.07 31.874 0.054 6.13 1.26 14.16
12/18/2020 10:15:00 PM -0.07 31.874 0.054 6.14 1.26 14.15
12/18/2020 10:30:00 PM -100000 -179968 -100000 -100000 -100000 -100000
12/18/2020 10:45:00 PM -100000 -179968 -100000 -100000 -100000 -100000
12/18/2020 11:00:00 PM -100000 -179968 -100000 -100000 -100000 -100000
12/18/2020 11:15:00 PM -100000 -179968 -100000 -100000 -100000 -100000
12/18/2020 11:30:00 PM -100000 -179968 -100000 -100000 -100000 -100000
12/18/2020 11:45:00 PM -0.06 31.892 0.055 6.14 1.25 14.14
12/19/2020 12:00:00 AM -100000 -179968 -100000 -100000 -100000 -100000
12/19/2020 12:15:00 AM -100000 -179968 -100000 -100000 -100000 -100000
12/19/2020 12:30:00 AM -0.06 31.892 0.055 6.13 1.18 14.14
12/19/2020 12:45:00 AM -0.07 31.874 0.055 6.14 1.22 14.13
12/19/2020 1:00:00 AM -100000 -179968 -100000 -100000 -100000 -100000
12/19/2020 1:15:00 AM -100000 -179968 -100000 -100000 -100000 -100000
12/19/2020 1:30:00 AM -0.06 31.892 0.055 6.13 1.22 14.13
12/19/2020 1:45:00 AM -0.06 31.892 0.055 6.13 1.3 14.13
12/19/2020 2:00:00 AM -0.06 31.892 0.056 6.13 1.22 14.12
12/19/2020 2:15:00 AM -0.06 31.892 0.056 6.13 1.27 14.12
12/19/2020 2:30:00 AM -0.07 31.874 0.056 6.13 1.21 14.12
12/19/2020 2:45:00 AM -0.07 31.874 0.056 6.13 1.32 14.12
12/19/2020 3:00:00 AM -100000 -179968 -100000 -100000 -100000 -100000
12/19/2020 3:15:00 AM -100000 -179968 -100000 -100000 -100000 -100000
12/19/2020 3:30:00 AM -100000 -179968 -100000 -100000 -100000 -100000
12/19/2020 3:45:00 AM -100000 -179968 -100000 -100000 -100000 -100000
12/19/2020 4:00:00 AM -100000 -179968 -100000 -100000 -100000 -100000
12/19/2020 4:15:00 AM -100000 -179968 -100000 -100000 -100000 -100000
12/19/2020 4:30:00 AM -100000 -179968 -100000 -100000 -100000 -100000
12/19/2020 4:45:00 AM -100000 -179968 -100000 -100000 -100000 -100000
12/19/2020 5:00:00 AM -100000 -179968 -100000 -100000 -100000 -100000
12/19/2020 5:15:00 AM -100000 -179968 -100000 -100000 -100000 -100000
12/19/2020 5:30:00 AM -100000 -179968 -100000 -100000 -100000 -100000
12/19/2020 5:45:00 AM -100000 -179968 -100000 -100000 -100000 -100000
12/19/2020 6:00:00 AM -100000 -179968 -100000 -100000 -100000 -100000
12/19/2020 6:15:00 AM -100000 -179968 -100000 -100000 -100000 -100000
12/19/2020 6:30:00 AM -100000 -179968 -100000 -100000 -100000 -100000
12/19/2020 6:45:00 AM -100000 -179968 -100000 -100000 -100000 -100000
12/19/2020 7:00:00 AM -0.07 31.874 0.057 6.13 1.13 14.1
12/19/2020 7:15:00 AM -0.06 31.892 0.057 6.13 1.18 14.09
12/19/2020 7:30:00 AM -100000 -179968 -100000 -100000 -100000 -100000
12/19/2020 7:45:00 AM -100000 -179968 -100000 -100000 -100000 -100000
12/19/2020 8:00:00 AM -100000 -179968 -100000 -100000 -100000 -100000
12/19/2020 8:15:00 AM -100000 -179968 -100000 -100000 -100000 -100000
12/19/2020 8:30:00 AM -100000 -179968 -100000 -100000 -100000 -100000
12/19/2020 8:45:00 AM -0.06 31.892 0.057 6.14 1.18 14.12
12/19/2020 9:00:00 AM -0.06 31.892 0.057 6.14 1.19 14.13
12/19/2020 9:15:00 AM -100000 -179968 -100000 -100000 -100000 -100000
12/19/2020 9:30:00 AM -100000 -179968 -100000 -100000 -100000 -100000
12/19/2020 9:45:00 AM -100000 -179968 -100000 -100000 -100000 -100000
12/19/2020 10:00:00 AM -100000 -179968 -100000 -100000 -100000 -100000
12/19/2020 10:15:00 AM -0.06 31.892 0.057 6.15 1.19 14.17
12/19/2020 10:30:00 AM -100000 -179968 -100000 -100000 -100000 -100000
12/19/2020 10:45:00 AM -100000 -179968 -100000 -100000 -100000 -100000
12/19/2020 11:00:00 AM -0.06 31.892 0.057 6.15 1.23 14.19
12/19/2020 11:15:00 AM -0.06 31.892 0.057 6.15 1.19 14.2
12/19/2020 11:30:00 AM -0.06 31.892 0.057 6.15 1.25 14.2
12/19/2020 11:45:00 AM -100000 -179968 -100000 -100000 -100000 -100000
12/19/2020 12:00:00 PM -100000 -179968 -100000 -100000 -100000 -100000
12/19/2020 12:15:00 PM -100000 -179968 -100000 -100000 -100000 -100000
12/19/2020 12:30:00 PM -0.06 31.892 0.057 6.15 1.24 14.2
12/19/2020 12:45:00 PM -0.06 31.892 0.057 6.15 1.3 14.2
12/19/2020 1:00:00 PM -0.06 31.892 0.057 6.16 1.23 14.2
12/19/2020 1:15:00 PM -0.06 31.892 0.057 6.16 1.33 14.19
12/19/2020 1:30:00 PM -0.06 31.892 0.057 6.16 1.2 14.19
12/19/2020 1:45:00 PM -100000 -179968 -100000 -100000 -100000 -100000
12/19/2020 2:00:00 PM -0.06 31.892 0.056 6.15 1.3 14.18
12/19/2020 2:15:00 PM -0.06 31.892 0.056 6.16 1.26 14.18
12/19/2020 2:30:00 PM -100000 -179968 -100000 -100000 -100000 -100000
12/19/2020 2:45:00 PM -0.06 31.892 0.056 6.16 1.24 14.18
12/19/2020 3:00:00 PM -0.06 31.892 0.056 6.16 1.24 14.18
12/19/2020 3:15:00 PM -0.06 31.892 0.056 6.16 1.27 14.18
12/19/2020 3:30:00 PM -0.06 31.892 0.056 6.15 1.27 14.17
12/19/2020 3:45:00 PM -0.06 31.892 0.055 6.15 1.2 14.17
12/19/2020 4:00:00 PM -0.06 31.892 0.055 6.15 1.29 14.16
12/19/2020 4:15:00 PM -0.06 31.892 0.055 6.15 1.23 14.15
12/19/2020 4:30:00 PM -100000 -179968 -100000 -100000 -100000 -100000
12/19/2020 4:45:00 PM -0.06 31.892 0.055 6.14 1.2 14.14
12/19/2020 5:00:00 PM -0.06 31.892 0.055 6.14 1.31 14.13
12/19/2020 5:15:00 PM -0.06 31.892 0.055 6.14 1.27 14.12
12/19/2020 5:30:00 PM -0.06 31.892 0.055 6.14 1.26 14.12
12/19/2020 5:45:00 PM -0.06 31.892 0.055 6.14 1.21 14.11
12/19/2020 6:00:00 PM -0.06 31.892 0.055 6.13 1.23 14.11
12/19/2020 6:15:00 PM -0.06 31.892 0.055 6.13 1.28 14.11
12/19/2020 6:30:00 PM -100000 -179968 -100000 -100000 -100000 -100000
12/19/2020 6:45:00 PM -0.06 31.892 0.055 6.14 1.16 14.1
12/19/2020 7:00:00 PM -100000 -179968 -100000 -100000 -100000 -100000
12/19/2020 7:15:00 PM -0.06 31.892 0.055 6.14 1.19 14.1
12/19/2020 7:30:00 PM -100000 -179968 -100000 -100000 -100000 -100000
12/19/2020 7:45:00 PM -0.06 31.892 0.055 6.14 1.19 14.1
12/19/2020 8:00:00 PM -100000 -179968 -100000 -100000 -100000 -100000
12/19/2020 8:15:00 PM -0.06 31.892 0.055 6.13 1.16 14.1
12/19/2020 8:30:00 PM -100000 -179968 -100000 -100000 -100000 -100000
12/19/2020 8:45:00 PM -100000 -179968 -100000 -100000 -100000 -100000
12/19/2020 9:00:00 PM -0.06 31.892 0.056 6.14 1.2 14.1
12/19/2020 9:15:00 PM -100000 -179968 -100000 -100000 -100000 -100000
12/19/2020 9:30:00 PM -100000 -179968 -100000 -100000 -100000 -100000
12/19/2020 9:45:00 PM -100000 -179968 -100000 -100000 -100000 -100000
12/19/2020 10:00:00 PM -100000 -179968 -100000 -100000 -100000 -100000
12/19/2020 10:15:00 PM -100000 -179968 -100000 -100000 -100000 -100000
12/19/2020 10:30:00 PM -100000 -179968 -100000 -100000 -100000 -100000
12/19/2020 10:45:00 PM -0.05 31.91 0.056 6.14 1.23 14.09
12/19/2020 11:00:00 PM -0.06 31.892 0.056 6.15 1.16 14.09
12/19/2020 11:15:00 PM -0.06 31.892 0.056 6.14 1.21 14.09
12/19/2020 11:30:00 PM -100000 -179968 -100000 -100000 -100000 -100000
12/19/2020 11:45:00 PM -100000 -179968 -100000 -100000 -100000 -100000
12/20/2020 12:00:00 AM -0.06 31.892 0.056 6.15 1.67 14.09
12/20/2020 12:15:00 AM -100000 -179968 -100000 -100000 -100000 -100000
12/20/2020 12:30:00 AM -100000 -179968 -100000 -100000 -100000 -100000
12/20/2020 12:45:00 AM -100000 -179968 -100000 -100000 -100000 -100000
12/20/2020 1:00:00 AM -0.05 31.91 0.056 6.15 1.15 14.09
12/20/2020 1:15:00 AM -100000 -179968 -100000 -100000 -100000 -100000
12/20/2020 1:30:00 AM -0.05 31.91 0.057 6.16 1.11 14.08
12/20/2020 1:45:00 AM -0.05 31.91 0.057 6.16 1.15 14.09
12/20/2020 2:00:00 AM -100000 -179968 -100000 -100000 -100000 -100000
12/20/2020 2:15:00 AM -100000 -179968 -100000 -100000 -100000 -100000
12/20/2020 2:30:00 AM -0.05 31.91 0.057 6.17 1.13 14.08
12/20/2020 2:45:00 AM -100000 -179968 -100000 -100000 -100000 -100000
12/20/2020 3:00:00 AM -100000 -179968 -100000 -100000 -100000 -100000
12/20/2020 3:15:00 AM -0.05 31.91 0.057 6.17 1.28 14.08
12/20/2020 3:30:00 AM -100000 -179968 -100000 -100000 -100000 -100000
12/20/2020 3:45:00 AM -100000 -179968 -100000 -100000 -100000 -100000
12/20/2020 4:00:00 AM -0.05 31.91 0.057 6.17 1.16 14.08
12/20/2020 4:15:00 AM -0.05 31.91 0.057 6.17 1.21 14.08
12/20/2020 4:30:00 AM -0.05 31.91 0.057 6.17 1.2 14.08
12/20/2020 4:45:00 AM -100000 -179968 -100000 -100000 -100000 -100000
12/20/2020 5:00:00 AM -100000 -179968 -100000 -100000 -100000 -100000
12/20/2020 5:15:00 AM -0.05 31.91 0.058 6.18 1.1 14.08
12/20/2020 5:30:00 AM -0.05 31.91 0.057 6.18 1.16 14.08
12/20/2020 5:45:00 AM -100000 -179968 -100000 -100000 -100000 -100000
12/20/2020 6:00:00 AM -100000 -179968 -100000 -100000 -100000 -100000
12/20/2020 6:15:00 AM -0.05 31.91 0.057 6.18 1.18 14.08
12/20/2020 6:30:00 AM -0.04 31.928 0.057 6.18 1.16 14.07
12/20/2020 6:45:00 AM -100000 -179968 -100000 -100000 -100000 -100000
12/20/2020 7:00:00 AM -0.04 31.928 0.058 6.18 1.12 14.07
12/20/2020 7:15:00 AM -0.05 31.91 0.057 6.18 1.12 14.07
12/20/2020 7:30:00 AM -0.05 31.91 0.057 6.18 1.22 14.07
12/20/2020 7:45:00 AM -100000 -179968 -100000 -100000 -100000 -100000
12/20/2020 8:00:00 AM -100000 -179968 -100000 -100000 -100000 -100000
12/20/2020 8:15:00 AM -100000 -179968 -100000 -100000 -100000 -100000
12/20/2020 8:30:00 AM -100000 -179968 -100000 -100000 -100000 -100000
12/20/2020 8:45:00 AM -100000 -179968 -100000 -100000 -100000 -100000
12/20/2020 9:00:00 AM -100000 -179968 -100000 -100000 -100000 -100000
12/20/2020 9:15:00 AM -100000 -179968 -100000 -100000 -100000 -100000
12/20/2020 9:30:00 AM -100000 -179968 -100000 -100000 -100000 -100000
12/20/2020 9:45:00 AM -100000 -179968 -100000 -100000 -100000 -100000
12/20/2020 10:00:00 AM -100000 -179968 -100000 -100000 -100000 -100000
12/20/2020 10:15:00 AM -100000 -179968 -100000 -100000 -100000 -100000
12/20/2020 10:30:00 AM -100000 -179968 -100000 -100000 -100000 -100000
12/20/2020 10:45:00 AM -100000 -179968 -100000 -100000 -100000 -100000
12/20/2020 11:00:00 AM -100000 -179968 -100000 -100000 -100000 -100000
12/20/2020 11:15:00 AM -100000 -179968 -100000 -100000 -100000 -100000
12/20/2020 11:30:00 AM -0.03 31.946 0.058 6.2 1.19 14.08
12/20/2020 11:45:00 AM -100000 -179968 -100000 -100000 -100000 -100000
12/20/2020 12:00:00 PM -100000 -179968 -100000 -100000 -100000 -100000
12/20/2020 12:15:00 PM -100000 -179968 -100000 -100000 -100000 -100000
12/20/2020 12:30:00 PM -100000 -179968 -100000 -100000 -100000 -100000
12/20/2020 12:45:00 PM -100000 -179968 -100000 -100000 -100000 -100000
12/20/2020 1:00:00 PM -100000 -179968 -100000 -100000 -100000 -100000
12/20/2020 1:15:00 PM -100000 -179968 -100000 -100000 -100000 -100000
12/20/2020 1:30:00 PM -100000 -179968 -100000 -100000 -100000 -100000
12/20/2020 1:45:00 PM -100000 -179968 -100000 -100000 -100000 -100000
12/20/2020 2:00:00 PM -100000 -179968 -100000 -100000 -100000 -100000
12/20/2020 2:15:00 PM -100000 -179968 -100000 -100000 -100000 -100000
12/20/2020 2:30:00 PM -100000 -179968 -100000 -100000 -100000 -100000
12/20/2020 2:45:00 PM -100000 -179968 -100000 -100000 -100000 -100000
12/20/2020 3:00:00 PM -0.03 31.946 0.058 6.19 1.15 14.06
12/20/2020 3:15:00 PM -100000 -179968 -100000 -100000 -100000 -100000
12/20/2020 3:30:00 PM -100000 -179968 -100000 -100000 -100000 -100000
12/20/2020 3:45:00 PM -100000 -179968 -100000 -100000 -100000 -100000
12/20/2020 4:00:00 PM -100000 -179968 -100000 -100000 -100000 -100000
12/20/2020 4:15:00 PM -100000 -179968 -100000 -100000 -100000 -100000
12/20/2020 4:30:00 PM -100000 -179968 -100000 -100000 -100000 -100000
12/20/2020 4:45:00 PM -0.03 31.946 0.058 6.19 1.23 14.04
12/20/2020 5:00:00 PM -100000 -179968 -100000 -100000 -100000 -100000
12/20/2020 5:15:00 PM -0.03 31.946 0.058 6.19 1.11 14.04
12/20/2020 5:30:00 PM -100000 -179968 -100000 -100000 -100000 -100000
12/20/2020 5:45:00 PM -100000 -179968 -100000 -100000 -100000 -100000
12/20/2020 6:00:00 PM -100000 -179968 -100000 -100000 -100000 -100000
12/20/2020 6:15:00 PM -100000 -179968 -100000 -100000 -100000 -100000
12/20/2020 6:30:00 PM -100000 -179968 -100000 -100000 -100000 -100000
12/20/2020 6:45:00 PM -0.03 31.946 0.058 6.18 1.19 14.03
12/20/2020 7:00:00 PM -100000 -179968 -100000 -100000 -100000 -100000
12/20/2020 7:15:00 PM -100000 -179968 -100000 -100000 -100000 -100000
12/20/2020 7:30:00 PM -100000 -179968 -100000 -100000 -100000 -100000
12/20/2020 7:45:00 PM -100000 -179968 -100000 -100000 -100000 -100000
12/20/2020 8:00:00 PM -100000 -179968 -100000 -100000 -100000 -100000
12/20/2020 8:15:00 PM -0.03 31.946 0.059 6.18 1.17 14.02
12/20/2020 8:30:00 PM -100000 -179968 -100000 -100000 -100000 -100000
12/20/2020 8:45:00 PM -100000 -179968 -100000 -100000 -100000 -100000
12/20/2020 9:00:00 PM -100000 -179968 -100000 -100000 -100000 -100000
12/20/2020 9:15:00 PM -0.03 31.946 0.059 6.18 1.17 14.03
12/20/2020 9:30:00 PM -100000 -179968 -100000 -100000 -100000 -100000
12/20/2020 9:45:00 PM -100000 -179968 -100000 -100000 -100000 -100000
12/20/2020 10:00:00 PM -0.03 31.946 0.058 6.18 1.15 14.03
12/20/2020 10:15:00 PM -100000 -179968 -100000 -100000 -100000 -100000
12/20/2020 10:30:00 PM -100000 -179968 -100000 -100000 -100000 -100000
12/20/2020 10:45:00 PM -100000 -179968 -100000 -100000 -100000 -100000
12/20/2020 11:00:00 PM -100000 -179968 -100000 -100000 -100000 -100000
12/20/2020 11:15:00 PM -100000 -179968 -100000 -100000 -100000 -100000
12/20/2020 11:30:00 PM -100000 -179968 -100000 -100000 -100000 -100000
12/20/2020 11:45:00 PM -100000 -179968 -100000 -100000 -100000 -100000
12/21/2020 12:00:00 AM -100000 -179968 -100000 -100000 -100000 -100000
12/21/2020 12:15:00 AM -0.02 31.964 0.058 6.18 1.16 14.03
12/21/2020 12:30:00 AM -100000 -179968 -100000 -100000 -100000 -100000
12/21/2020 12:45:00 AM -100000 -179968 -100000 -100000 -100000 -100000
12/21/2020 1:00:00 AM -100000 -179968 -100000 -100000 -100000 -100000
12/21/2020 1:15:00 AM -0.02 31.964 0.059 6.19 1.18 14.02
12/21/2020 1:30:00 AM -100000 -179968 -100000 -100000 -100000 -100000
12/21/2020 1:45:00 AM -100000 -179968 -100000 -100000 -100000 -100000
12/21/2020 2:00:00 AM -100000 -179968 -100000 -100000 -100000 -100000
12/21/2020 2:15:00 AM -100000 -179968 -100000 -100000 -100000 -100000
12/21/2020 2:30:00 AM -100000 -179968 -100000 -100000 -100000 -100000
12/21/2020 2:45:00 AM -100000 -179968 -100000 -100000 -100000 -100000
12/21/2020 3:00:00 AM -0.03 31.946 0.058 6.19 1.12 14.03
12/21/2020 3:15:00 AM -0.03 31.946 0.059 6.19 1.15 14.03
12/21/2020 3:30:00 AM -100000 -179968 -100000 -100000 -100000 -100000
12/21/2020 3:45:00 AM -100000 -179968 -100000 -100000 -100000 -100000
12/21/2020 4:00:00 AM -0.02 31.964 0.058 6.2 1.14 14.01
12/21/2020 4:15:00 AM -100000 -179968 -100000 -100000 -100000 -100000
12/21/2020 4:30:00 AM -100000 -179968 -100000 -100000 -100000 -100000
12/21/2020 4:45:00 AM -100000 -179968 -100000 -100000 -100000 -100000
12/21/2020 5:00:00 AM -100000 -179968 -100000 -100000 -100000 -100000
12/21/2020 5:15:00 AM -100000 -179968 -100000 -100000 -100000 -100000
12/21/2020 5:30:00 AM -100000 -179968 -100000 -100000 -100000 -100000
12/21/2020 5:45:00 AM -100000 -179968 -100000 -100000 -100000 -100000
12/21/2020 6:00:00 AM -0.03 31.946 0.058 6.2 1.15 14.01
12/21/2020 6:15:00 AM -100000 -179968 -100000 -100000 -100000 -100000
12/21/2020 6:30:00 AM -0.02 31.964 0.059 6.19 1.16 14.02
12/21/2020 6:45:00 AM -100000 -179968 -100000 -100000 -100000 -100000
12/21/2020 7:00:00 AM -100000 -179968 -100000 -100000 -100000 -100000
12/21/2020 7:15:00 AM -100000 -179968 -100000 -100000 -100000 -100000
12/21/2020 7:30:00 AM -100000 -179968 -100000 -100000 -100000 -100000
12/21/2020 7:45:00 AM -100000 -179968 -100000 -100000 -100000 -100000
12/21/2020 8:00:00 AM -100000 -179968 -100000 -100000 -100000 -100000
12/21/2020 8:15:00 AM -100000 -179968 -100000 -100000 -100000 -100000
12/21/2020 8:30:00 AM -100000 -179968 -100000 -100000 -100000 -100000
12/21/2020 8:45:00 AM -100000 -179968 -100000 -100000 -100000 -100000
12/21/2020 9:00:00 AM -100000 -179968 -100000 -100000 -100000 -100000
12/21/2020 9:15:00 AM -100000 -179968 -100000 -100000 -100000 -100000
12/21/2020 9:30:00 AM -0.01 31.982 0.058 6.21 1.16 14.06
12/21/2020 9:45:00 AM -100000 -179968 -100000 -100000 -100000 -100000
12/21/2020 10:00:00 AM -100000 -179968 -100000 -100000 -100000 -100000
12/21/2020 10:15:00 AM -100000 -179968 -100000 -100000 -100000 -100000
12/21/2020 10:30:00 AM -100000 -179968 -100000 -100000 -100000 -100000
12/21/2020 10:45:00 AM -100000 -179968 -100000 -100000 -100000 -100000
12/21/2020 11:00:00 AM -0.01 31.982 0.058 6.22 1.17 14.08
12/21/2020 11:15:00 AM 0 32 0.059 6.22 1.2 14.08
12/21/2020 11:30:00 AM 0 32 0.059 6.23 1.27 14.06
12/21/2020 11:45:00 AM 0 32 0.059 6.22 1.17 14.07
12/21/2020 12:00:00 PM -0.01 31.982 0.058 6.23 1.12 14.07
12/21/2020 12:15:00 PM 0 32 0.059 6.23 1.12 14.06
12/21/2020 12:30:00 PM -0.01 31.982 0.058 6.23 1.19 14.06
12/21/2020 12:45:00 PM -0.01 31.982 0.058 6.23 1.26 14.06
12/21/2020 1:00:00 PM 0 32 0.058 6.23 1.2 14.06
12/21/2020 1:15:00 PM 0 32 0.058 6.24 1.18 14.05
12/21/2020 1:30:00 PM 0 32 0.058 6.24 1.17 14.05
12/21/2020 1:45:00 PM 0 32 0.058 6.24 1.16 14.05
12/21/2020 2:00:00 PM 0 32 0.058 6.24 1.18 14.05
12/21/2020 2:15:00 PM -0.01 31.982 0.058 6.23 1.34 14.04
12/21/2020 2:30:00 PM -0.01 31.982 0.058 6.23 1.21 14.04
12/21/2020 2:45:00 PM 0 32 0.059 6.23 1.28 14.02
12/21/2020 3:00:00 PM -0.01 31.982 0.058 6.23 1.26 14.02
12/21/2020 3:15:00 PM -0.01 31.982 0.058 6.23 1.17 14.02
12/21/2020 3:30:00 PM -0.01 31.982 0.058 6.23 1.18 14
12/21/2020 3:45:00 PM -0.01 31.982 0.059 6.23 1.14 14
12/21/2020 4:00:00 PM -0.02 31.964 0.058 6.23 1.17 13.99
12/21/2020 4:15:00 PM -0.02 31.964 0.058 6.23 1.18 13.99
12/21/2020 4:30:00 PM -0.01 31.982 0.059 6.23 1.14 13.99
12/21/2020 4:45:00 PM -100000 -179968 -100000 -100000 -100000 -100000
12/21/2020 5:00:00 PM -0.01 31.982 0.059 6.22 1.35 13.98
12/21/2020 5:15:00 PM -100000 -179968 -100000 -100000 -100000 -100000
12/21/2020 5:30:00 PM -100000 -179968 -100000 -100000 -100000 -100000
12/21/2020 5:45:00 PM -100000 -179968 -100000 -100000 -100000 -100000
12/21/2020 6:00:00 PM -100000 -179968 -100000 -100000 -100000 -100000
12/21/2020 6:15:00 PM -0.01 31.982 0.059 6.22 1.28 13.96
12/21/2020 6:30:00 PM -0.01 31.982 0.059 6.22 1.16 13.96
12/21/2020 6:45:00 PM -100000 -179968 -100000 -100000 -100000 -100000
12/21/2020 7:00:00 PM -100000 -179968 -100000 -100000 -100000 -100000
12/21/2020 7:15:00 PM -100000 -179968 -100000 -100000 -100000 -100000
12/21/2020 7:30:00 PM -100000 -179968 -100000 -100000 -100000 -100000
12/21/2020 7:45:00 PM -100000 -179968 -100000 -100000 -100000 -100000
12/21/2020 8:00:00 PM -100000 -179968 -100000 -100000 -100000 -100000
12/21/2020 8:15:00 PM -0.01 31.982 0.06 6.22 1.09 13.96
12/21/2020 8:30:00 PM -100000 -179968 -100000 -100000 -100000 -100000
12/21/2020 8:45:00 PM -0.02 31.964 0.06 6.22 1.14 13.96
12/21/2020 9:00:00 PM -0.01 31.982 0.06 6.22 1.13 13.96
12/21/2020 9:15:00 PM 0 32 0.061 6.22 1.07 13.95
12/21/2020 9:30:00 PM -100000 -179968 -100000 -100000 -100000 -100000
12/21/2020 9:45:00 PM -100000 -179968 -100000 -100000 -100000 -100000
12/21/2020 10:00:00 PM -100000 -179968 -100000 -100000 -100000 -100000
12/21/2020 10:15:00 PM -100000 -179968 -100000 -100000 -100000 -100000
12/21/2020 10:30:00 PM -100000 -179968 -100000 -100000 -100000 -100000
12/21/2020 10:45:00 PM -100000 -179968 -100000 -100000 -100000 -100000
12/21/2020 11:00:00 PM -100000 -179968 -100000 -100000 -100000 -100000
12/21/2020 11:15:00 PM -100000 -179968 -100000 -100000 -100000 -100000
12/21/2020 11:30:00 PM -0.01 31.982 0.061 6.22 1.2 13.95
12/21/2020 11:45:00 PM -100000 -179968 -100000 -100000 -100000 -100000
12/22/2020 12:00:00 AM -100000 -179968 -100000 -100000 -100000 -100000
12/22/2020 12:15:00 AM -100000 -179968 -100000 -100000 -100000 -100000
12/22/2020 12:30:00 AM -100000 -179968 -100000 -100000 -100000 -100000
12/22/2020 12:45:00 AM -100000 -179968 -100000 -100000 -100000 -100000
12/22/2020 1:00:00 AM -100000 -179968 -100000 -100000 -100000 -100000
12/22/2020 1:15:00 AM -100000 -179968 -100000 -100000 -100000 -100000
12/22/2020 1:30:00 AM -100000 -179968 -100000 -100000 -100000 -100000
12/22/2020 1:45:00 AM -0.01 31.982 0.061 6.22 1.17 13.95
12/22/2020 2:00:00 AM -0.01 31.982 0.061 6.23 1.2 13.93
12/22/2020 2:15:00 AM -0.01 31.982 0.061 6.22 1.17 13.93
12/22/2020 2:30:00 AM -100000 -179968 -100000 -100000 -100000 -100000
12/22/2020 2:45:00 AM -100000 -179968 -100000 -100000 -100000 -100000
12/22/2020 3:00:00 AM -100000 -179968 -100000 -100000 -100000 -100000
12/22/2020 3:15:00 AM -100000 -179968 -100000 -100000 -100000 -100000
12/22/2020 3:30:00 AM -0.01 31.982 0.062 6.23 1.15 13.95
12/22/2020 3:45:00 AM -100000 -179968 -100000 -100000 -100000 -100000
12/22/2020 4:00:00 AM -100000 -179968 -100000 -100000 -100000 -100000
12/22/2020 4:15:00 AM -100000 -179968 -100000 -100000 -100000 -100000
12/22/2020 4:30:00 AM -100000 -179968 -100000 -100000 -100000 -100000
12/22/2020 4:45:00 AM -100000 -179968 -100000 -100000 -100000 -100000
12/22/2020 5:00:00 AM -100000 -179968 -100000 -100000 -100000 -100000
12/22/2020 5:15:00 AM -100000 -179968 -100000 -100000 -100000 -100000
12/22/2020 5:30:00 AM -100000 -179968 -100000 -100000 -100000 -100000
12/22/2020 5:45:00 AM -100000 -179968 -100000 -100000 -100000 -100000
12/22/2020 6:00:00 AM -0.01 31.982 0.062 6.24 1.15 13.96
12/22/2020 6:15:00 AM -0.01 31.982 0.062 6.24 1.31 13.97
12/22/2020 6:30:00 AM -0.01 31.982 0.062 6.25 1.16 13.97
12/22/2020 6:45:00 AM -100000 -179968 -100000 -100000 -100000 -100000
12/22/2020 7:00:00 AM -100000 -179968 -100000 -100000 -100000 -100000
12/22/2020 7:15:00 AM -100000 -179968 -100000 -100000 -100000 -100000
12/22/2020 7:30:00 AM -100000 -179968 -100000 -100000 -100000 -100000
12/22/2020 7:45:00 AM 0 32 0.063 6.25 1.17 13.98
12/22/2020 8:00:00 AM -100000 -179968 -100000 -100000 -100000 -100000
12/22/2020 8:15:00 AM -0.01 31.982 0.062 6.25 1.35 14.01
12/22/2020 8:30:00 AM -100000 -179968 -100000 -100000 -100000 -100000
12/22/2020 8:45:00 AM -100000 -179968 -100000 -100000 -100000 -100000
12/22/2020 9:00:00 AM -100000 -179968 -100000 -100000 -100000 -100000
12/22/2020 9:15:00 AM -100000 -179968 -100000 -100000 -100000 -100000
12/22/2020 9:30:00 AM -0.01 31.982 0.063 6.25 1.19 14.08
12/22/2020 9:45:00 AM -0.01 31.982 0.062 6.25 1.23 14.09
12/22/2020 10:00:00 AM -100000 -179968 -100000 -100000 -100000 -100000
12/22/2020 10:15:00 AM -100000 -179968 -100000 -100000 -100000 -100000
12/22/2020 10:30:00 AM -100000 -179968 -100000 -100000 -100000 -100000
12/22/2020 10:45:00 AM 0 32 0.063 6.25 1.21 14.1
12/22/2020 11:00:00 AM 0 32 0.063 6.26 1.16 14.12
12/22/2020 11:15:00 AM -100000 -179968 -100000 -100000 -100000 -100000
12/22/2020 11:30:00 AM 0.01 32.018 0.063 6.26 1.17 14.13
12/22/2020 11:45:00 AM -100000 -179968 -100000 -100000 -100000 -100000
12/22/2020 12:00:00 PM 0.01 32.018 0.063 6.26 1.22 14.14
12/22/2020 12:15:00 PM 0.01 32.018 0.063 6.27 1.27 14.12
12/22/2020 12:30:00 PM -100000 -179968 -100000 -100000 -100000 -100000
12/22/2020 12:45:00 PM 0.01 32.018 0.063 6.27 1.16 14.13
12/22/2020 1:00:00 PM 0.02 32.036 0.063 6.27 1.13 14.12
12/22/2020 1:15:00 PM 0.02 32.036 0.064 6.27 1.32 14.11
12/22/2020 1:30:00 PM 0.01 32.018 0.063 6.27 1.16 14.13
12/22/2020 1:45:00 PM -100000 -179968 -100000 -100000 -100000 -100000
12/22/2020 2:00:00 PM -100000 -179968 -100000 -100000 -100000 -100000
12/22/2020 2:15:00 PM 0.02 32.036 0.063 6.27 1.34 14.15
12/22/2020 2:30:00 PM -100000 -179968 -100000 -100000 -100000 -100000
12/22/2020 2:45:00 PM 0.03 32.054 0.064 6.27 1.15 14.14
12/22/2020 3:00:00 PM 0.03 32.054 0.064 6.27 1.44 14.14
12/22/2020 3:15:00 PM 0.02 32.036 0.063 6.27 1.14 14.14
12/22/2020 3:30:00 PM -100000 -179968 -100000 -100000 -100000 -100000
12/22/2020 3:45:00 PM 0.02 32.036 0.064 6.27 1.19 14.13
12/22/2020 4:00:00 PM 0.01 32.018 0.064 6.26 1.62 14.13
12/22/2020 4:15:00 PM -100000 -179968 -100000 -100000 -100000 -100000
12/22/2020 4:30:00 PM 0.02 32.036 0.064 6.26 1.33 14.14
12/22/2020 4:45:00 PM 0.02 32.036 0.064 6.26 1.21 14.12
12/22/2020 5:00:00 PM -100000 -179968 -100000 -100000 -100000 -100000
12/22/2020 5:15:00 PM 0.02 32.036 0.064 6.27 1.16 14.11
12/22/2020 5:30:00 PM -100000 -179968 -100000 -100000 -100000 -100000
12/22/2020 5:45:00 PM -100000 -179968 -100000 -100000 -100000 -100000
12/22/2020 6:00:00 PM -100000 -179968 -100000 -100000 -100000 -100000
12/22/2020 6:15:00 PM -100000 -179968 -100000 -100000 -100000 -100000
12/22/2020 6:30:00 PM -100000 -179968 -100000 -100000 -100000 -100000
12/22/2020 6:45:00 PM -100000 -179968 -100000 -100000 -100000 -100000
12/22/2020 7:00:00 PM -100000 -179968 -100000 -100000 -100000 -100000
12/22/2020 7:15:00 PM -100000 -179968 -100000 -100000 -100000 -100000
12/22/2020 7:30:00 PM -100000 -179968 -100000 -100000 -100000 -100000
12/22/2020 7:45:00 PM 0 32 0.065 6.25 1.2 14.17
12/22/2020 8:00:00 PM -100000 -179968 -100000 -100000 -100000 -100000
12/22/2020 8:15:00 PM -100000 -179968 -100000 -100000 -100000 -100000
12/22/2020 8:30:00 PM -100000 -179968 -100000 -100000 -100000 -100000
12/22/2020 8:45:00 PM -100000 -179968 -100000 -100000 -100000 -100000
12/22/2020 9:00:00 PM -100000 -179968 -100000 -100000 -100000 -100000
12/22/2020 9:15:00 PM -100000 -179968 -100000 -100000 -100000 -100000
12/22/2020 9:30:00 PM -100000 -179968 -100000 -100000 -100000 -100000
12/22/2020 9:45:00 PM -100000 -179968 -100000 -100000 -100000 -100000
12/22/2020 10:00:00 PM -100000 -179968 -100000 -100000 -100000 -100000
12/22/2020 10:15:00 PM -100000 -179968 -100000 -100000 -100000 -100000
12/22/2020 10:30:00 PM -100000 -179968 -100000 -100000 -100000 -100000
12/22/2020 10:45:00 PM -100000 -179968 -100000 -100000 -100000 -100000
12/22/2020 11:00:00 PM -100000 -179968 -100000 -100000 -100000 -100000
12/22/2020 11:15:00 PM 0.02 32.036 0.067 6.26 1.17 14.18
12/22/2020 11:30:00 PM -100000 -179968 -100000 -100000 -100000 -100000
12/22/2020 11:45:00 PM -100000 -179968 -100000 -100000 -100000 -100000
12/23/2020 12:00:00 AM -100000 -179968 -100000 -100000 -100000 -100000
12/23/2020 12:15:00 AM -100000 -179968 -100000 -100000 -100000 -100000
12/23/2020 12:30:00 AM -100000 -179968 -100000 -100000 -100000 -100000
12/23/2020 12:45:00 AM 0.01 32.018 0.067 6.26 1.11 14.18
12/23/2020 1:00:00 AM 0.02 32.036 0.067 6.27 1.32 14.16
12/23/2020 1:15:00 AM -100000 -179968 -100000 -100000 -100000 -100000
12/23/2020 1:30:00 AM -100000 -179968 -100000 -100000 -100000 -100000
12/23/2020 1:45:00 AM -100000 -179968 -100000 -100000 -100000 -100000
12/23/2020 2:00:00 AM -100000 -179968 -100000 -100000 -100000 -100000
12/23/2020 2:15:00 AM 0 32 0.067 6.26 1.27 14.21
12/23/2020 2:30:00 AM -100000 -179968 -100000 -100000 -100000 -100000
12/23/2020 2:45:00 AM -100000 -179968 -100000 -100000 -100000 -100000
12/23/2020 3:00:00 AM 0 32 0.066 6.26 1.17 14.2
12/23/2020 3:15:00 AM -100000 -179968 -100000 -100000 -100000 -100000
12/23/2020 3:30:00 AM -100000 -179968 -100000 -100000 -100000 -100000
12/23/2020 3:45:00 AM -100000 -179968 -100000 -100000 -100000 -100000
12/23/2020 4:00:00 AM -100000 -179968 -100000 -100000 -100000 -100000
12/23/2020 4:15:00 AM -100000 -179968 -100000 -100000 -100000 -100000
12/23/2020 4:30:00 AM -100000 -179968 -100000 -100000 -100000 -100000
12/23/2020 4:45:00 AM -100000 -179968 -100000 -100000 -100000 -100000
12/23/2020 5:00:00 AM -100000 -179968 -100000 -100000 -100000 -100000
12/23/2020 5:15:00 AM -100000 -179968 -100000 -100000 -100000 -100000
12/23/2020 5:30:00 AM -100000 -179968 -100000 -100000 -100000 -100000
12/23/2020 5:45:00 AM 0 32 0.067 6.27 1.15 14.2
12/23/2020 6:00:00 AM -100000 -179968 -100000 -100000 -100000 -100000
12/23/2020 6:15:00 AM -100000 -179968 -100000 -100000 -100000 -100000
12/23/2020 6:30:00 AM -100000 -179968 -100000 -100000 -100000 -100000
12/23/2020 6:45:00 AM -100000 -179968 -100000 -100000 -100000 -100000
12/23/2020 7:00:00 AM -100000 -179968 -100000 -100000 -100000 -100000
12/23/2020 7:15:00 AM 0 32 0.067 6.27 1.15 14.2
12/23/2020 7:30:00 AM -100000 -179968 -100000 -100000 -100000 -100000
12/23/2020 7:45:00 AM -100000 -179968 -100000 -100000 -100000 -100000
12/23/2020 8:00:00 AM -100000 -179968 -100000 -100000 -100000 -100000
12/23/2020 8:15:00 AM -100000 -179968 -100000 -100000 -100000 -100000
12/23/2020 8:30:00 AM -100000 -179968 -100000 -100000 -100000 -100000
12/23/2020 8:45:00 AM -100000 -179968 -100000 -100000 -100000 -100000
12/23/2020 9:00:00 AM -100000 -179968 -100000 -100000 -100000 -100000
12/23/2020 9:15:00 AM 0 32 0.067 6.27 1.15 14.28
12/23/2020 9:30:00 AM -100000 -179968 -100000 -100000 -100000 -100000
12/23/2020 9:45:00 AM 0.02 32.036 0.067 6.28 1.14 14.25
12/23/2020 10:00:00 AM -100000 -179968 -100000 -100000 -100000 -100000
12/23/2020 10:15:00 AM -100000 -179968 -100000 -100000 -100000 -100000
12/23/2020 10:30:00 AM -100000 -179968 -100000 -100000 -100000 -100000
12/23/2020 10:45:00 AM 0.05 32.09 0.067 6.29 1.18 14.26
12/23/2020 11:00:00 AM -100000 -179968 -100000 -100000 -100000 -100000
12/23/2020 11:15:00 AM 0.05 32.09 0.066 6.28 1.16 14.27
12/23/2020 11:30:00 AM 0.07 32.126 0.067 6.3 1.14 14.22
12/23/2020 11:45:00 AM 0.07 32.126 0.066 6.29 1.11 14.21
12/23/2020 12:00:00 PM 0.08 32.144 0.066 6.3 1.22 14.23
12/23/2020 12:15:00 PM 0.08 32.144 0.066 6.29 1.14 14.23
12/23/2020 12:30:00 PM 0.08 32.144 0.066 6.29 1.15 14.23
12/23/2020 12:45:00 PM 0.09 32.162 0.064 6.27 2.4 14.22
12/23/2020 1:00:00 PM 0.1 32.18 0.066 6.29 1.13 14.22
12/23/2020 1:15:00 PM 0.1 32.18 0.066 6.29 1.25 14.2
12/23/2020 1:30:00 PM 0.11 32.198 0.066 6.31 1.14 14.2
12/23/2020 1:45:00 PM 0.12 32.216 0.066 6.3 1.17 14.17
12/23/2020 2:00:00 PM 0.12 32.216 0.066 6.31 1.15 14.16
12/23/2020 2:15:00 PM 0.12 32.216 0.065 6.31 1.16 14.15
12/23/2020 2:30:00 PM 0.14 32.252 0.066 6.32 1.22 14.1
12/23/2020 2:45:00 PM 0.14 32.252 0.066 6.31 1.13 14.1
12/23/2020 3:00:00 PM 0.14 32.252 0.066 6.33 1.15 14.1
12/23/2020 3:15:00 PM 0.15 32.27 0.066 6.3 1.19 14.08
12/23/2020 3:30:00 PM 0.16 32.288 0.066 6.3 1.1 14.06
12/23/2020 3:45:00 PM 0.17 32.306 0.066 6.31 1.16 14.04
12/23/2020 4:00:00 PM 0.2 32.36 0.067 6.31 1.14 14
12/23/2020 4:15:00 PM 0.21 32.378 0.067 6.31 1.09 13.97
12/23/2020 4:30:00 PM 0.22 32.396 0.065 6.31 2.45 13.94
12/23/2020 4:45:00 PM 0.22 32.396 0.067 6.32 1.14 13.94
12/23/2020 5:00:00 PM 0.23 32.414 0.067 6.3 1.11 13.9
12/23/2020 5:15:00 PM -100000 -179968 -100000 -100000 -100000 -100000
12/23/2020 5:30:00 PM 0.25 32.45 0.066 6.3 1.18 13.91
12/23/2020 5:45:00 PM 0.26 32.468 0.067 6.31 1.13 13.89
12/23/2020 6:00:00 PM -100000 -179968 -100000 -100000 -100000 -100000
12/23/2020 6:15:00 PM -100000 -179968 -100000 -100000 -100000 -100000
12/23/2020 6:30:00 PM -100000 -179968 -100000 -100000 -100000 -100000
12/23/2020 6:45:00 PM -100000 -179968 -100000 -100000 -100000 -100000
12/23/2020 7:00:00 PM 0.35 32.63 0.066 6.3 1.17 13.82
12/23/2020 7:15:00 PM -100000 -179968 -100000 -100000 -100000 -100000
12/23/2020 7:30:00 PM 0.38 32.684 0.066 6.3 1.17 13.86
12/23/2020 7:45:00 PM -100000 -179968 -100000 -100000 -100000 -100000
12/23/2020 8:00:00 PM -100000 -179968 -100000 -100000 -100000 -100000
12/23/2020 8:15:00 PM -100000 -179968 -100000 -100000 -100000 -100000
12/23/2020 8:30:00 PM -100000 -179968 -100000 -100000 -100000 -100000
12/23/2020 8:45:00 PM -100000 -179968 -100000 -100000 -100000 -100000
12/23/2020 9:00:00 PM 0.46 32.828 0.065 6.27 1.1 13.86
12/23/2020 9:15:00 PM 0.46 32.828 0.066 6.28 1.1 13.85
12/23/2020 9:30:00 PM -100000 -179968 -100000 -100000 -100000 -100000
12/23/2020 9:45:00 PM -100000 -179968 -100000 -100000 -100000 -100000
12/23/2020 10:00:00 PM 0.52 32.936 0.066 6.3 1.16 13.85
12/23/2020 10:15:00 PM 0.54 32.972 0.066 6.28 1.15 13.84
12/23/2020 10:30:00 PM -100000 -179968 -100000 -100000 -100000 -100000
12/23/2020 10:45:00 PM -100000 -179968 -100000 -100000 -100000 -100000
12/23/2020 11:00:00 PM -100000 -179968 -100000 -100000 -100000 -100000
12/23/2020 11:15:00 PM 0.53 32.954 0.062 6.27 2.38 13.84
12/23/2020 11:30:00 PM -100000 -179968 -100000 -100000 -100000 -100000
12/23/2020 11:45:00 PM -100000 -179968 -100000 -100000 -100000 -100000
12/24/2020 12:00:00 AM -100000 -179968 -100000 -100000 -100000 -100000
12/24/2020 12:15:00 AM -100000 -179968 -100000 -100000 -100000 -100000
12/24/2020 12:30:00 AM -100000 -179968 -100000 -100000 -100000 -100000
12/24/2020 12:45:00 AM 0.57 33.026 0.066 6.28 1.15 13.85
12/24/2020 1:00:00 AM -100000 -179968 -100000 -100000 -100000 -100000
12/24/2020 1:15:00 AM 0.57 33.026 0.066 6.28 1.17 13.84
12/24/2020 1:30:00 AM -100000 -179968 -100000 -100000 -100000 -100000
12/24/2020 1:45:00 AM -100000 -179968 -100000 -100000 -100000 -100000
12/24/2020 2:00:00 AM -100000 -179968 -100000 -100000 -100000 -100000
12/24/2020 2:15:00 AM -100000 -179968 -100000 -100000 -100000 -100000
12/24/2020 2:30:00 AM -100000 -179968 -100000 -100000 -100000 -100000
12/24/2020 2:45:00 AM -100000 -179968 -100000 -100000 -100000 -100000
12/24/2020 3:00:00 AM 0.5 32.9 0.065 6.28 1.13 13.84
12/24/2020 3:15:00 AM -100000 -179968 -100000 -100000 -100000 -100000
12/24/2020 3:30:00 AM -100000 -179968 -100000 -100000 -100000 -100000
12/24/2020 3:45:00 AM -100000 -179968 -100000 -100000 -100000 -100000
12/24/2020 4:00:00 AM -100000 -179968 -100000 -100000 -100000 -100000
12/24/2020 4:15:00 AM -100000 -179968 -100000 -100000 -100000 -100000
12/24/2020 4:30:00 AM -100000 -179968 -100000 -100000 -100000 -100000
12/24/2020 4:45:00 AM 0.56 33.008 0.066 6.3 1.09 13.82
12/24/2020 5:00:00 AM -100000 -179968 -100000 -100000 -100000 -100000
12/24/2020 5:15:00 AM -100000 -179968 -100000 -100000 -100000 -100000
12/24/2020 5:30:00 AM -100000 -179968 -100000 -100000 -100000 -100000
12/24/2020 5:45:00 AM -100000 -179968 -100000 -100000 -100000 -100000
12/24/2020 6:00:00 AM -100000 -179968 -100000 -100000 -100000 -100000
12/24/2020 6:15:00 AM -100000 -179968 -100000 -100000 -100000 -100000
12/24/2020 6:30:00 AM -100000 -179968 -100000 -100000 -100000 -100000
12/24/2020 6:45:00 AM -100000 -179968 -100000 -100000 -100000 -100000
12/24/2020 7:00:00 AM 0.58 33.044 0.066 6.3 1.1 13.8
12/24/2020 7:15:00 AM -100000 -179968 -100000 -100000 -100000 -100000
12/24/2020 7:30:00 AM 0.57 33.026 0.066 6.3 1.1 13.78
12/24/2020 7:45:00 AM -100000 -179968 -100000 -100000 -100000 -100000
12/24/2020 8:00:00 AM 0.49 32.882 0.065 6.29 1.17 13.79
12/24/2020 8:15:00 AM -100000 -179968 -100000 -100000 -100000 -100000
12/24/2020 8:30:00 AM -100000 -179968 -100000 -100000 -100000 -100000
12/24/2020 8:45:00 AM -100000 -179968 -100000 -100000 -100000 -100000
12/24/2020 9:00:00 AM -100000 -179968 -100000 -100000 -100000 -100000
12/24/2020 9:15:00 AM -100000 -179968 -100000 -100000 -100000 -100000
12/24/2020 9:30:00 AM -100000 -179968 -100000 -100000 -100000 -100000
12/24/2020 9:45:00 AM 0.43 32.774 0.064 6.29 1.38 13.84
12/24/2020 10:00:00 AM -100000 -179968 -100000 -100000 -100000 -100000
12/24/2020 10:15:00 AM -100000 -179968 -100000 -100000 -100000 -100000
12/24/2020 10:30:00 AM -100000 -179968 -100000 -100000 -100000 -100000
12/24/2020 10:45:00 AM -100000 -179968 -100000 -100000 -100000 -100000
12/24/2020 11:00:00 AM -100000 -179968 -100000 -100000 -100000 -100000
12/24/2020 11:15:00 AM -100000 -179968 -100000 -100000 -100000 -100000
12/24/2020 11:30:00 AM -100000 -179968 -100000 -100000 -100000 -100000
12/24/2020 11:45:00 AM -100000 -179968 -100000 -100000 -100000 -100000
12/24/2020 12:00:00 PM -100000 -179968 -100000 -100000 -100000 -100000
12/24/2020 12:15:00 PM -100000 -179968 -100000 -100000 -100000 -100000
12/24/2020 12:30:00 PM -100000 -179968 -100000 -100000 -100000 -100000
12/24/2020 12:45:00 PM -100000 -179968 -100000 -100000 -100000 -100000
12/24/2020 1:00:00 PM 0.31 32.558 0.074 6.34 10.1 13.77
12/24/2020 1:15:00 PM -100000 -179968 -100000 -100000 -100000 -100000
12/24/2020 1:30:00 PM 0.26 32.468 0.078 6.36 1.83 13.76
12/24/2020 1:45:00 PM -100000 -179968 -100000 -100000 -100000 -100000
12/24/2020 2:00:00 PM 0.2 32.36 0.081 6.36 1.96 13.76
12/24/2020 2:15:00 PM -100000 -179968 -100000 -100000 -100000 -100000
12/24/2020 2:30:00 PM -100000 -179968 -100000 -100000 -100000 -100000
12/24/2020 2:45:00 PM -100000 -179968 -100000 -100000 -100000 -100000
12/24/2020 3:00:00 PM -100000 -179968 -100000 -100000 -100000 -100000
12/24/2020 3:15:00 PM -100000 -179968 -100000 -100000 -100000 -100000
12/24/2020 3:30:00 PM -100000 -179968 -100000 -100000 -100000 -100000
12/24/2020 3:45:00 PM -100000 -179968 -100000 -100000 -100000 -100000
12/24/2020 4:00:00 PM 0.13 32.234 0.084 6.28 9.46 13.73
12/24/2020 4:15:00 PM -100000 -179968 -100000 -100000 -100000 -100000
12/24/2020 4:30:00 PM -100000 -179968 -100000 -100000 -100000 -100000
12/24/2020 4:45:00 PM -100000 -179968 -100000 -100000 -100000 -100000
12/24/2020 5:00:00 PM -100000 -179968 -100000 -100000 -100000 -100000
12/24/2020 5:15:00 PM -100000 -179968 -100000 -100000 -100000 -100000
12/24/2020 5:30:00 PM -100000 -179968 -100000 -100000 -100000 -100000
12/24/2020 5:45:00 PM -100000 -179968 -100000 -100000 -100000 -100000
12/24/2020 6:00:00 PM -100000 -179968 -100000 -100000 -100000 -100000
12/24/2020 6:15:00 PM -100000 -179968 -100000 -100000 -100000 -100000
12/24/2020 6:30:00 PM -100000 -179968 -100000 -100000 -100000 -100000
12/24/2020 6:45:00 PM 1.39 34.502 0.053 6.06 49.12 13.34
12/24/2020 7:00:00 PM -100000 -179968 -100000 -100000 -100000 -100000
12/24/2020 7:15:00 PM -100000 -179968 -100000 -100000 -100000 -100000
12/24/2020 7:30:00 PM -100000 -179968 -100000 -100000 -100000 -100000
12/24/2020 7:45:00 PM -100000 -179968 -100000 -100000 -100000 -100000
12/24/2020 8:00:00 PM -100000 -179968 -100000 -100000 -100000 -100000
12/24/2020 8:15:00 PM -100000 -179968 -100000 -100000 -100000 -100000
12/24/2020 8:30:00 PM -100000 -179968 -100000 -100000 -100000 -100000
12/24/2020 8:45:00 PM -100000 -179968 -100000 -100000 -100000 -100000
12/24/2020 9:00:00 PM -100000 -179968 -100000 -100000 -100000 -100000
12/24/2020 9:15:00 PM -100000 -179968 -100000 -100000 -100000 -100000
12/24/2020 9:30:00 PM -100000 -179968 -100000 -100000 -100000 -100000
12/24/2020 9:45:00 PM -100000 -179968 -100000 -100000 -100000 -100000
12/24/2020 10:00:00 PM -100000 -179968 -100000 -100000 -100000 -100000
12/24/2020 10:15:00 PM -100000 -179968 -100000 -100000 -100000 -100000
12/24/2020 10:30:00 PM -100000 -179968 -100000 -100000 -100000 -100000
12/24/2020 10:45:00 PM 3.12 37.616 0.039 5.78 24.17 12.74
12/24/2020 11:00:00 PM -100000 -179968 -100000 -100000 -100000 -100000
12/24/2020 11:15:00 PM 3.21 37.778 0.039 5.78 28.22 12.71
12/24/2020 11:30:00 PM -100000 -179968 -100000 -100000 -100000 -100000
12/24/2020 11:45:00 PM -100000 -179968 -100000 -100000 -100000 -100000
12/25/2020 12:00:00 AM 3.32 37.976 0.039 5.74 26.14 12.67
12/25/2020 12:15:00 AM -100000 -179968 -100000 -100000 -100000 -100000
12/25/2020 12:30:00 AM -100000 -179968 -100000 -100000 -100000 -100000
12/25/2020 12:45:00 AM -100000 -179968 -100000 -100000 -100000 -100000
12/25/2020 1:00:00 AM -100000 -179968 -100000 -100000 -100000 -100000
12/25/2020 1:15:00 AM -100000 -179968 -100000 -100000 -100000 -100000
12/25/2020 1:30:00 AM -100000 -179968 -100000 -100000 -100000 -100000
12/25/2020 1:45:00 AM -100000 -179968 -100000 -100000 -100000 -100000
12/25/2020 2:00:00 AM -100000 -179968 -100000 -100000 -100000 -100000
12/25/2020 2:15:00 AM -100000 -179968 -100000 -100000 -100000 -100000
12/25/2020 2:30:00 AM -100000 -179968 -100000 -100000 -100000 -100000
12/25/2020 2:45:00 AM -100000 -179968 -100000 -100000 -100000 -100000
12/25/2020 3:00:00 AM -100000 -179968 -100000 -100000 -100000 -100000
12/25/2020 3:15:00 AM -100000 -179968 -100000 -100000 -100000 -100000
12/25/2020 3:30:00 AM -100000 -179968 -100000 -100000 -100000 -100000
12/25/2020 3:45:00 AM -100000 -179968 -100000 -100000 -100000 -100000
12/25/2020 4:00:00 AM -100000 -179968 -100000 -100000 -100000 -100000
12/25/2020 4:15:00 AM -100000 -179968 -100000 -100000 -100000 -100000
12/25/2020 4:30:00 AM -100000 -179968 -100000 -100000 -100000 -100000
12/25/2020 4:45:00 AM -100000 -179968 -100000 -100000 -100000 -100000
12/25/2020 5:00:00 AM 2.81 37.058 0.033 5.49 32.87 12.92
12/25/2020 5:15:00 AM -100000 -179968 -100000 -100000 -100000 -100000
12/25/2020 5:30:00 AM -100000 -179968 -100000 -100000 -100000 -100000
12/25/2020 5:45:00 AM -100000 -179968 -100000 -100000 -100000 -100000
12/25/2020 6:00:00 AM -100000 -179968 -100000 -100000 -100000 -100000
12/25/2020 6:15:00 AM 2.79 37.022 0.033 5.47 23.52 12.94
12/25/2020 6:30:00 AM 2.78 37.004 0.033 5.51 23.45 12.95
12/25/2020 6:45:00 AM 2.77 36.986 0.033 5.51 23.09 12.95
12/25/2020 7:00:00 AM 2.76 36.968 0.033 5.51 20 12.96
12/25/2020 7:15:00 AM -100000 -179968 -100000 -100000 -100000 -100000
12/25/2020 7:30:00 AM -100000 -179968 -100000 -100000 -100000 -100000
12/25/2020 7:45:00 AM 2.72 36.896 0.033 5.53 17.39 12.98
12/25/2020 8:00:00 AM -100000 -179968 -100000 -100000 -100000 -100000
12/25/2020 8:15:00 AM -100000 -179968 -100000 -100000 -100000 -100000
12/25/2020 8:30:00 AM -100000 -179968 -100000 -100000 -100000 -100000
12/25/2020 8:45:00 AM -100000 -179968 -100000 -100000 -100000 -100000
12/25/2020 9:00:00 AM -100000 -179968 -100000 -100000 -100000 -100000
12/25/2020 9:15:00 AM -100000 -179968 -100000 -100000 -100000 -100000
12/25/2020 9:30:00 AM -100000 -179968 -100000 -100000 -100000 -100000
12/25/2020 9:45:00 AM 2.67 36.806 0.033 5.56 12.73 13.01
12/25/2020 10:00:00 AM -100000 -179968 -100000 -100000 -100000 -100000
12/25/2020 10:15:00 AM 2.67 36.806 0.033 5.56 11.66 13.02
12/25/2020 10:30:00 AM 2.67 36.806 0.033 5.55 10.89 13.02
12/25/2020 10:45:00 AM 2.68 36.824 0.033 5.57 11.31 13.03
12/25/2020 11:00:00 AM -100000 -179968 -100000 -100000 -100000 -100000
12/25/2020 11:15:00 AM -100000 -179968 -100000 -100000 -100000 -100000
12/25/2020 11:30:00 AM -100000 -179968 -100000 -100000 -100000 -100000
12/25/2020 11:45:00 AM -100000 -179968 -100000 -100000 -100000 -100000
12/25/2020 12:00:00 PM -100000 -179968 -100000 -100000 -100000 -100000
12/25/2020 12:15:00 PM 2.75 36.95 0.033 5.59 9.27 13
12/25/2020 12:30:00 PM -100000 -179968 -100000 -100000 -100000 -100000
12/25/2020 12:45:00 PM -100000 -179968 -100000 -100000 -100000 -100000
12/25/2020 1:00:00 PM 2.78 37.004 0.033 5.6 9.17 12.99
12/25/2020 1:15:00 PM -100000 -179968 -100000 -100000 -100000 -100000
12/25/2020 1:30:00 PM -100000 -179968 -100000 -100000 -100000 -100000
12/25/2020 1:45:00 PM -100000 -179968 -100000 -100000 -100000 -100000
12/25/2020 2:00:00 PM -100000 -179968 -100000 -100000 -100000 -100000
12/25/2020 2:15:00 PM -100000 -179968 -100000 -100000 -100000 -100000
12/25/2020 2:30:00 PM -100000 -179968 -100000 -100000 -100000 -100000
12/25/2020 2:45:00 PM -100000 -179968 -100000 -100000 -100000 -100000
12/25/2020 3:00:00 PM -100000 -179968 -100000 -100000 -100000 -100000
12/25/2020 3:15:00 PM -100000 -179968 -100000 -100000 -100000 -100000
12/25/2020 3:30:00 PM -100000 -179968 -100000 -100000 -100000 -100000
12/25/2020 3:45:00 PM -100000 -179968 -100000 -100000 -100000 -100000
12/25/2020 4:00:00 PM -100000 -179968 -100000 -100000 -100000 -100000
12/25/2020 4:15:00 PM -100000 -179968 -100000 -100000 -100000 -100000
12/25/2020 4:30:00 PM -100000 -179968 -100000 -100000 -100000 -100000
12/25/2020 4:45:00 PM -100000 -179968 -100000 -100000 -100000 -100000
12/25/2020 5:00:00 PM -100000 -179968 -100000 -100000 -100000 -100000
12/25/2020 5:15:00 PM 2.67 36.806 0.033 5.59 6.22 13.02
12/25/2020 5:30:00 PM 2.66 36.788 0.033 5.59 6.06 13.03
12/25/2020 5:45:00 PM 2.64 36.752 0.033 5.6 6.18 13.04
12/25/2020 6:00:00 PM 2.63 36.734 0.033 5.6 5.82 13.04
12/25/2020 6:15:00 PM -100000 -179968 -100000 -100000 -100000 -100000
12/25/2020 6:30:00 PM 2.6 36.68 0.033 5.59 6.47 13.06
12/25/2020 6:45:00 PM 2.58 36.644 0.033 5.6 5.87 13.07
12/25/2020 7:00:00 PM 2.57 36.626 0.033 5.6 5.7 13.08
12/25/2020 7:15:00 PM -100000 -179968 -100000 -100000 -100000 -100000
12/25/2020 7:30:00 PM -100000 -179968 -100000 -100000 -100000 -100000
12/25/2020 7:45:00 PM -100000 -179968 -100000 -100000 -100000 -100000
12/25/2020 8:00:00 PM 2.51 36.518 0.033 5.6 5.58 13.11
12/25/2020 8:15:00 PM 2.49 36.482 0.033 5.59 5.06 13.12
12/25/2020 8:30:00 PM 2.48 36.464 0.033 5.6 4.99 13.13
12/25/2020 8:45:00 PM 2.46 36.428 0.033 5.61 5.33 13.13
12/25/2020 9:00:00 PM 2.44 36.392 0.033 5.61 5.15 13.14
12/25/2020 9:15:00 PM 2.41 36.338 0.033 5.6 5.07 13.15
12/25/2020 9:30:00 PM 2.4 36.32 0.033 5.61 4.76 13.16
12/25/2020 9:45:00 PM 2.39 36.302 0.033 5.6 5.09 13.16
12/25/2020 10:00:00 PM 2.37 36.266 0.033 5.6 4.72 13.17
12/25/2020 10:15:00 PM 2.36 36.248 0.033 5.61 4.7 13.18
12/25/2020 10:30:00 PM 2.34 36.212 0.033 5.61 4.59 13.19
12/25/2020 10:45:00 PM 2.32 36.176 0.033 5.61 4.79 13.19
12/25/2020 11:00:00 PM 2.3 36.14 0.033 5.62 4.68 13.2
12/25/2020 11:15:00 PM 2.29 36.122 0.033 5.62 4.56 13.21
12/25/2020 11:30:00 PM 2.26 36.068 0.033 5.61 4.26 13.21
12/25/2020 11:45:00 PM 2.25 36.05 0.033 5.62 4.59 13.22
12/26/2020 12:00:00 AM 2.23 36.014 0.033 5.61 4.41 13.23
12/26/2020 12:15:00 AM 2.19 35.942 0.033 5.61 4.38 13.24
12/26/2020 12:30:00 AM 2.17 35.906 0.033 5.61 4.28 13.24
12/26/2020 12:45:00 AM 2.16 35.888 0.033 5.62 4.37 13.25
12/26/2020 1:00:00 AM 2.14 35.852 0.033 5.62 4.28 13.26
12/26/2020 1:15:00 AM 2.12 35.816 0.033 5.61 4.16 13.26
12/26/2020 1:30:00 AM 2.1 35.78 0.033 5.62 4.22 13.27
12/26/2020 1:45:00 AM 2.09 35.762 0.033 5.62 4.08 13.28
12/26/2020 2:00:00 AM -100000 -179968 -100000 -100000 -100000 -100000
12/26/2020 2:15:00 AM -100000 -179968 -100000 -100000 -100000 -100000
12/26/2020 2:30:00 AM -100000 -179968 -100000 -100000 -100000 -100000
12/26/2020 2:45:00 AM -100000 -179968 -100000 -100000 -100000 -100000
12/26/2020 3:00:00 AM -100000 -179968 -100000 -100000 -100000 -100000
12/26/2020 3:15:00 AM -100000 -179968 -100000 -100000 -100000 -100000
12/26/2020 3:30:00 AM -100000 -179968 -100000 -100000 -100000 -100000
12/26/2020 3:45:00 AM -100000 -179968 -100000 -100000 -100000 -100000
12/26/2020 4:00:00 AM -100000 -179968 -100000 -100000 -100000 -100000
12/26/2020 4:15:00 AM -100000 -179968 -100000 -100000 -100000 -100000
12/26/2020 4:30:00 AM -100000 -179968 -100000 -100000 -100000 -100000
12/26/2020 4:45:00 AM -100000 -179968 -100000 -100000 -100000 -100000
12/26/2020 5:00:00 AM -100000 -179968 -100000 -100000 -100000 -100000
12/26/2020 5:15:00 AM -100000 -179968 -100000 -100000 -100000 -100000
12/26/2020 5:30:00 AM -100000 -179968 -100000 -100000 -100000 -100000
12/26/2020 5:45:00 AM -100000 -179968 -100000 -100000 -100000 -100000
12/26/2020 6:00:00 AM -100000 -179968 -100000 -100000 -100000 -100000
12/26/2020 6:15:00 AM -100000 -179968 -100000 -100000 -100000 -100000
12/26/2020 6:30:00 AM -100000 -179968 -100000 -100000 -100000 -100000
12/26/2020 6:45:00 AM -100000 -179968 -100000 -100000 -100000 -100000
12/26/2020 7:00:00 AM -100000 -179968 -100000 -100000 -100000 -100000
12/26/2020 7:15:00 AM -100000 -179968 -100000 -100000 -100000 -100000
12/26/2020 7:30:00 AM -100000 -179968 -100000 -100000 -100000 -100000
12/26/2020 7:45:00 AM -100000 -179968 -100000 -100000 -100000 -100000
12/26/2020 8:00:00 AM -100000 -179968 -100000 -100000 -100000 -100000
12/26/2020 8:15:00 AM -100000 -179968 -100000 -100000 -100000 -100000
12/26/2020 8:30:00 AM -100000 -179968 -100000 -100000 -100000 -100000
12/26/2020 8:45:00 AM -100000 -179968 -100000 -100000 -100000 -100000
12/26/2020 9:00:00 AM -100000 -179968 -100000 -100000 -100000 -100000
12/26/2020 9:15:00 AM -100000 -179968 -100000 -100000 -100000 -100000
12/26/2020 9:30:00 AM -100000 -179968 -100000 -100000 -100000 -100000
12/26/2020 9:45:00 AM -100000 -179968 -100000 -100000 -100000 -100000
12/26/2020 10:00:00 AM -100000 -179968 -100000 -100000 -100000 -100000
12/29/2020 12:15:00 PM 3.04 37.472 0.032 5.52 564.38 12.56
12/29/2020 12:30:00 PM 3.12 37.616 0.035 5.82 3.48 13.23
12/29/2020 12:45:00 PM 3.15 37.67 0.035 5.81 1.83 13.23
12/29/2020 1:00:00 PM 3.15 37.67 0.035 5.81 2.4 13.22
12/29/2020 1:15:00 PM 3.16 37.688 0.035 5.81 1.45 13.22
12/29/2020 1:30:00 PM 3.18 37.724 0.035 5.81 1.67 13.22
12/29/2020 1:45:00 PM 3.17 37.706 0.035 5.81 1.57 13.21
12/29/2020 2:00:00 PM 3.19 37.742 0.035 5.81 1.62 13.19
12/29/2020 2:15:00 PM 3.2 37.76 0.035 5.82 1.53 13.19
12/29/2020 2:30:00 PM 3.19 37.742 0.035 5.81 1.77 13.19
12/29/2020 2:45:00 PM 3.16 37.688 0.035 5.81 1.63 13.19
12/29/2020 3:00:00 PM 3.12 37.616 0.036 5.81 1.43 13.2
12/29/2020 3:15:00 PM 3.11 37.598 0.036 5.81 1.9 13.2
12/29/2020 3:30:00 PM 3.1 37.58 0.036 5.81 1.51 13.21
12/29/2020 3:45:00 PM 3.07 37.526 0.035 5.8 3.57 13.22
12/29/2020 4:00:00 PM 3.02 37.436 0.036 5.81 1.67 13.23
12/29/2020 4:15:00 PM 2.99 37.382 0.036 5.81 1.53 13.24
12/29/2020 4:30:00 PM 2.97 37.346 0.035 5.79 2 13.24
12/29/2020 4:45:00 PM 2.93 37.274 0.036 5.81 1.5 13.26
12/29/2020 5:00:00 PM 2.89 37.202 0.036 5.8 1.6 13.27
12/29/2020 5:15:00 PM 2.85 37.13 0.036 5.8 1.64 13.29
12/29/2020 5:30:00 PM 2.8 37.04 0.036 5.8 1.55 13.3
12/29/2020 5:45:00 PM 2.76 36.968 0.036 5.8 1.57 13.31
12/29/2020 6:00:00 PM 2.71 36.878 0.036 5.8 1.51 13.33
12/29/2020 6:15:00 PM 2.66 36.788 0.036 5.81 1.58 13.34
12/29/2020 6:30:00 PM 2.62 36.716 0.035 5.8 1.49 13.36
12/29/2020 6:45:00 PM 2.58 36.644 0.036 5.81 1.45 13.37
12/29/2020 7:00:00 PM 2.54 36.572 0.036 5.82 1.48 13.38
12/29/2020 7:15:00 PM 2.5 36.5 0.036 5.81 1.51 13.4
12/29/2020 7:30:00 PM 2.46 36.428 0.036 5.81 1.44 13.41
12/29/2020 7:45:00 PM -100000 -179968 -100000 -100000 -100000 -100000
12/29/2020 8:00:00 PM 2.38 36.284 0.036 5.81 1.44 13.44
12/29/2020 8:15:00 PM 2.34 36.212 0.036 5.81 1.46 13.45
12/29/2020 8:30:00 PM 2.31 36.158 0.036 5.82 1.49 13.47
12/29/2020 8:45:00 PM 2.27 36.086 0.036 5.82 1.46 13.48
12/29/2020 9:00:00 PM 2.24 36.032 0.036 5.81 1.46 13.5
12/29/2020 9:15:00 PM 2.21 35.978 0.036 5.81 1.52 13.52
12/29/2020 9:30:00 PM 2.18 35.924 0.036 5.82 1.39 13.53
12/29/2020 9:45:00 PM 2.14 35.852 0.036 5.81 1.57 13.55
12/29/2020 10:00:00 PM 2.11 35.798 0.036 5.81 1.55 13.56
12/29/2020 10:15:00 PM 2.07 35.726 0.036 5.81 1.51 13.57
12/29/2020 10:30:00 PM 2.03 35.654 0.036 5.82 1.53 13.58
12/29/2020 10:45:00 PM 1.99 35.582 0.036 5.81 1.52 13.6
12/29/2020 11:00:00 PM 1.95 35.51 0.036 5.82 1.48 13.61
12/29/2020 11:15:00 PM 1.9 35.42 0.036 5.82 1.45 13.63
12/29/2020 11:30:00 PM 1.87 35.366 0.036 5.81 1.57 13.64
12/29/2020 11:45:00 PM 1.84 35.312 0.036 5.82 1.45 13.66
12/30/2020 12:00:00 AM 1.81 35.258 0.036 5.82 1.61 13.67
12/30/2020 12:15:00 AM 1.79 35.222 0.036 5.82 1.55 13.68
12/30/2020 12:30:00 AM 1.77 35.186 0.036 5.82 1.56 13.69
12/30/2020 12:45:00 AM 1.75 35.15 0.036 5.82 1.65 13.69
12/30/2020 1:00:00 AM 1.74 35.132 0.036 5.82 1.46 13.7
12/30/2020 1:15:00 AM 1.73 35.114 0.036 5.83 1.6 13.7
12/30/2020 1:30:00 AM 1.72 35.096 0.036 5.82 1.46 13.7
12/30/2020 1:45:00 AM 1.72 35.096 0.036 5.83 1.37 13.7
12/30/2020 2:00:00 AM 1.71 35.078 0.036 5.82 1.55 13.7
12/30/2020 2:15:00 AM 1.7 35.06 0.036 5.82 1.42 13.71
12/30/2020 2:30:00 AM 1.7 35.06 0.036 5.82 2.06 13.71
12/30/2020 2:45:00 AM 1.71 35.078 0.036 5.83 2.07 13.71
12/30/2020 3:00:00 AM 1.71 35.078 0.036 5.82 2.13 13.7
12/30/2020 3:15:00 AM 1.71 35.078 0.036 5.82 2.17 13.7
12/30/2020 3:30:00 AM 1.71 35.078 0.036 5.82 2.06 13.7
12/30/2020 3:45:00 AM 1.71 35.078 0.036 5.82 2.1 13.7
12/30/2020 4:00:00 AM 1.66 34.988 0.036 5.82 2.05 13.69
12/30/2020 4:15:00 AM 1.64 34.952 0.036 5.83 2.08 13.69
12/30/2020 4:30:00 AM 1.64 34.952 0.036 5.83 2.06 13.69
12/30/2020 4:45:00 AM 1.64 34.952 0.036 5.83 2.07 13.69
12/30/2020 5:00:00 AM 1.64 34.952 0.036 5.81 5.1 13.68
12/30/2020 5:15:00 AM 1.64 34.952 0.036 5.82 1.54 13.69
12/30/2020 5:30:00 AM 1.64 34.952 0.036 5.82 1.39 13.69
12/30/2020 5:45:00 AM 1.64 34.952 0.036 5.82 1.4 13.68
12/30/2020 6:00:00 AM -100000 -179968 -100000 -100000 -100000 -100000
12/30/2020 6:15:00 AM 1.64 34.952 0.036 5.82 1.39 13.68
12/30/2020 6:30:00 AM 1.63 34.934 0.036 5.83 1.41 13.68
12/30/2020 6:45:00 AM 1.63 34.934 0.036 5.82 1.41 13.68
12/30/2020 7:00:00 AM 1.62 34.916 0.036 5.82 1.42 13.68
12/30/2020 7:15:00 AM 1.61 34.898 0.036 5.82 1.49 13.68
12/30/2020 7:30:00 AM 1.6 34.88 0.036 5.82 1.38 13.68
12/30/2020 7:45:00 AM 1.58 34.844 0.036 5.82 1.44 13.68
12/30/2020 8:00:00 AM 1.57 34.826 0.036 5.83 1.35 13.7
12/30/2020 8:15:00 AM 1.57 34.826 0.036 5.83 1.51 13.7
12/30/2020 8:30:00 AM 1.56 34.808 0.036 5.82 1.41 13.71
12/30/2020 8:45:00 AM 1.55 34.79 0.036 5.83 1.45 13.71
12/30/2020 9:00:00 AM 1.55 34.79 0.036 5.83 1.37 13.72
12/30/2020 9:15:00 AM 1.56 34.808 0.036 5.83 1.36 13.72
12/30/2020 9:30:00 AM 1.59 34.862 0.036 5.83 1.45 13.72
12/30/2020 9:45:00 AM 1.61 34.898 0.036 5.84 1.33 13.71
12/30/2020 10:00:00 AM 1.65 34.97 0.036 5.84 1.51 13.7
12/30/2020 10:15:00 AM 1.68 35.024 0.036 5.84 1.37 13.69
12/30/2020 10:30:00 AM 1.72 35.096 0.036 5.83 1.4 13.68
12/30/2020 10:45:00 AM 1.76 35.168 0.036 5.84 1.32 13.66
12/30/2020 11:00:00 AM 1.82 35.276 0.036 5.84 1.29 13.64
12/30/2020 11:15:00 AM 1.87 35.366 0.036 5.84 1.42 13.61
12/30/2020 11:30:00 AM 1.92 35.456 0.036 5.84 1.31 13.58
12/30/2020 11:45:00 AM 1.97 35.546 0.036 5.84 1.42 13.56
12/30/2020 12:00:00 PM 2.02 35.636 0.036 5.84 1.37 13.53
12/30/2020 12:15:00 PM 2.07 35.726 0.036 5.84 1.37 13.5
12/30/2020 12:30:00 PM 2.13 35.834 0.036 5.85 1.4 13.48
12/30/2020 12:45:00 PM 2.19 35.942 0.036 5.84 1.4 13.46
12/30/2020 1:00:00 PM 2.27 36.086 0.036 5.85 1.34 13.43
12/30/2020 1:15:00 PM 2.33 36.194 0.036 5.86 1.32 13.4
12/30/2020 1:30:00 PM -100000 -179968 -100000 -100000 -100000 -100000
12/30/2020 1:45:00 PM 2.47 36.446 0.036 5.85 1.31 13.34
12/30/2020 2:00:00 PM 2.54 36.572 0.036 5.85 1.38 13.31
12/30/2020 2:15:00 PM 2.62 36.716 0.036 5.85 1.4 13.28
12/30/2020 2:30:00 PM 2.67 36.806 0.036 5.85 1.33 13.24
12/30/2020 2:45:00 PM 2.71 36.878 0.036 5.85 1.39 13.21
12/30/2020 3:00:00 PM 2.77 36.986 0.036 5.85 1.61 13.18
12/30/2020 3:15:00 PM 2.82 37.076 0.036 5.85 1.39 13.16
12/30/2020 3:30:00 PM 2.88 37.184 0.036 5.85 1.33 13.13
12/30/2020 3:45:00 PM 2.91 37.238 0.036 5.85 1.42 13.11
12/30/2020 4:00:00 PM 2.94 37.292 0.036 5.85 1.6 13.09
12/30/2020 4:15:00 PM 2.96 37.328 0.036 5.84 1.39 13.08
12/30/2020 4:30:00 PM 2.98 37.364 0.036 5.85 1.38 13.07
12/30/2020 4:45:00 PM 2.99 37.382 0.036 5.84 1.34 13.06
12/30/2020 5:00:00 PM 3.01 37.418 0.036 5.85 1.33 13.04
12/30/2020 5:15:00 PM 3.02 37.436 0.036 5.84 1.32 13.04
12/30/2020 5:30:00 PM 3.03 37.454 0.036 5.84 1.38 13.02
12/30/2020 5:45:00 PM 3.04 37.472 0.036 5.84 1.34 13.02
12/30/2020 6:00:00 PM 3.05 37.49 0.036 5.84 1.43 13.01
12/30/2020 6:15:00 PM 3.06 37.508 0.036 5.84 1.53 13
12/30/2020 6:30:00 PM 3.07 37.526 0.036 5.84 1.46 13
12/30/2020 6:45:00 PM 3.07 37.526 0.037 5.84 1.35 12.99
12/30/2020 7:00:00 PM 3.08 37.544 0.036 5.84 1.46 12.99
12/30/2020 7:15:00 PM 3.09 37.562 0.036 5.84 1.38 12.98
12/30/2020 7:30:00 PM 3.1 37.58 0.036 5.84 1.47 12.98
12/30/2020 7:45:00 PM 3.11 37.598 0.036 5.84 1.4 12.98
12/30/2020 8:00:00 PM 3.12 37.616 0.036 5.84 1.43 12.97
12/30/2020 8:15:00 PM 3.13 37.634 0.036 5.84 1.66 12.96
12/30/2020 8:30:00 PM 3.14 37.652 0.036 5.84 1.35 12.96
12/30/2020 8:45:00 PM 3.16 37.688 0.036 5.84 1.41 12.95
12/30/2020 9:00:00 PM 3.17 37.706 0.036 5.84 1.35 12.94
12/30/2020 9:15:00 PM -100000 -179968 -100000 -100000 -100000 -100000
12/30/2020 9:30:00 PM 3.2 37.76 0.037 5.84 1.36 12.93
12/30/2020 9:45:00 PM 3.21 37.778 0.037 5.84 1.41 12.92
12/30/2020 10:00:00 PM 3.23 37.814 0.037 5.84 1.4 12.92
12/30/2020 10:15:00 PM 3.24 37.832 0.037 5.84 1.42 12.91
12/30/2020 10:30:00 PM 3.25 37.85 0.036 5.84 1.42 12.9
12/30/2020 10:45:00 PM 3.27 37.886 0.037 5.84 1.39 12.9
12/30/2020 11:00:00 PM 3.28 37.904 0.037 5.84 1.36 12.89
12/30/2020 11:15:00 PM 3.29 37.922 0.037 5.84 1.41 12.88
12/30/2020 11:30:00 PM 3.31 37.958 0.037 5.84 1.36 12.87
12/30/2020 11:45:00 PM 3.32 37.976 0.037 5.85 1.31 12.87
12/31/2020 12:00:00 AM 3.34 38.012 0.038 5.85 1.32 12.86
12/31/2020 12:15:00 AM 3.35 38.03 0.038 5.85 1.35 12.85
12/31/2020 12:30:00 AM 3.37 38.066 0.038 5.85 1.39 12.85
12/31/2020 12:45:00 AM 3.39 38.102 0.038 5.85 1.41 12.84
12/31/2020 1:00:00 AM 3.4 38.12 0.038 5.86 1.36 12.83
12/31/2020 1:15:00 AM 3.42 38.156 0.039 5.86 1.37 12.82
12/31/2020 1:30:00 AM 3.44 38.192 0.039 5.86 1.38 12.82
12/31/2020 1:45:00 AM 3.45 38.21 0.039 5.86 1.29 12.82
12/31/2020 2:00:00 AM 3.47 38.246 0.039 5.86 1.32 12.81
12/31/2020 2:15:00 AM 3.48 38.264 0.039 5.87 3.69 12.81
12/31/2020 2:30:00 AM 3.49 38.282 0.039 5.85 1.36 12.81
12/31/2020 2:45:00 AM 3.52 38.336 0.039 5.86 1.36 12.81
12/31/2020 3:00:00 AM 3.53 38.354 0.039 5.86 1.38 12.81
12/31/2020 3:15:00 AM 3.54 38.372 0.039 5.86 1.4 12.8